Darstellungsparameter: Aktuell verwendete Einstellungen:
Skalierung der Graphiken ... ?
xyx+y,   Skalierungsfaktor:      Skalierung: Modus: x, Faktor: 1
Darstellungszeitraum ... ?
Vom - - bis: - -   Zeitraum: 29.09.2010 - 28.10.2010
Min/Max/Avg-Anzeige ... ?
Zeige MMA aktuell
Zeige MMA Monat
Zeige MMA alles
Zeige --A aktuell
Zeige --A Monat
Zeige --A alles
Keine MMA-Anzeige
MMA:
Average (ber die Originaldaten)
MMA-Basis: 23.02.2003 - 29.09.2020
Quicknavigation für Darstellung... ?
Tage:      1T, 2T, 3T, 5T -1T -2T -3T -5T +1T +2T +3T +5T
Wochen: 1W, 2W, 3W -1W -2W -3W +1W +2W +3W
Monate: 1M, 3M, 6M -1M -3M -6M +1M +3M +6M
Jahre:    1J, 3J, 5J, 10J -1J -3J -5J -10J +1J +3J +5J +10J
Nutze für die Darstellung ... ?
Originaldaten oder Mittelwerte auf ...
Stundenbasis Tagesbasis Wochenbasis
Monatsbasis Jahresbasis      Datenbasis: Original-Daten
Darstellen als:
Statistik (Auto) Statistik J:M      Darstellung:
Zur Graphik,    zurück zur Übersicht aller Sensoren.
 
Tabellarische Datenbersicht: ?
 
Sensor: Nr:Datum:Temp:Abs-Feuchte:Windchill:Wind:
Aussen-T/F 1 29-09-2010 00:00:02 11.6 C 9.87 g/m*3 11.6 C 0 km/h
2 29-09-2010 00:12:02 11.7 C 9.94 g/m*3 11.7 C 0 km/h
3 29-09-2010 00:24:02 11.6 C 9.87 g/m*3 11.6 C 0 km/h
4 29-09-2010 00:36:02 11.7 C 9.94 g/m*3 11.7 C 0 km/h
5 29-09-2010 00:48:02 11.6 C 9.87 g/m*3 11.6 C 0 km/h
6 29-09-2010 01:00:02 11.7 C 9.94 g/m*3 11.7 C 0 km/h
7 29-09-2010 01:12:03 11.6 C 9.87 g/m*3 11.6 C 0 km/h
8 29-09-2010 01:24:02 11.6 C 9.87 g/m*3 11.6 C 0 km/h
9 29-09-2010 01:36:02 11.6 C 9.87 g/m*3 11.6 C 0 km/h
10 29-09-2010 01:48:01 11.6 C 9.87 g/m*3 11.6 C 0 km/h
11 29-09-2010 02:00:01 11.6 C 9.87 g/m*3 11.6 C 0 km/h
12 29-09-2010 02:12:02 11.6 C 9.87 g/m*3 11.6 C 0 km/h
13 29-09-2010 02:24:01 11.5 C 9.81 g/m*3 11.5 C 0 km/h
14 29-09-2010 02:36:02 11.5 C 9.81 g/m*3 11.5 C 0 km/h
15 29-09-2010 02:48:01 11.6 C 9.87 g/m*3 11.6 C 0 km/h
16 29-09-2010 03:00:01 11.4 C 9.75 g/m*3 11.4 C 0 km/h
17 29-09-2010 03:12:01 11.3 C 9.69 g/m*3 11.3 C 0 km/h
18 29-09-2010 03:24:02 11.4 C 9.75 g/m*3 11.4 C 0 km/h
19 29-09-2010 03:36:01 11.7 C 9.94 g/m*3 11.7 C 0 km/h
20 29-09-2010 03:48:01 11.6 C 9.87 g/m*3 11.6 C 0 km/h
21 29-09-2010 04:00:01 11.6 C 9.87 g/m*3 11.6 C 0 km/h
22 29-09-2010 04:12:02 11.6 C 9.87 g/m*3 11.6 C 0 km/h
23 29-09-2010 04:24:01 11.6 C 9.87 g/m*3 11.6 C 0 km/h
24 29-09-2010 04:36:01 11.3 C 9.69 g/m*3 11.3 C 0 km/h
25 29-09-2010 04:48:01 11.3 C 9.69 g/m*3 11.3 C 0 km/h
Sensor: Nr:Datum:Temp:Abs-Feuchte:Windchill:Wind:
Aussen-T/F 26 29-09-2010 05:00:01 11.4 C 9.75 g/m*3 11.4 C 0 km/h
27 29-09-2010 05:12:02 11.4 C 9.75 g/m*3 11.4 C 0 km/h
28 29-09-2010 05:24:01 11.4 C 9.75 g/m*3 11.4 C 0 km/h
29 29-09-2010 05:36:01 11.4 C 9.75 g/m*3 11.4 C 0 km/h
30 29-09-2010 05:48:01 11.4 C 9.75 g/m*3 11.4 C 0 km/h
31 29-09-2010 06:00:01 11.7 C 9.94 g/m*3 11.7 C 0 km/h
32 29-09-2010 06:12:01 11.6 C 9.87 g/m*3 11.6 C 0 km/h
33 29-09-2010 06:24:02 11.5 C 9.81 g/m*3 11.5 C 0 km/h
34 29-09-2010 06:36:01 11.5 C 9.81 g/m*3 11.5 C 0 km/h
35 29-09-2010 06:48:02 11.3 C 9.69 g/m*3 11.3 C 0 km/h
36 29-09-2010 07:00:02 11.1 C 9.57 g/m*3 11.1 C 0 km/h
37 29-09-2010 07:12:01 10.8 C 9.39 g/m*3 10.8 C 0 km/h
38 29-09-2010 07:24:02 11 C 9.51 g/m*3 11 C 0 km/h
39 29-09-2010 07:36:01 11.2 C 9.63 g/m*3 11.2 C 0 km/h
40 29-09-2010 07:48:02 11.1 C 9.57 g/m*3 11.1 C 0 km/h
41 29-09-2010 08:00:02 11 C 9.51 g/m*3 11 C 0 km/h
42 29-09-2010 08:12:01 11.2 C 9.63 g/m*3 11.2 C 0 km/h
43 29-09-2010 08:24:01 11.2 C 9.63 g/m*3 11.2 C 0 km/h
44 29-09-2010 08:36:01 11.1 C 9.57 g/m*3 11.1 C 0 km/h
45 29-09-2010 08:48:02 11.4 C 9.75 g/m*3 11.4 C 0 km/h
46 29-09-2010 09:00:02 11.6 C 9.87 g/m*3 11.6 C 0 km/h
47 29-09-2010 09:12:01 11.2 C 9.53 g/m*3 11.2 C 0 km/h
48 29-09-2010 09:24:01 10.8 C 9.19 g/m*3 10.8 C 0 km/h
49 29-09-2010 09:36:02 11.7 C 9.62 g/m*3 11.7 C 0 km/h
50 29-09-2010 09:48:01 11.9 C 9.64 g/m*3 11.9 C 0 km/h
Sensor: Nr:Datum:Temp:Abs-Feuchte:Windchill:Wind:
Aussen-T/F 51 29-09-2010 10:00:01 12.1 C 9.22 g/m*3 12.1 C 0 km/h
52 29-09-2010 10:12:02 12.5 C 8.91 g/m*3 12.5 C 0 km/h
53 29-09-2010 10:24:01 12.9 C 8.79 g/m*3 12.9 C 0 km/h
54 29-09-2010 10:36:02 13.4 C 8.95 g/m*3 13.4 C 0 km/h
55 29-09-2010 10:48:01 13.7 C 9 g/m*3 13.7 C 0 km/h
56 29-09-2010 11:00:01 13.8 C 8.94 g/m*3 13.8 C 0 km/h
57 29-09-2010 11:12:02 13.7 C 8.53 g/m*3 13.7 C 0 km/h
58 29-09-2010 11:24:01 13.8 C 8.46 g/m*3 13.8 C 0 km/h
59 29-09-2010 11:36:01 14.1 C 8.01 g/m*3 14.1 C 0 km/h
60 29-09-2010 11:48:01 14.4 C 8.16 g/m*3 14.4 C 0 km/h
61 29-09-2010 12:00:01 14.5 C 8.21 g/m*3 14.5 C 0 km/h
62 29-09-2010 12:12:01 14.6 C 8.01 g/m*3 14.6 C 0 km/h
63 29-09-2010 12:24:01 14.1 C 7.52 g/m*3 14.1 C 0 km/h
64 29-09-2010 12:36:01 14 C 8.08 g/m*3 14 C 0 km/h
65 29-09-2010 12:48:01 14.8 C 8.36 g/m*3 14.8 C 0 km/h
66 29-09-2010 13:00:01 15.4 C 8.15 g/m*3 15.4 C 0 km/h
67 29-09-2010 13:12:01 15.7 C 7.89 g/m*3 15.7 C 0 km/h
68 29-09-2010 13:24:02 15.8 C 7.81 g/m*3 15.8 C 0 km/h
69 29-09-2010 13:36:01 15.9 C 7.99 g/m*3 15.9 C 0 km/h
70 29-09-2010 13:48:02 15.9 C 7.58 g/m*3 15.9 C 0 km/h
71 29-09-2010 14:00:02 16.3 C 7.35 g/m*3 16.3 C 0 km/h
72 29-09-2010 14:12:01 15.6 C 7.58 g/m*3 15.6 C 0 km/h
73 29-09-2010 14:24:02 15.8 C 7.94 g/m*3 15.8 C 0 km/h
74 29-09-2010 14:36:01 17.4 C 7.85 g/m*3 17.4 C 0 km/h
75 29-09-2010 14:48:02 19 C 7.33 g/m*3 19 C 0 km/h
Sensor: Nr:Datum:Temp:Abs-Feuchte:Windchill:Wind:
Aussen-T/F 76 29-09-2010 15:00:02 18.8 C 6.76 g/m*3 18.8 C 0 km/h
77 29-09-2010 15:12:01 18.8 C 6.93 g/m*3 18.8 C 0 km/h
78 29-09-2010 15:24:01 18.9 C 6.97 g/m*3 18.9 C 0 km/h
79 29-09-2010 15:36:02 19.6 C 6.92 g/m*3 19.6 C 0 km/h
80 29-09-2010 15:48:01 19.7 C 6.79 g/m*3 19.7 C 0 km/h
81 29-09-2010 16:00:02 18.8 C 7.41 g/m*3 18.8 C 0 km/h
82 29-09-2010 16:12:01 18.1 C 7.26 g/m*3 18.1 C 0 km/h
83 29-09-2010 16:24:01 18.1 C 7.57 g/m*3 18.1 C 0 km/h
84 29-09-2010 16:36:02 17.6 C 7.95 g/m*3 17.6 C 0 km/h
85 29-09-2010 16:48:01 18.1 C 7.88 g/m*3 18.1 C 0 km/h
86 29-09-2010 17:00:02 19 C 7.33 g/m*3 19 C 0 km/h
87 29-09-2010 17:12:01 19.4 C 7.01 g/m*3 19.4 C 0 km/h
88 29-09-2010 17:24:01 18.6 C 7.16 g/m*3 18.6 C 0 km/h
89 29-09-2010 17:36:02 17.6 C 7.95 g/m*3 17.6 C 0 km/h
90 29-09-2010 17:48:01 16.9 C 8.05 g/m*3 16.9 C 0 km/h
91 29-09-2010 18:00:01 15.9 C 7.58 g/m*3 15.9 C 0 km/h
92 29-09-2010 18:12:04 15.2 C 7.92 g/m*3 15.2 C 0 km/h
93 29-09-2010 18:24:02 14.4 C 7.91 g/m*3 14.4 C 0 km/h
94 29-09-2010 18:36:02 14 C 7.84 g/m*3 14 C 0 km/h
95 29-09-2010 18:48:01 13.6 C 7.89 g/m*3 13.6 C 0 km/h
96 29-09-2010 19:00:01 13.2 C 7.81 g/m*3 13.2 C 0 km/h
97 29-09-2010 19:12:01 13.1 C 7.76 g/m*3 13.1 C 0 km/h
98 29-09-2010 19:24:01 13 C 7.71 g/m*3 13 C 0 km/h
99 29-09-2010 19:36:02 13 C 7.6 g/m*3 13 C 0 km/h
100 29-09-2010 19:48:01 13.1 C 7.53 g/m*3 13.1 C 0 km/h
Sensor: Nr:Datum:Temp:Abs-Feuchte:Windchill:Wind:
Aussen-T/F 101 29-09-2010 20:00:01 13.3 C 7.63 g/m*3 13.3 C 0 km/h
102 29-09-2010 20:12:02 13.2 C 7.81 g/m*3 13.2 C 0 km/h
103 29-09-2010 20:24:01 13.2 C 7.81 g/m*3 13.2 C 0 km/h
104 29-09-2010 20:36:02 13 C 7.6 g/m*3 13 C 0 km/h
105 29-09-2010 20:48:01 12.9 C 7.66 g/m*3 12.9 C 0 km/h
106 29-09-2010 21:00:01 12.9 C 7.66 g/m*3 12.9 C 0 km/h
107 29-09-2010 21:12:02 12.8 C 7.84 g/m*3 12.8 C 0 km/h
108 29-09-2010 21:24:01 12.4 C 7.98 g/m*3 12.4 C 0 km/h
109 29-09-2010 21:38:05 12.2 C 8.09 g/m*3 12.2 C 0 km/h
110 29-09-2010 21:50:05 12.2 C 8.09 g/m*3 12.2 C 0 km/h
111 29-09-2010 22:02:05 12.3 C 8.25 g/m*3 12.3 C 0 km/h
112 29-09-2010 22:14:05 12.4 C 8.3 g/m*3 12.4 C 0 km/h
113 29-09-2010 22:26:05 12.4 C 8.41 g/m*3 12.4 C 0 km/h
114 29-09-2010 22:38:06 12.5 C 8.47 g/m*3 12.5 C 0 km/h
115 29-09-2010 22:50:06 12.3 C 8.36 g/m*3 12.3 C 0 km/h
116 29-09-2010 23:02:06 12 C 8.21 g/m*3 12 C 0 km/h
117 29-09-2010 23:14:06 11.8 C 8.31 g/m*3 11.8 C 0 km/h
118 29-09-2010 23:26:06 11.8 C 8.42 g/m*3 11.8 C 0 km/h
119 29-09-2010 23:38:06 12 C 8.31 g/m*3 12 C 0 km/h
120 29-09-2010 23:50:06 12.2 C 8.42 g/m*3 12.2 C 0 km/h
121 30-09-2010 00:02:06 12.4 C 8.52 g/m*3 12.4 C 0 km/h
122 30-09-2010 00:14:06 12.3 C 8.47 g/m*3 12.3 C 0 km/h
123 30-09-2010 00:26:06 12.1 C 8.36 g/m*3 12.1 C 0 km/h
124 30-09-2010 00:38:06 12.1 C 8.47 g/m*3 12.1 C 0 km/h
125 30-09-2010 00:50:06 11.9 C 8.37 g/m*3 11.9 C 0 km/h
Sensor: Nr:Datum:Temp:Abs-Feuchte:Windchill:Wind:
Aussen-T/F 126 30-09-2010 01:02:06 11.7 C 8.37 g/m*3 11.7 C 0 km/h
127 30-09-2010 01:14:06 11.8 C 7.89 g/m*3 11.8 C 0 km/h
128 30-09-2010 01:26:06 11.8 C 7.79 g/m*3 11.8 C 0 km/h
129 30-09-2010 01:38:06 12 C 7.46 g/m*3 12 C 0 km/h
130 30-09-2010 01:50:06 12 C 7.25 g/m*3 12 C 0 km/h
131 30-09-2010 02:02:06 12.1 C 7.4 g/m*3 12.1 C 0 km/h
132 30-09-2010 02:14:06 11.5 C 7.54 g/m*3 11.5 C 0 km/h
133 30-09-2010 02:26:06 11.4 C 7.7 g/m*3 11.4 C 0 km/h
134 30-09-2010 02:38:06 11.1 C 7.66 g/m*3 11.1 C 0 km/h
135 30-09-2010 02:50:07 11.2 C 7.8 g/m*3 11.2 C 0 km/h
136 30-09-2010 03:02:07 11.3 C 7.85 g/m*3 11.3 C 0 km/h
137 30-09-2010 03:14:07 11.2 C 7.91 g/m*3 11.2 C 0 km/h
138 30-09-2010 03:26:07 11 C 7.81 g/m*3 11 C 0 km/h
139 30-09-2010 03:38:07 11.1 C 7.86 g/m*3 11.1 C 0 km/h
140 30-09-2010 03:50:07 11.2 C 7.91 g/m*3 11.2 C 0 km/h
141 30-09-2010 04:02:07 11.3 C 7.96 g/m*3 11.3 C 0 km/h
142 30-09-2010 04:14:07 11.2 C 7.91 g/m*3 11.2 C 0 km/h
143 30-09-2010 04:26:07 11 C 7.81 g/m*3 11 C 0 km/h
144 30-09-2010 04:38:07 10.8 C 7.81 g/m*3 10.8 C 0 km/h
145 30-09-2010 04:50:07 10.8 C 7.91 g/m*3 10.8 C 0 km/h
146 30-09-2010 05:02:07 10.8 C 7.91 g/m*3 10.8 C 0 km/h
147 30-09-2010 05:14:07 10.8 C 7.91 g/m*3 10.8 C 0 km/h
148 30-09-2010 05:26:07 10.8 C 7.81 g/m*3 10.8 C 0 km/h
149 30-09-2010 05:38:07 10.7 C 7.76 g/m*3 10.7 C 0 km/h
150 30-09-2010 05:50:07 10.7 C 7.56 g/m*3 10.7 C 0 km/h
Sensor: Nr:Datum:Temp:Abs-Feuchte:Windchill:Wind:
Aussen-T/F 151 30-09-2010 06:02:07 10.8 C 7.31 g/m*3 10.8 C 0 km/h
152 30-09-2010 06:14:07 10.8 C 7.31 g/m*3 10.8 C 0 km/h
153 30-09-2010 06:26:07 10.7 C 7.27 g/m*3 10.7 C 0 km/h
154 30-09-2010 06:38:05 10.6 C 7.32 g/m*3 10.6 C 0 km/h
155 30-09-2010 06:50:02 10.6 C 7.42 g/m*3 10.6 C 0 km/h
156 30-09-2010 07:02:02 10.7 C 7.56 g/m*3 10.7 C 0 km/h
157 30-09-2010 07:14:02 10.7 C 7.66 g/m*3 10.7 C 0 km/h
158 30-09-2010 07:26:02 10.6 C 7.61 g/m*3 10.6 C 0 km/h
159 30-09-2010 07:38:02 10.6 C 7.71 g/m*3 10.6 C 0 km/h
160 30-09-2010 07:50:01 10.7 C 7.76 g/m*3 10.7 C 0 km/h
161 30-09-2010 08:02:01 10.7 C 7.66 g/m*3 10.7 C 0 km/h
162 30-09-2010 08:14:02 10.9 C 7.76 g/m*3 10.9 C 0 km/h
163 30-09-2010 08:26:01 10.9 C 7.76 g/m*3 10.9 C 0 km/h
164 30-09-2010 08:38:01 11 C 7.81 g/m*3 11 C 0 km/h
165 30-09-2010 08:50:01 11 C 7.81 g/m*3 11 C 0 km/h
166 30-09-2010 09:02:01 11.2 C 7.91 g/m*3 11.2 C 0 km/h
167 30-09-2010 09:14:01 11.4 C 8.01 g/m*3 11.4 C 0 km/h
168 30-09-2010 09:26:01 11.4 C 7.8 g/m*3 11.4 C 0 km/h
169 30-09-2010 09:38:01 11.5 C 7.75 g/m*3 11.5 C 0 km/h
170 30-09-2010 09:50:02 11.5 C 7.85 g/m*3 11.5 C 0 km/h
171 30-09-2010 10:02:02 11.4 C 8.01 g/m*3 11.4 C 0 km/h
172 30-09-2010 10:14:02 11.4 C 8.11 g/m*3 11.4 C 0 km/h
173 30-09-2010 10:26:03 11.7 C 8.37 g/m*3 11.7 C 0 km/h
174 30-09-2010 10:38:02 11.8 C 8.42 g/m*3 11.8 C 0 km/h
175 30-09-2010 10:50:02 11.9 C 8.47 g/m*3 11.9 C 0 km/h
Sensor: Nr:Datum:Temp:Abs-Feuchte:Windchill:Wind:
Aussen-T/F 176 30-09-2010 11:02:02 12 C 8.42 g/m*3 12 C 0 km/h
177 30-09-2010 11:14:02 12 C 8.42 g/m*3 12 C 0 km/h
178 30-09-2010 11:26:02 11.8 C 8.42 g/m*3 11.8 C 0 km/h
179 30-09-2010 11:38:01 11.7 C 8.47 g/m*3 11.7 C 0 km/h
180 30-09-2010 11:50:02 11.8 C 8.63 g/m*3 11.8 C 0 km/h
181 30-09-2010 12:02:01 11.9 C 8.79 g/m*3 11.9 C 0 km/h
182 30-09-2010 12:14:01 11.9 C 8.9 g/m*3 11.9 C 0 km/h
183 30-09-2010 12:26:02 12 C 8.95 g/m*3 12 C 0 km/h
184 30-09-2010 12:38:02 12.1 C 9.01 g/m*3 12.1 C 0 km/h
185 30-09-2010 12:50:02 12 C 9.06 g/m*3 12 C 0 km/h
186 30-09-2010 13:02:02 12.4 C 9.4 g/m*3 12.4 C 0 km/h
187 30-09-2010 13:14:02 12.6 C 9.51 g/m*3 12.6 C 0 km/h
188 30-09-2010 13:26:02 12.6 C 9.51 g/m*3 12.6 C 0 km/h
189 30-09-2010 13:38:02 12.6 C 9.62 g/m*3 12.6 C 0 km/h
190 30-09-2010 13:50:01 12.7 C 9.68 g/m*3 12.7 C 0 km/h
191 30-09-2010 14:02:02 12.9 C 9.81 g/m*3 12.9 C 0 km/h
192 30-09-2010 14:14:02 13 C 9.87 g/m*3 13 C 0 km/h
193 30-09-2010 14:26:01 12.8 C 9.86 g/m*3 12.8 C 0 km/h
194 30-09-2010 14:38:01 12.9 C 9.92 g/m*3 12.9 C 0 km/h
195 30-09-2010 14:50:01 13.1 C 10.04 g/m*3 13.1 C 0 km/h
196 30-09-2010 15:02:02 13.2 C 10.1 g/m*3 13.2 C 0 km/h
197 30-09-2010 15:14:03 13.2 C 10.1 g/m*3 13.2 C 0 km/h
198 30-09-2010 15:26:01 13.4 C 10.23 g/m*3 13.4 C 0 km/h
199 30-09-2010 15:38:01 13.3 C 10.17 g/m*3 13.3 C 0 km/h
200 30-09-2010 15:50:01 13.2 C 9.99 g/m*3 13.2 C 0 km/h
Sensor: Nr:Datum:Temp:Abs-Feuchte:Windchill:Wind:
Aussen-T/F 201 30-09-2010 16:02:01 13.5 C 10.29 g/m*3 13.5 C 0 km/h
202 30-09-2010 16:14:01 13.5 C 10.29 g/m*3 13.5 C 0 km/h
203 30-09-2010 16:26:02 13.6 C 10.24 g/m*3 13.6 C 0 km/h
204 30-09-2010 16:38:01 13.3 C 10.05 g/m*3 13.3 C 0 km/h
205 30-09-2010 16:50:03 13.1 C 9.93 g/m*3 13.1 C 0 km/h
206 30-09-2010 17:02:02 13.1 C 9.93 g/m*3 13.1 C 0 km/h
207 30-09-2010 17:14:02 13 C 9.98 g/m*3 13 C 0 km/h
208 30-09-2010 17:26:02 13 C 9.98 g/m*3 13 C 0 km/h
209 30-09-2010 17:38:02 12.9 C 10.03 g/m*3 12.9 C 0 km/h
210 30-09-2010 17:50:02 12.8 C 9.97 g/m*3 12.8 C 0 km/h
211 30-09-2010 18:02:02 12.7 C 9.91 g/m*3 12.7 C 0 km/h
212 30-09-2010 18:14:02 12.5 C 9.78 g/m*3 12.5 C 0 km/h
213 30-09-2010 18:26:02 12.5 C 9.78 g/m*3 12.5 C 0 km/h
214 30-09-2010 18:38:02 12.4 C 9.83 g/m*3 12.4 C 0 km/h
215 30-09-2010 18:50:01 12.3 C 9.77 g/m*3 12.3 C 0 km/h
216 30-09-2010 19:02:02 12.2 C 9.71 g/m*3 12.2 C 0 km/h
217 30-09-2010 19:14:02 12.1 C 9.76 g/m*3 12.1 C 0 km/h
218 30-09-2010 19:26:02 12.1 C 9.76 g/m*3 12.1 C 0 km/h
219 30-09-2010 19:38:02 12.2 C 9.82 g/m*3 12.2 C 0 km/h
220 30-09-2010 19:50:02 12.1 C 9.87 g/m*3 12.1 C 0 km/h
221 30-09-2010 20:02:02 12.2 C 9.93 g/m*3 12.2 C 0 km/h
222 30-09-2010 20:14:02 12.2 C 9.93 g/m*3 12.2 C 0 km/h
223 30-09-2010 20:26:02 12.1 C 9.87 g/m*3 12.1 C 0 km/h
224 30-09-2010 20:38:01 12.1 C 9.87 g/m*3 12.1 C 0 km/h
225 30-09-2010 20:50:02 12.2 C 10.04 g/m*3 12.2 C 0 km/h
Sensor: Nr:Datum:Temp:Abs-Feuchte:Windchill:Wind:
Aussen-T/F 226 30-09-2010 21:02:01 12.1 C 9.97 g/m*3 12.1 C 0 km/h
227 30-09-2010 21:14:01 12.1 C 9.97 g/m*3 12.1 C 0 km/h
228 30-09-2010 21:26:02 12.1 C 9.97 g/m*3 12.1 C 0 km/h
229 30-09-2010 21:38:01 12.1 C 9.97 g/m*3 12.1 C 0 km/h
230 30-09-2010 21:50:02 12 C 9.91 g/m*3 12 C 0 km/h
231 30-09-2010 22:02:02 12 C 9.91 g/m*3 12 C 0 km/h
232 30-09-2010 22:14:02 12 C 9.91 g/m*3 12 C 0 km/h
233 30-09-2010 22:26:02 11.9 C 9.96 g/m*3 11.9 C 0 km/h
234 30-09-2010 22:38:02 11.9 C 9.96 g/m*3 11.9 C 0 km/h
235 30-09-2010 22:50:01 12 C 9.91 g/m*3 12 C 0 km/h
236 30-09-2010 23:03:03 12 C 9.91 g/m*3 12 C 0 km/h
237 30-09-2010 23:15:03 11.9 C 9.96 g/m*3 11.9 C 0 km/h
238 30-09-2010 23:27:03 12 C 10.02 g/m*3 12 C 0 km/h
239 30-09-2010 23:39:03 12.1 C 10.08 g/m*3 12.1 C 0 km/h
240 30-09-2010 23:51:03 12 C 10.02 g/m*3 12 C 0 km/h
241 01-10-2010 00:03:03 12.1 C 10.08 g/m*3 12.1 C 0 km/h
242 01-10-2010 00:15:03 12 C 10.02 g/m*3 12 C 0 km/h
243 01-10-2010 00:27:03 12.1 C 10.08 g/m*3 12.1 C 0 km/h
244 01-10-2010 00:39:03 12.1 C 10.08 g/m*3 12.1 C 0 km/h
245 01-10-2010 00:51:03 11.8 C 10 g/m*3 11.8 C 0 km/h
246 01-10-2010 01:03:03 11.6 C 9.87 g/m*3 11.6 C 0 km/h
247 01-10-2010 01:15:04 11.7 C 9.94 g/m*3 11.7 C 0 km/h
248 01-10-2010 01:27:04 11.6 C 9.87 g/m*3 11.6 C 0 km/h
249 01-10-2010 01:39:04 11.5 C 9.81 g/m*3 11.5 C 0 km/h
250 01-10-2010 01:51:04 11.5 C 9.81 g/m*3 11.5 C 0 km/h
Sensor: Nr:Datum:Temp:Abs-Feuchte:Windchill:Wind:
Aussen-T/F 251 01-10-2010 02:03:04 11.5 C 9.81 g/m*3 11.5 C 0 km/h
252 01-10-2010 02:15:04 11.4 C 9.75 g/m*3 11.4 C 0 km/h
253 01-10-2010 02:27:04 11.4 C 9.75 g/m*3 11.4 C 0 km/h
254 01-10-2010 02:39:04 11.4 C 9.75 g/m*3 11.4 C 0 km/h
255 01-10-2010 02:51:04 11.5 C 9.81 g/m*3 11.5 C 0 km/h
256 01-10-2010 03:03:04 11.5 C 9.81 g/m*3 11.5 C 0 km/h
257 01-10-2010 03:15:04 11.5 C 9.81 g/m*3 11.5 C 0 km/h
258 01-10-2010 03:27:04 11.5 C 9.81 g/m*3 11.5 C 0 km/h
259 01-10-2010 03:39:04 11.5 C 9.81 g/m*3 11.5 C 0 km/h
260 01-10-2010 03:51:04 11.8 C 10 g/m*3 11.8 C 0 km/h
261 01-10-2010 04:03:04 11.7 C 9.94 g/m*3 11.7 C 0 km/h
262 01-10-2010 04:15:04 11.7 C 9.94 g/m*3 11.7 C 0 km/h
263 01-10-2010 04:27:04 11.7 C 9.94 g/m*3 11.7 C 0 km/h
264 01-10-2010 04:39:04 11.7 C 9.94 g/m*3 11.7 C 0 km/h
265 01-10-2010 04:51:04 11.7 C 9.94 g/m*3 11.7 C 0 km/h
266 01-10-2010 05:03:04 11.7 C 9.94 g/m*3 11.7 C 0 km/h
267 01-10-2010 05:15:04 11.7 C 9.94 g/m*3 11.7 C 0 km/h
268 01-10-2010 05:27:04 11.7 C 9.94 g/m*3 11.7 C 0 km/h
269 01-10-2010 05:39:04 11.5 C 9.81 g/m*3 11.5 C 0 km/h
270 01-10-2010 05:51:05 11.5 C 9.81 g/m*3 11.5 C 0 km/h
271 01-10-2010 06:03:05 11.4 C 9.75 g/m*3 11.4 C 0 km/h
272 01-10-2010 06:15:05 11.4 C 9.75 g/m*3 11.4 C 0 km/h
273 01-10-2010 06:27:05 11.4 C 9.75 g/m*3 11.4 C 0 km/h
274 01-10-2010 06:39:05 11.4 C 9.75 g/m*3 11.4 C 0 km/h
275 01-10-2010 06:51:05 11.4 C 9.75 g/m*3 11.4 C 0 km/h
Sensor: Nr:Datum:Temp:Abs-Feuchte:Windchill:Wind:
Aussen-T/F 276 01-10-2010 07:03:05 11.3 C 9.69 g/m*3 11.3 C 0 km/h
277 01-10-2010 07:15:02 11.3 C 9.69 g/m*3 11.3 C 0 km/h
278 01-10-2010 07:27:02 11 C 9.51 g/m*3 11 C 0 km/h
279 01-10-2010 07:39:02 10.8 C 9.39 g/m*3 10.8 C 0 km/h
280 01-10-2010 07:51:02 10.6 C 9.27 g/m*3 10.6 C 0 km/h
281 01-10-2010 08:03:02 10.4 C 9.16 g/m*3 10.4 C 0 km/h
282 01-10-2010 08:15:02 10.3 C 9.1 g/m*3 10.3 C 0 km/h
283 01-10-2010 08:27:02 10.2 C 9.04 g/m*3 10.2 C 0 km/h
284 01-10-2010 08:39:02 10.2 C 9.04 g/m*3 10.2 C 0 km/h
285 01-10-2010 08:51:02 10.4 C 9.16 g/m*3 10.4 C 0 km/h
286 01-10-2010 09:03:02 10.7 C 9.33 g/m*3 10.7 C 0 km/h
287 01-10-2010 09:15:01 11.1 C 9.57 g/m*3 11.1 C 0 km/h
288 01-10-2010 09:27:01 11.3 C 9.69 g/m*3 11.3 C 0 km/h
289 01-10-2010 09:39:02 11.4 C 9.75 g/m*3 11.4 C 0 km/h
290 01-10-2010 09:51:02 11.7 C 9.94 g/m*3 11.7 C 0 km/h
291 01-10-2010 10:03:02 11.7 C 9.94 g/m*3 11.7 C 0 km/h
292 01-10-2010 10:15:02 11.7 C 9.83 g/m*3 11.7 C 0 km/h
293 01-10-2010 10:27:02 11.6 C 9.56 g/m*3 11.6 C 0 km/h
294 01-10-2010 10:39:02 11.7 C 9.52 g/m*3 11.7 C 0 km/h
295 01-10-2010 10:51:02 11.9 C 9.32 g/m*3 11.9 C 0 km/h
296 01-10-2010 11:03:02 12.1 C 9.12 g/m*3 12.1 C 0 km/h
297 01-10-2010 11:15:02 12.2 C 8.85 g/m*3 12.2 C 0 km/h
298 01-10-2010 11:27:02 12.5 C 8.91 g/m*3 12.5 C 0 km/h
299 01-10-2010 11:39:02 12.5 C 8.69 g/m*3 12.5 C 0 km/h
300 01-10-2010 11:51:02 13 C 8.62 g/m*3 13 C 0 km/h
Sensor: Nr:Datum:Temp:Abs-Feuchte:Windchill:Wind:
Aussen-T/F 301 01-10-2010 12:03:02 12.8 C 8.51 g/m*3 12.8 C 0 km/h
302 01-10-2010 12:15:02 12.8 C 8.62 g/m*3 12.8 C 0 km/h
303 01-10-2010 12:27:02 12.7 C 8.46 g/m*3 12.7 C 0 km/h
304 01-10-2010 12:39:02 12.4 C 8.41 g/m*3 12.4 C 0 km/h
305 01-10-2010 12:51:02 12.7 C 8.46 g/m*3 12.7 C 0 km/h
306 01-10-2010 13:03:01 12.8 C 8.4 g/m*3 12.8 C 0 km/h
307 01-10-2010 13:15:02 13.3 C 8.32 g/m*3 13.3 C 0 km/h
308 01-10-2010 13:27:02 13.4 C 8.14 g/m*3 13.4 C 0 km/h
309 01-10-2010 13:39:01 13.1 C 7.76 g/m*3 13.1 C 0 km/h
310 01-10-2010 13:51:02 13.3 C 7.97 g/m*3 13.3 C 0 km/h
311 01-10-2010 14:03:01 13.1 C 7.87 g/m*3 13.1 C 0 km/h
312 01-10-2010 14:15:01 13.2 C 8.04 g/m*3 13.2 C 0 km/h
313 01-10-2010 14:27:01 13.3 C 7.86 g/m*3 13.3 C 0 km/h
314 01-10-2010 14:39:02 13.2 C 7.92 g/m*3 13.2 C 0 km/h
315 01-10-2010 14:51:02 13.8 C 7.98 g/m*3 13.8 C 0 km/h
316 01-10-2010 15:03:02 14.4 C 7.91 g/m*3 14.4 C 0 km/h
317 01-10-2010 15:15:02 15.2 C 7.92 g/m*3 15.2 C 0 km/h
318 01-10-2010 15:27:02 15.3 C 7.7 g/m*3 15.3 C 0 km/h
319 01-10-2010 15:39:02 15.7 C 7.76 g/m*3 15.7 C 0 km/h
320 01-10-2010 15:51:02 15.9 C 7.58 g/m*3 15.9 C 0 km/h
321 01-10-2010 16:03:02 16 C 7.49 g/m*3 16 C 0 km/h
322 01-10-2010 16:15:02 16.2 C 7.17 g/m*3 16.2 C 0 km/h
323 01-10-2010 16:27:02 17.1 C 7.42 g/m*3 17.1 C 0 km/h
324 01-10-2010 16:39:02 17.2 C 7.91 g/m*3 17.2 C 0 km/h
325 01-10-2010 16:51:02 17.2 C 8.05 g/m*3 17.2 C 0 km/h
Sensor: Nr:Datum:Temp:Abs-Feuchte:Windchill:Wind:
Aussen-T/F 326 01-10-2010 17:03:02 17.5 C 7.9 g/m*3 17.5 C 0 km/h
327 01-10-2010 17:15:02 16.6 C 8.19 g/m*3 16.6 C 0 km/h
328 01-10-2010 17:27:02 16 C 8.31 g/m*3 16 C 0 km/h
329 01-10-2010 17:39:02 15.4 C 8.54 g/m*3 15.4 C 0 km/h
330 01-10-2010 17:51:02 15.2 C 8.7 g/m*3 15.2 C 0 km/h
331 01-10-2010 18:03:02 14.8 C 8.74 g/m*3 14.8 C 0 km/h
332 01-10-2010 18:15:02 14.7 C 8.94 g/m*3 14.7 C 0 km/h
333 01-10-2010 18:27:02 14.5 C 8.83 g/m*3 14.5 C 0 km/h
334 01-10-2010 18:39:01 14.1 C 8.74 g/m*3 14.1 C 0 km/h
335 01-10-2010 18:51:02 13.6 C 8.71 g/m*3 13.6 C 0 km/h
336 01-10-2010 19:03:01 12.8 C 8.62 g/m*3 12.8 C 0 km/h
337 01-10-2010 19:15:02 12.5 C 8.58 g/m*3 12.5 C 0 km/h
338 01-10-2010 19:27:02 12.2 C 8.52 g/m*3 12.2 C 0 km/h
339 01-10-2010 19:39:02 11.8 C 8.53 g/m*3 11.8 C 0 km/h
340 01-10-2010 19:51:02 11.6 C 8.52 g/m*3 11.6 C 0 km/h
341 01-10-2010 20:03:02 11.4 C 8.42 g/m*3 11.4 C 0 km/h
342 01-10-2010 20:15:02 11.3 C 8.47 g/m*3 11.3 C 0 km/h
343 01-10-2010 20:27:02 11.2 C 8.51 g/m*3 11.2 C 0 km/h
344 01-10-2010 20:39:02 11.2 C 8.51 g/m*3 11.2 C 0 km/h
345 01-10-2010 20:51:01 11.2 C 8.62 g/m*3 11.2 C 0 km/h
346 01-10-2010 21:03:02 11.1 C 8.56 g/m*3 11.1 C 0 km/h
347 01-10-2010 21:15:01 11 C 8.51 g/m*3 11 C 0 km/h
348 01-10-2010 21:27:01 10.8 C 8.5 g/m*3 10.8 C 0 km/h
349 01-10-2010 21:39:01 10.7 C 8.55 g/m*3 10.7 C 0 km/h
350 01-10-2010 21:51:01 10.7 C 8.55 g/m*3 10.7 C 0 km/h
Sensor: Nr:Datum:Temp:Abs-Feuchte:Windchill:Wind:
Aussen-T/F 351 01-10-2010 22:03:02 10.8 C 8.7 g/m*3 10.8 C 0 km/h
352 01-10-2010 22:15:02 10.9 C 8.75 g/m*3 10.9 C 0 km/h
353 01-10-2010 22:27:02 11 C 8.81 g/m*3 11 C 0 km/h
354 01-10-2010 22:39:01 11.1 C 8.76 g/m*3 11.1 C 0 km/h
355 01-10-2010 22:52:04 11.1 C 8.76 g/m*3 11.1 C 0 km/h
356 01-10-2010 23:04:04 11.1 C 8.76 g/m*3 11.1 C 0 km/h
357 01-10-2010 23:16:04 11.1 C 8.76 g/m*3 11.1 C 0 km/h
358 01-10-2010 23:28:04 11 C 8.71 g/m*3 11 C 0 km/h
359 01-10-2010 23:40:04 11 C 8.71 g/m*3 11 C 0 km/h
360 01-10-2010 23:52:04 11.1 C 8.76 g/m*3 11.1 C 0 km/h
361 02-10-2010 00:04:04 11.2 C 8.82 g/m*3 11.2 C 0 km/h
362 02-10-2010 00:16:04 11.2 C 8.72 g/m*3 11.2 C 0 km/h
363 02-10-2010 00:28:04 11.2 C 8.72 g/m*3 11.2 C 0 km/h
364 02-10-2010 00:40:04 11.1 C 8.66 g/m*3 11.1 C 0 km/h
365 02-10-2010 00:52:04 10.9 C 8.65 g/m*3 10.9 C 0 km/h
366 02-10-2010 01:04:04 10.9 C 8.65 g/m*3 10.9 C 0 km/h
367 02-10-2010 01:16:04 11 C 8.71 g/m*3 11 C 0 km/h
368 02-10-2010 01:28:05 10.9 C 8.75 g/m*3 10.9 C 0 km/h
369 02-10-2010 01:40:05 11 C 8.81 g/m*3 11 C 0 km/h
370 02-10-2010 01:52:05 10.8 C 8.8 g/m*3 10.8 C 0 km/h
371 02-10-2010 02:04:05 10.8 C 8.8 g/m*3 10.8 C 0 km/h
372 02-10-2010 02:16:05 10.8 C 8.9 g/m*3 10.8 C 0 km/h
373 02-10-2010 02:28:05 11 C 9.01 g/m*3 11 C 0 km/h
374 02-10-2010 02:40:05 11.1 C 9.07 g/m*3 11.1 C 0 km/h
375 02-10-2010 02:52:05 11.1 C 9.07 g/m*3 11.1 C 0 km/h
Sensor: Nr:Datum:Temp:Abs-Feuchte:Windchill:Wind:
Aussen-T/F 376 02-10-2010 03:04:05 11.1 C 9.07 g/m*3 11.1 C 0 km/h
377 02-10-2010 03:16:05 11.1 C 9.17 g/m*3 11.1 C 0 km/h
378 02-10-2010 03:28:05 11.1 C 9.17 g/m*3 11.1 C 0 km/h
379 02-10-2010 03:40:05 11.1 C 9.17 g/m*3 11.1 C 0 km/h
380 02-10-2010 03:52:05 11.1 C 9.17 g/m*3 11.1 C 0 km/h
381 02-10-2010 04:04:05 11.1 C 9.27 g/m*3 11.1 C 0 km/h
382 02-10-2010 04:16:05 11.1 C 9.27 g/m*3 11.1 C 0 km/h
383 02-10-2010 04:28:05 11.1 C 9.27 g/m*3 11.1 C 0 km/h
384 02-10-2010 04:40:05 11.1 C 9.27 g/m*3 11.1 C 0 km/h
385 02-10-2010 04:52:05 11 C 9.21 g/m*3 11 C 0 km/h
386 02-10-2010 05:04:05 11 C 9.21 g/m*3 11 C 0 km/h
387 02-10-2010 05:16:05 11 C 9.31 g/m*3 11 C 0 km/h
388 02-10-2010 05:28:05 11 C 9.31 g/m*3 11 C 0 km/h
389 02-10-2010 05:40:05 10.9 C 9.35 g/m*3 10.9 C 0 km/h
390 02-10-2010 05:52:05 11 C 9.31 g/m*3 11 C 0 km/h
391 02-10-2010 06:04:06 11 C 9.31 g/m*3 11 C 0 km/h
392 02-10-2010 06:16:06 11 C 9.41 g/m*3 11 C 0 km/h
393 02-10-2010 06:28:06 11 C 9.41 g/m*3 11 C 0 km/h
394 02-10-2010 06:40:06 11 C 9.41 g/m*3 11 C 0 km/h
395 02-10-2010 06:52:06 11 C 9.41 g/m*3 11 C 0 km/h
396 02-10-2010 07:04:06 11 C 9.41 g/m*3 11 C 0 km/h
397 02-10-2010 07:16:06 11.1 C 9.47 g/m*3 11.1 C 0 km/h
398 02-10-2010 07:28:06 11.2 C 9.63 g/m*3 11.2 C 0 km/h
399 02-10-2010 07:40:03 11.2 C 9.63 g/m*3 11.2 C 0 km/h
400 02-10-2010 07:52:02 11.2 C 9.63 g/m*3 11.2 C 0 km/h
Sensor: Nr:Datum:Temp:Abs-Feuchte:Windchill:Wind:
Aussen-T/F 401 02-10-2010 08:04:02 11.3 C 9.69 g/m*3 11.3 C 0 km/h
402 02-10-2010 08:16:03 11.3 C 9.69 g/m*3 11.3 C 0 km/h
403 02-10-2010 08:28:03 11.4 C 9.75 g/m*3 11.4 C 0 km/h
404 02-10-2010 08:40:02 11.5 C 9.81 g/m*3 11.5 C 0 km/h
405 02-10-2010 08:52:02 11.8 C 10 g/m*3 11.8 C 0 km/h
406 02-10-2010 09:04:02 11.8 C 10 g/m*3 11.8 C 0 km/h
407 02-10-2010 09:16:02 11.8 C 10 g/m*3 11.8 C 0 km/h
408 02-10-2010 09:28:02 12 C 10.12 g/m*3 12 C 0 km/h
409 02-10-2010 09:40:02 12.1 C 10.19 g/m*3 12.1 C 0 km/h
410 02-10-2010 09:52:02 12.3 C 10.32 g/m*3 12.3 C 0 km/h
411 02-10-2010 10:04:02 12.6 C 10.51 g/m*3 12.6 C 0 km/h
412 02-10-2010 10:16:02 13 C 10.66 g/m*3 13 C 0 km/h
413 02-10-2010 10:28:02 13 C 10.66 g/m*3 13 C 0 km/h
414 02-10-2010 10:40:01 13.3 C 10.86 g/m*3 13.3 C 0 km/h
415 02-10-2010 10:52:02 13.8 C 11.08 g/m*3 13.8 C 0 km/h
416 02-10-2010 11:04:01 14 C 11.1 g/m*3 14 C 0 km/h
417 02-10-2010 11:16:01 14.4 C 11.37 g/m*3 14.4 C 0 km/h
418 02-10-2010 11:28:01 14.4 C 11.37 g/m*3 14.4 C 0 km/h
419 02-10-2010 11:40:02 14.4 C 11.25 g/m*3 14.4 C 0 km/h
420 02-10-2010 11:52:02 14.4 C 11.25 g/m*3 14.4 C 0 km/h
421 02-10-2010 12:04:02 14.5 C 11.32 g/m*3 14.5 C 0 km/h
422 02-10-2010 12:16:02 14.7 C 11.46 g/m*3 14.7 C 0 km/h
423 02-10-2010 12:28:02 15.2 C 11.68 g/m*3 15.2 C 0 km/h
424 02-10-2010 12:40:02 15.4 C 11.69 g/m*3 15.4 C 0 km/h
425 02-10-2010 12:52:02 15.4 C 11.43 g/m*3 15.4 C 0 km/h
Sensor: Nr:Datum:Temp:Abs-Feuchte:Windchill:Wind:
Aussen-T/F 426 02-10-2010 13:04:02 15.5 C 11.5 g/m*3 15.5 C 0 km/h
427 02-10-2010 13:16:02 15.6 C 11.57 g/m*3 15.6 C 0 km/h
428 02-10-2010 13:28:02 15.7 C 11.64 g/m*3 15.7 C 0 km/h
429 02-10-2010 13:40:02 15.9 C 11.65 g/m*3 15.9 C 0 km/h
430 02-10-2010 13:52:01 16 C 11.31 g/m*3 16 C 0 km/h
431 02-10-2010 14:04:01 15.7 C 11.24 g/m*3 15.7 C 0 km/h
432 02-10-2010 14:16:02 15.4 C 11.17 g/m*3 15.4 C 0 km/h
433 02-10-2010 14:28:02 15.4 C 11.3 g/m*3 15.4 C 0 km/h
434 02-10-2010 14:40:01 15.7 C 11.64 g/m*3 15.7 C 0 km/h
435 02-10-2010 14:52:03 16 C 11.72 g/m*3 16 C 0 km/h
436 02-10-2010 15:04:02 15.8 C 11.71 g/m*3 15.8 C 0 km/h
437 02-10-2010 15:16:02 15.9 C 11.65 g/m*3 15.9 C 0 km/h
438 02-10-2010 15:28:02 16 C 11.44 g/m*3 16 C 0 km/h
439 02-10-2010 15:40:02 16.2 C 11.31 g/m*3 16.2 C 0 km/h
440 02-10-2010 15:52:02 16.1 C 11.24 g/m*3 16.1 C 0 km/h
441 02-10-2010 16:04:02 16.2 C 11.31 g/m*3 16.2 C 0 km/h
442 02-10-2010 16:16:02 16.1 C 10.97 g/m*3 16.1 C 0 km/h
443 02-10-2010 16:28:02 16.2 C 11.03 g/m*3 16.2 C 0 km/h
444 02-10-2010 16:40:02 16.4 C 11.17 g/m*3 16.4 C 0 km/h
445 02-10-2010 16:52:02 16.3 C 10.96 g/m*3 16.3 C 0 km/h
446 02-10-2010 17:04:01 16.4 C 11.03 g/m*3 16.4 C 0 km/h
447 02-10-2010 17:16:01 16.3 C 10.82 g/m*3 16.3 C 0 km/h
448 02-10-2010 17:28:01 16.3 C 10.96 g/m*3 16.3 C 0 km/h
449 02-10-2010 17:40:02 16.3 C 10.96 g/m*3 16.3 C 0 km/h
450 02-10-2010 17:52:02 16.1 C 10.83 g/m*3 16.1 C 0 km/h
Sensor: Nr:Datum:Temp:Abs-Feuchte:Windchill:Wind:
Aussen-T/F 451 02-10-2010 18:04:02 15.9 C 10.97 g/m*3 15.9 C 0 km/h
452 02-10-2010 18:16:02 15.6 C 10.91 g/m*3 15.6 C 0 km/h
453 02-10-2010 18:28:02 15.3 C 10.84 g/m*3 15.3 C 0 km/h
454 02-10-2010 18:40:02 15.2 C 10.9 g/m*3 15.2 C 0 km/h
455 02-10-2010 18:52:02 15.1 C 10.97 g/m*3 15.1 C 0 km/h
456 02-10-2010 19:04:02 15 C 10.9 g/m*3 15 C 0 km/h
457 02-10-2010 19:16:02 15 C 10.9 g/m*3 15 C 0 km/h
458 02-10-2010 19:28:02 15 C 10.9 g/m*3 15 C 0 km/h
459 02-10-2010 19:40:02 14.9 C 10.96 g/m*3 14.9 C 0 km/h
460 02-10-2010 19:52:01 14.8 C 11.02 g/m*3 14.8 C 0 km/h
461 02-10-2010 20:04:01 14.8 C 11.02 g/m*3 14.8 C 0 km/h
462 02-10-2010 20:16:02 14.9 C 11.22 g/m*3 14.9 C 0 km/h
463 02-10-2010 20:28:02 14.9 C 11.22 g/m*3 14.9 C 0 km/h
464 02-10-2010 20:40:01 14.8 C 11.02 g/m*3 14.8 C 0 km/h
465 02-10-2010 20:52:01 14.6 C 11.01 g/m*3 14.6 C 0 km/h
466 02-10-2010 21:04:01 14.6 C 11.01 g/m*3 14.6 C 0 km/h
467 02-10-2010 21:16:02 14.5 C 10.94 g/m*3 14.5 C 0 km/h
468 02-10-2010 21:28:02 14.5 C 11.07 g/m*3 14.5 C 0 km/h
469 02-10-2010 21:40:01 14.5 C 11.07 g/m*3 14.5 C 0 km/h
470 02-10-2010 21:53:02 14.4 C 11 g/m*3 14.4 C 0 km/h
471 02-10-2010 22:05:02 14.4 C 11 g/m*3 14.4 C 0 km/h
472 02-10-2010 22:17:02 14.4 C 11.13 g/m*3 14.4 C 0 km/h
473 02-10-2010 22:29:02 14.4 C 11.13 g/m*3 14.4 C 0 km/h
474 02-10-2010 22:41:02 14.5 C 11.19 g/m*3 14.5 C 0 km/h
475 02-10-2010 22:53:02 14.7 C 11.33 g/m*3 14.7 C 0 km/h
Sensor: Nr:Datum:Temp:Abs-Feuchte:Windchill:Wind:
Aussen-T/F 476 02-10-2010 23:05:02 14.7 C 11.33 g/m*3 14.7 C 0 km/h
477 02-10-2010 23:17:02 14.6 C 11.14 g/m*3 14.6 C 0 km/h
478 02-10-2010 23:29:03 14.5 C 11.07 g/m*3 14.5 C 0 km/h
479 02-10-2010 23:41:03 14.5 C 11.07 g/m*3 14.5 C 0 km/h
480 02-10-2010 23:53:03 14.5 C 11.07 g/m*3 14.5 C 0 km/h
481 03-10-2010 00:05:03 14.6 C 11.14 g/m*3 14.6 C 0 km/h
482 03-10-2010 00:17:03 14.4 C 11 g/m*3 14.4 C 0 km/h
483 03-10-2010 00:29:03 14.3 C 10.93 g/m*3 14.3 C 0 km/h
484 03-10-2010 00:41:03 14.4 C 11.13 g/m*3 14.4 C 0 km/h
485 03-10-2010 00:53:03 14.5 C 11.19 g/m*3 14.5 C 0 km/h
486 03-10-2010 01:05:03 14.5 C 11.07 g/m*3 14.5 C 0 km/h
487 03-10-2010 01:17:03 14.6 C 10.89 g/m*3 14.6 C 0 km/h
488 03-10-2010 01:29:03 14.7 C 10.58 g/m*3 14.7 C 0 km/h
489 03-10-2010 01:41:03 14.8 C 10.51 g/m*3 14.8 C 0 km/h
490 03-10-2010 01:53:03 14.9 C 10.45 g/m*3 14.9 C 0 km/h
491 03-10-2010 02:05:03 15 C 10.26 g/m*3 15 C 0 km/h
492 03-10-2010 02:17:03 14.8 C 10.39 g/m*3 14.8 C 0 km/h
493 03-10-2010 02:29:03 14.6 C 10.39 g/m*3 14.6 C 0 km/h
494 03-10-2010 02:41:03 14.4 C 10.26 g/m*3 14.4 C 0 km/h
495 03-10-2010 02:53:03 14.1 C 10.32 g/m*3 14.1 C 0 km/h
496 03-10-2010 03:05:03 14 C 10.37 g/m*3 14 C 0 km/h
497 03-10-2010 03:17:03 13.8 C 10.48 g/m*3 13.8 C 0 km/h
498 03-10-2010 03:29:04 13.8 C 10.6 g/m*3 13.8 C 0 km/h
499 03-10-2010 03:41:04 13.9 C 10.67 g/m*3 13.9 C 0 km/h
500 03-10-2010 03:53:04 14.1 C 10.8 g/m*3 14.1 C 0 km/h
Sensor: Nr:Datum:Temp:Abs-Feuchte:Windchill:Wind:
Aussen-T/F 501 03-10-2010 04:05:04 14 C 10.74 g/m*3 14 C 0 km/h
502 03-10-2010 04:17:04 14.1 C 10.68 g/m*3 14.1 C 0 km/h
503 03-10-2010 04:29:04 14 C 10.61 g/m*3 14 C 0 km/h
504 03-10-2010 04:41:04 14 C 10.49 g/m*3 14 C 0 km/h
505 03-10-2010 04:53:04 14.3 C 10.57 g/m*3 14.3 C 0 km/h
506 03-10-2010 05:05:04 14.3 C 10.44 g/m*3 14.3 C 0 km/h
507 03-10-2010 05:17:04 14.4 C 10.38 g/m*3 14.4 C 0 km/h
508 03-10-2010 05:29:04 14.4 C 10.38 g/m*3 14.4 C 0 km/h
509 03-10-2010 05:41:04 14.2 C 10.26 g/m*3 14.2 C 0 km/h
510 03-10-2010 05:53:04 14 C 10.25 g/m*3 14 C 0 km/h
511 03-10-2010 06:05:04 13.8 C 10.37 g/m*3 13.8 C 0 km/h
512 03-10-2010 06:17:04 13.5 C 10.18 g/m*3 13.5 C 0 km/h
513 03-10-2010 06:29:04 13.4 C 10.23 g/m*3 13.4 C 0 km/h
514 03-10-2010 06:41:04 13.3 C 10.17 g/m*3 13.3 C 0 km/h
515 03-10-2010 06:53:04 13.3 C 10.28 g/m*3 13.3 C 0 km/h
516 03-10-2010 07:05:04 13.3 C 10.28 g/m*3 13.3 C 0 km/h
517 03-10-2010 07:17:04 13.4 C 10.46 g/m*3 13.4 C 0 km/h
518 03-10-2010 07:29:04 13.4 C 10.46 g/m*3 13.4 C 0 km/h
519 03-10-2010 07:41:05 13.5 C 10.53 g/m*3 13.5 C 0 km/h
520 03-10-2010 07:53:02 13.5 C 10.41 g/m*3 13.5 C 0 km/h
521 03-10-2010 08:05:01 13.7 C 10.42 g/m*3 13.7 C 0 km/h
522 03-10-2010 08:17:02 13.9 C 10.43 g/m*3 13.9 C 0 km/h
523 03-10-2010 08:29:02 13.9 C 10.43 g/m*3 13.9 C 0 km/h
524 03-10-2010 08:41:01 14.1 C 10.44 g/m*3 14.1 C 0 km/h
525 03-10-2010 08:53:03 14.3 C 10.32 g/m*3 14.3 C 0 km/h
Sensor: Nr:Datum:Temp:Abs-Feuchte:Windchill:Wind:
Aussen-T/F 526 03-10-2010 09:05:02 14.8 C 10.26 g/m*3 14.8 C 0 km/h
527 03-10-2010 09:17:02 15 C 10 g/m*3 15 C 0 km/h
528 03-10-2010 09:29:03 15.1 C 9.93 g/m*3 15.1 C 0 km/h
529 03-10-2010 09:41:02 15.2 C 10.12 g/m*3 15.2 C 0 km/h
530 03-10-2010 09:53:02 15.5 C 10.05 g/m*3 15.5 C 0 km/h
531 03-10-2010 10:05:02 16.2 C 10.2 g/m*3 16.2 C 0 km/h
532 03-10-2010 10:17:02 16.9 C 9.92 g/m*3 16.9 C 0 km/h
533 03-10-2010 10:29:03 17 C 9.69 g/m*3 17 C 0 km/h
534 03-10-2010 10:41:01 17 C 9.84 g/m*3 17 C 0 km/h
535 03-10-2010 10:53:02 16.8 C 9.87 g/m*3 16.8 C 0 km/h
536 03-10-2010 11:05:01 17.2 C 9.81 g/m*3 17.2 C 0 km/h
537 03-10-2010 11:17:02 17.6 C 10.35 g/m*3 17.6 C 0 km/h
538 03-10-2010 11:29:02 17.9 C 10.23 g/m*3 17.9 C 0 km/h
539 03-10-2010 11:41:02 18.5 C 9.97 g/m*3 18.5 C 0 km/h
540 03-10-2010 11:53:02 19.5 C 10.24 g/m*3 19.5 C 0 km/h
541 03-10-2010 12:05:03 19.7 C 9.85 g/m*3 19.7 C 0 km/h
542 03-10-2010 12:17:02 19.7 C 10.02 g/m*3 19.7 C 0 km/h
543 03-10-2010 12:29:02 19.3 C 9.45 g/m*3 19.3 C 0 km/h
544 03-10-2010 12:41:02 19.7 C 9.68 g/m*3 19.7 C 0 km/h
545 03-10-2010 12:53:01 20 C 9.68 g/m*3 20 C 0 km/h
546 03-10-2010 13:05:02 20.7 C 9.9 g/m*3 20.7 C 0 km/h
547 03-10-2010 13:17:01 21.1 C 9.58 g/m*3 21.1 C 0 km/h
548 03-10-2010 13:29:01 21.5 C 9.62 g/m*3 21.5 C 0 km/h
549 03-10-2010 13:41:01 21.7 C 8.97 g/m*3 21.7 C 0 km/h
550 03-10-2010 13:53:01 21.8 C 9.02 g/m*3 21.8 C 0 km/h
Sensor: Nr:Datum:Temp:Abs-Feuchte:Windchill:Wind:
Aussen-T/F 551 03-10-2010 14:05:02 22.2 C 8.83 g/m*3 22.2 C 0 km/h
552 03-10-2010 14:17:01 22.7 C 9.5 g/m*3 22.7 C 0 km/h
553 03-10-2010 14:29:01 23.2 C 9.15 g/m*3 23.2 C 0 km/h
554 03-10-2010 14:41:01 24.4 C 9.12 g/m*3 24.4 C 0 km/h
555 03-10-2010 14:53:01 24.2 C 8.8 g/m*3 24.2 C 0 km/h
556 03-10-2010 15:05:02 24.4 C 8.68 g/m*3 24.4 C 0 km/h
557 03-10-2010 15:17:02 24.4 C 8.68 g/m*3 24.4 C 0 km/h
558 03-10-2010 15:29:02 24.5 C 8.5 g/m*3 24.5 C 0 km/h
559 03-10-2010 15:41:01 24.9 C 8.7 g/m*3 24.9 C 0 km/h
560 03-10-2010 15:53:02 25.4 C 8.48 g/m*3 25.4 C 0 km/h
561 03-10-2010 16:05:01 24.6 C 8.33 g/m*3 24.6 C 0 km/h
562 03-10-2010 16:17:02 24.7 C 8.37 g/m*3 24.7 C 0 km/h
563 03-10-2010 16:29:02 25.1 C 8.57 g/m*3 25.1 C 0 km/h
564 03-10-2010 16:41:01 25.4 C 8.95 g/m*3 25.4 C 0 km/h
565 03-10-2010 16:53:03 25.8 C 9.15 g/m*3 25.8 C 0 km/h
566 03-10-2010 17:05:02 26.1 C 9.3 g/m*3 26.1 C 0 km/h
567 03-10-2010 17:17:02 25.6 C 9.05 g/m*3 25.6 C 0 km/h
568 03-10-2010 17:29:02 25.6 C 9.52 g/m*3 25.6 C 0 km/h
569 03-10-2010 17:41:03 24.4 C 9.35 g/m*3 24.4 C 0 km/h
570 03-10-2010 17:53:02 24.4 C 9.57 g/m*3 24.4 C 0 km/h
571 03-10-2010 18:05:01 23.6 C 10.21 g/m*3 23.6 C 0 km/h
572 03-10-2010 18:17:02 22.5 C 10.39 g/m*3 22.5 C 0 km/h
573 03-10-2010 18:29:02 21.4 C 10.5 g/m*3 21.4 C 0 km/h
574 03-10-2010 18:41:02 20.4 C 10.61 g/m*3 20.4 C 0 km/h
575 03-10-2010 18:53:02 19.8 C 10.76 g/m*3 19.8 C 0 km/h
Sensor: Nr:Datum:Temp:Abs-Feuchte:Windchill:Wind:
Aussen-T/F 576 03-10-2010 19:05:03 19.3 C 10.95 g/m*3 19.3 C 0 km/h
577 03-10-2010 19:17:02 19 C 10.76 g/m*3 19 C 0 km/h
578 03-10-2010 19:29:02 18.9 C 10.85 g/m*3 18.9 C 0 km/h
579 03-10-2010 19:41:02 18.4 C 10.85 g/m*3 18.4 C 0 km/h
580 03-10-2010 19:53:01 18.3 C 10.79 g/m*3 18.3 C 0 km/h
581 03-10-2010 20:05:02 18.1 C 10.82 g/m*3 18.1 C 0 km/h
582 03-10-2010 20:17:01 18.5 C 10.92 g/m*3 18.5 C 0 km/h
583 03-10-2010 20:29:01 18.4 C 10.85 g/m*3 18.4 C 0 km/h
584 03-10-2010 20:41:02 18.4 C 10.85 g/m*3 18.4 C 0 km/h
585 03-10-2010 20:53:01 18.3 C 10.94 g/m*3 18.3 C 0 km/h
586 03-10-2010 21:05:02 18.3 C 10.94 g/m*3 18.3 C 0 km/h
587 03-10-2010 21:17:02 18.1 C 10.97 g/m*3 18.1 C 0 km/h
588 03-10-2010 21:29:02 17.9 C 11.15 g/m*3 17.9 C 0 km/h
589 03-10-2010 21:41:02 17.8 C 11.08 g/m*3 17.8 C 0 km/h
590 03-10-2010 21:53:01 17.7 C 11.01 g/m*3 17.7 C 0 km/h
591 03-10-2010 22:05:01 17.6 C 11.1 g/m*3 17.6 C 0 km/h
592 03-10-2010 22:17:02 17.5 C 11.03 g/m*3 17.5 C 0 km/h
593 03-10-2010 22:29:02 17.5 C 10.88 g/m*3 17.5 C 0 km/h
594 03-10-2010 22:41:01 17.6 C 10.8 g/m*3 17.6 C 0 km/h
595 03-10-2010 22:53:02 17.6 C 10.5 g/m*3 17.6 C 0 km/h
596 03-10-2010 23:05:01 17.5 C 10.44 g/m*3 17.5 C 0 km/h
597 03-10-2010 23:18:06 17.6 C 10.5 g/m*3 17.6 C 0 km/h
598 03-10-2010 23:30:07 17.6 C 10.35 g/m*3 17.6 C 0 km/h
599 03-10-2010 23:42:07 17.6 C 10.2 g/m*3 17.6 C 0 km/h
600 03-10-2010 23:54:07 17.5 C 10.14 g/m*3 17.5 C 0 km/h
Sensor: Nr:Datum:Temp:Abs-Feuchte:Windchill:Wind:
Aussen-T/F 601 04-10-2010 00:06:07 17.4 C 9.93 g/m*3 17.4 C 0 km/h
602 04-10-2010 00:18:07 17.4 C 9.93 g/m*3 17.4 C 0 km/h
603 04-10-2010 00:30:07 17.2 C 9.81 g/m*3 17.2 C 0 km/h
604 04-10-2010 00:42:07 17.2 C 9.81 g/m*3 17.2 C 0 km/h
605 04-10-2010 00:54:07 17.2 C 9.81 g/m*3 17.2 C 0 km/h
606 04-10-2010 01:06:07 17.2 C 9.81 g/m*3 17.2 C 0 km/h
607 04-10-2010 01:18:07 17.2 C 9.67 g/m*3 17.2 C 0 km/h
608 04-10-2010 01:30:07 17.2 C 9.52 g/m*3 17.2 C 0 km/h
609 04-10-2010 01:42:07 17.2 C 9.52 g/m*3 17.2 C 0 km/h
610 04-10-2010 01:54:07 17.1 C 9.46 g/m*3 17.1 C 0 km/h
611 04-10-2010 02:06:07 17 C 9.55 g/m*3 17 C 0 km/h
612 04-10-2010 02:18:07 16.9 C 9.64 g/m*3 16.9 C 0 km/h
613 04-10-2010 02:30:07 16.8 C 9.72 g/m*3 16.8 C 0 km/h
614 04-10-2010 02:42:07 16.8 C 9.58 g/m*3 16.8 C 0 km/h
615 04-10-2010 02:54:07 16.6 C 9.75 g/m*3 16.6 C 0 km/h
616 04-10-2010 03:06:07 16.4 C 9.77 g/m*3 16.4 C 0 km/h
617 04-10-2010 03:18:07 15.9 C 10.02 g/m*3 15.9 C 0 km/h
618 04-10-2010 03:30:08 15.6 C 9.97 g/m*3 15.6 C 0 km/h
619 04-10-2010 03:42:08 15.5 C 10.05 g/m*3 15.5 C 0 km/h
620 04-10-2010 03:54:08 15.4 C 9.99 g/m*3 15.4 C 0 km/h
621 04-10-2010 04:06:08 15.3 C 9.92 g/m*3 15.3 C 0 km/h
622 04-10-2010 04:18:08 15.2 C 9.99 g/m*3 15.2 C 0 km/h
623 04-10-2010 04:30:08 15.2 C 9.99 g/m*3 15.2 C 0 km/h
624 04-10-2010 04:42:08 15 C 10 g/m*3 15 C 0 km/h
625 04-10-2010 04:54:08 14.8 C 10.01 g/m*3 14.8 C 0 km/h
Sensor: Nr:Datum:Temp:Abs-Feuchte:Windchill:Wind:
Aussen-T/F 626 04-10-2010 05:06:08 14.6 C 10.01 g/m*3 14.6 C 0 km/h
627 04-10-2010 05:18:08 14.4 C 9.89 g/m*3 14.4 C 0 km/h
628 04-10-2010 05:30:08 14.3 C 9.95 g/m*3 14.3 C 0 km/h
629 04-10-2010 05:42:08 14.1 C 9.95 g/m*3 14.1 C 0 km/h
630 04-10-2010 05:54:08 14.1 C 9.95 g/m*3 14.1 C 0 km/h
631 04-10-2010 06:06:08 14.2 C 10.01 g/m*3 14.2 C 0 km/h
632 04-10-2010 06:18:08 13.9 C 10.07 g/m*3 13.9 C 0 km/h
633 04-10-2010 06:30:08 14 C 9.89 g/m*3 14 C 0 km/h
634 04-10-2010 06:42:08 13.8 C 9.89 g/m*3 13.8 C 0 km/h
635 04-10-2010 06:54:08 13.7 C 9.83 g/m*3 13.7 C 0 km/h
636 04-10-2010 07:06:03 13.8 C 10.01 g/m*3 13.8 C 0 km/h
637 04-10-2010 07:18:02 13.7 C 9.83 g/m*3 13.7 C 0 km/h
638 04-10-2010 07:30:02 13.5 C 9.71 g/m*3 13.5 C 0 km/h
639 04-10-2010 07:42:03 13.5 C 9.71 g/m*3 13.5 C 0 km/h
640 04-10-2010 07:54:02 13.6 C 9.89 g/m*3 13.6 C 0 km/h
641 04-10-2010 08:06:02 13.8 C 9.89 g/m*3 13.8 C 0 km/h
642 04-10-2010 08:18:02 14.1 C 9.95 g/m*3 14.1 C 0 km/h
643 04-10-2010 08:30:02 14.3 C 9.83 g/m*3 14.3 C 0 km/h
644 04-10-2010 08:42:03 14.4 C 9.64 g/m*3 14.4 C 0 km/h
645 04-10-2010 08:54:02 14.7 C 9.69 g/m*3 14.7 C 0 km/h
646 04-10-2010 09:06:02 14.9 C 9.56 g/m*3 14.9 C 0 km/h
647 04-10-2010 09:18:02 15 C 9.23 g/m*3 15 C 0 km/h
648 04-10-2010 09:30:02 15 C 9.1 g/m*3 15 C 0 km/h
649 04-10-2010 09:42:02 15 C 9.1 g/m*3 15 C 0 km/h
650 04-10-2010 09:54:02 15.1 C 9.16 g/m*3 15.1 C 0 km/h
Sensor: Nr:Datum:Temp:Abs-Feuchte:Windchill:Wind:
Aussen-T/F 651 04-10-2010 10:06:02 15.2 C 9.09 g/m*3 15.2 C 0 km/h
652 04-10-2010 10:18:02 15.3 C 9.01 g/m*3 15.3 C 0 km/h
653 04-10-2010 10:30:02 15.4 C 9.07 g/m*3 15.4 C 0 km/h
654 04-10-2010 10:42:02 16 C 8.86 g/m*3 16 C 0 km/h
655 04-10-2010 10:54:01 16.4 C 8.79 g/m*3 16.4 C 0 km/h
656 04-10-2010 11:06:02 17.1 C 8.88 g/m*3 17.1 C 0 km/h
657 04-10-2010 11:18:01 17.1 C 8.88 g/m*3 17.1 C 0 km/h
658 04-10-2010 11:30:01 17.6 C 9 g/m*3 17.6 C 0 km/h
659 04-10-2010 11:42:01 18 C 8.91 g/m*3 18 C 0 km/h
660 04-10-2010 11:54:01 18.3 C 8.91 g/m*3 18.3 C 0 km/h
661 04-10-2010 12:06:01 18.5 C 8.86 g/m*3 18.5 C 0 km/h
662 04-10-2010 12:18:02 18 C 8.91 g/m*3 18 C 0 km/h
663 04-10-2010 12:30:02 17.8 C 8.8 g/m*3 17.8 C 0 km/h
664 04-10-2010 12:42:01 17.5 C 8.65 g/m*3 17.5 C 0 km/h
665 04-10-2010 12:54:02 17.4 C 8.6 g/m*3 17.4 C 0 km/h
666 04-10-2010 13:06:01 17.9 C 8.7 g/m*3 17.9 C 0 km/h
667 04-10-2010 13:18:02 18.3 C 8.6 g/m*3 18.3 C 0 km/h
668 04-10-2010 13:30:02 18.9 C 8.59 g/m*3 18.9 C 0 km/h
669 04-10-2010 13:42:01 19.1 C 8.52 g/m*3 19.1 C 0 km/h
670 04-10-2010 13:54:02 19.4 C 8.68 g/m*3 19.4 C 0 km/h
671 04-10-2010 14:06:02 19.3 C 8.63 g/m*3 19.3 C 0 km/h
672 04-10-2010 14:18:02 19.5 C 8.73 g/m*3 19.5 C 0 km/h
673 04-10-2010 14:30:02 19.7 C 8.66 g/m*3 19.7 C 0 km/h
674 04-10-2010 14:42:02 19.9 C 8.59 g/m*3 19.9 C 0 km/h
675 04-10-2010 14:54:02 20.4 C 9.02 g/m*3 20.4 C 0 km/h
Sensor: Nr:Datum:Temp:Abs-Feuchte:Windchill:Wind:
Aussen-T/F 676 04-10-2010 15:06:01 21.2 C 8.9 g/m*3 21.2 C 0 km/h
677 04-10-2010 15:18:02 22.3 C 8.29 g/m*3 22.3 C 0 km/h
678 04-10-2010 15:30:02 22.7 C 8.69 g/m*3 22.7 C 0 km/h
679 04-10-2010 15:42:02 23 C 8.63 g/m*3 23 C 0 km/h
680 04-10-2010 15:54:02 23.3 C 8.57 g/m*3 23.3 C 0 km/h
681 04-10-2010 16:06:02 23.1 C 8.27 g/m*3 23.1 C 0 km/h
682 04-10-2010 16:18:02 23.4 C 8.2 g/m*3 23.4 C 0 km/h
683 04-10-2010 16:30:02 23.9 C 8.44 g/m*3 23.9 C 0 km/h
684 04-10-2010 16:42:02 23.9 C 8 g/m*3 23.9 C 0 km/h
685 04-10-2010 16:54:01 23.9 C 8.22 g/m*3 23.9 C 0 km/h
686 04-10-2010 17:06:02 23.3 C 8.15 g/m*3 23.3 C 0 km/h
687 04-10-2010 17:18:01 22 C 8.54 g/m*3 22 C 0 km/h
688 04-10-2010 17:30:01 20.4 C 9.38 g/m*3 20.4 C 0 km/h
689 04-10-2010 17:42:01 19.5 C 9.73 g/m*3 19.5 C 0 km/h
690 04-10-2010 17:54:01 20.5 C 9.61 g/m*3 20.5 C 0 km/h
691 04-10-2010 18:06:02 20.2 C 9.44 g/m*3 20.2 C 0 km/h
692 04-10-2010 18:18:02 19.5 C 9.57 g/m*3 19.5 C 0 km/h
693 04-10-2010 18:30:02 18.7 C 9.61 g/m*3 18.7 C 0 km/h
694 04-10-2010 18:42:01 17.8 C 9.71 g/m*3 17.8 C 0 km/h
695 04-10-2010 18:54:01 17.2 C 9.81 g/m*3 17.2 C 0 km/h
696 04-10-2010 19:06:01 16.9 C 10.07 g/m*3 16.9 C 0 km/h
697 04-10-2010 19:18:02 16.8 C 10.15 g/m*3 16.8 C 0 km/h
698 04-10-2010 19:30:02 16.5 C 10.11 g/m*3 16.5 C 0 km/h
699 04-10-2010 19:42:01 16.2 C 10.07 g/m*3 16.2 C 0 km/h
700 04-10-2010 19:54:03 16.2 C 10.07 g/m*3 16.2 C 0 km/h
Sensor: Nr:Datum:Temp:Abs-Feuchte:Windchill:Wind:
Aussen-T/F 701 04-10-2010 20:06:02 16.4 C 10.19 g/m*3 16.4 C 0 km/h
702 04-10-2010 20:18:02 16.5 C 10.11 g/m*3 16.5 C 0 km/h
703 04-10-2010 20:30:03 16.4 C 10.05 g/m*3 16.4 C 0 km/h
704 04-10-2010 20:42:02 16.1 C 9.87 g/m*3 16.1 C 0 km/h
705 04-10-2010 20:54:02 15.7 C 9.9 g/m*3 15.7 C 0 km/h
706 04-10-2010 21:06:01 15.6 C 9.97 g/m*3 15.6 C 0 km/h
707 04-10-2010 21:18:02 15.5 C 10.05 g/m*3 15.5 C 0 km/h
708 04-10-2010 21:30:02 15.6 C 9.97 g/m*3 15.6 C 0 km/h
709 04-10-2010 21:42:02 15.4 C 9.85 g/m*3 15.4 C 0 km/h
710 04-10-2010 21:54:01 15 C 9.87 g/m*3 15 C 0 km/h
711 04-10-2010 22:06:02 14.8 C 9.88 g/m*3 14.8 C 0 km/h
712 04-10-2010 22:19:04 14.7 C 9.95 g/m*3 14.7 C 0 km/h
713 04-10-2010 22:31:04 14.5 C 9.95 g/m*3 14.5 C 0 km/h
714 04-10-2010 22:43:04 14.5 C 9.95 g/m*3 14.5 C 0 km/h
715 04-10-2010 22:55:04 14.3 C 9.83 g/m*3 14.3 C 0 km/h
716 04-10-2010 23:07:04 14.2 C 9.89 g/m*3 14.2 C 0 km/h
717 04-10-2010 23:19:04 14.2 C 9.89 g/m*3 14.2 C 0 km/h
718 04-10-2010 23:31:04 14.3 C 9.95 g/m*3 14.3 C 0 km/h
719 04-10-2010 23:43:05 14.2 C 9.89 g/m*3 14.2 C 0 km/h
720 04-10-2010 23:55:05 14.1 C 9.95 g/m*3 14.1 C 0 km/h
721 05-10-2010 00:07:05 14.1 C 9.95 g/m*3 14.1 C 0 km/h
722 05-10-2010 00:19:05 14.1 C 9.95 g/m*3 14.1 C 0 km/h
723 05-10-2010 00:31:05 14.2 C 10.01 g/m*3 14.2 C 0 km/h
724 05-10-2010 00:43:05 14.3 C 10.07 g/m*3 14.3 C 0 km/h
725 05-10-2010 00:55:05 14.3 C 10.07 g/m*3 14.3 C 0 km/h
Sensor: Nr:Datum:Temp:Abs-Feuchte:Windchill:Wind:
Aussen-T/F 726 05-10-2010 01:07:05 14.2 C 10.01 g/m*3 14.2 C 0 km/h
727 05-10-2010 01:19:05 14.1 C 9.95 g/m*3 14.1 C 0 km/h
728 05-10-2010 01:31:05 13.8 C 9.77 g/m*3 13.8 C 0 km/h
729 05-10-2010 01:43:05 13.8 C 9.89 g/m*3 13.8 C 0 km/h
730 05-10-2010 01:55:05 13.8 C 9.89 g/m*3 13.8 C 0 km/h
731 05-10-2010 02:07:05 13.4 C 9.65 g/m*3 13.4 C 0 km/h
732 05-10-2010 02:19:05 13.5 C 9.71 g/m*3 13.5 C 0 km/h
733 05-10-2010 02:31:05 13.5 C 9.83 g/m*3 13.5 C 0 km/h
734 05-10-2010 02:43:05 13.6 C 10 g/m*3 13.6 C 0 km/h
735 05-10-2010 02:55:05 13.6 C 10 g/m*3 13.6 C 0 km/h
736 05-10-2010 03:07:05 13.6 C 10 g/m*3 13.6 C 0 km/h
737 05-10-2010 03:19:05 13.6 C 10 g/m*3 13.6 C 0 km/h
738 05-10-2010 03:31:05 13.7 C 10.07 g/m*3 13.7 C 0 km/h
739 05-10-2010 03:43:05 13.6 C 10 g/m*3 13.6 C 0 km/h
740 05-10-2010 03:55:06 13.5 C 9.94 g/m*3 13.5 C 0 km/h
741 05-10-2010 04:07:06 13.5 C 9.94 g/m*3 13.5 C 0 km/h
742 05-10-2010 04:19:06 13.6 C 10.12 g/m*3 13.6 C 0 km/h
743 05-10-2010 04:31:06 13.6 C 10.12 g/m*3 13.6 C 0 km/h
744 05-10-2010 04:43:06 13.6 C 10.12 g/m*3 13.6 C 0 km/h
745 05-10-2010 04:55:06 13.7 C 10.18 g/m*3 13.7 C 0 km/h
746 05-10-2010 05:07:06 13.7 C 10.18 g/m*3 13.7 C 0 km/h
747 05-10-2010 05:19:06 13.7 C 10.18 g/m*3 13.7 C 0 km/h
748 05-10-2010 05:31:06 13.6 C 10.12 g/m*3 13.6 C 0 km/h
749 05-10-2010 05:43:06 13.5 C 10.06 g/m*3 13.5 C 0 km/h
750 05-10-2010 05:55:06 13.5 C 10.18 g/m*3 13.5 C 0 km/h
Sensor: Nr:Datum:Temp:Abs-Feuchte:Windchill:Wind:
Aussen-T/F 751 05-10-2010 06:07:06 13.4 C 10.23 g/m*3 13.4 C 0 km/h
752 05-10-2010 06:19:06 13.4 C 10.35 g/m*3 13.4 C 0 km/h
753 05-10-2010 06:31:06 13.4 C 10.35 g/m*3 13.4 C 0 km/h
754 05-10-2010 06:43:06 13.4 C 10.46 g/m*3 13.4 C 0 km/h
755 05-10-2010 06:55:06 13.5 C 10.53 g/m*3 13.5 C 0 km/h
756 05-10-2010 07:07:01 13.4 C 10.46 g/m*3 13.4 C 0 km/h
757 05-10-2010 07:19:02 13.4 C 10.58 g/m*3 13.4 C 0 km/h
758 05-10-2010 07:31:02 13.4 C 10.58 g/m*3 13.4 C 0 km/h
759 05-10-2010 07:43:02 13.4 C 10.58 g/m*3 13.4 C 0 km/h
760 05-10-2010 07:55:02 13.4 C 10.58 g/m*3 13.4 C 0 km/h
761 05-10-2010 08:07:02 13.4 C 10.58 g/m*3 13.4 C 0 km/h
762 05-10-2010 08:19:02 13.2 C 10.45 g/m*3 13.2 C 0 km/h
763 05-10-2010 08:31:02 13.1 C 10.38 g/m*3 13.1 C 0 km/h
764 05-10-2010 08:43:02 13 C 10.32 g/m*3 13 C 0 km/h
765 05-10-2010 08:55:02 13 C 10.32 g/m*3 13 C 0 km/h
766 05-10-2010 09:07:02 13 C 10.43 g/m*3 13 C 0 km/h
767 05-10-2010 09:19:02 13.2 C 10.56 g/m*3 13.2 C 0 km/h
768 05-10-2010 09:31:01 13.4 C 10.69 g/m*3 13.4 C 0 km/h
769 05-10-2010 09:43:01 13.4 C 10.81 g/m*3 13.4 C 0 km/h
770 05-10-2010 09:55:02 13.5 C 10.88 g/m*3 13.5 C 0 km/h
771 05-10-2010 10:07:01 13.8 C 11.08 g/m*3 13.8 C 0 km/h
772 05-10-2010 10:19:02 14.3 C 11.43 g/m*3 14.3 C 0 km/h
773 05-10-2010 10:31:02 14.7 C 11.83 g/m*3 14.7 C 0 km/h
774 05-10-2010 10:43:02 15.2 C 12.07 g/m*3 15.2 C 0 km/h
775 05-10-2010 10:55:02 16 C 12.67 g/m*3 16 C 0 km/h
Sensor: Nr:Datum:Temp:Abs-Feuchte:Windchill:Wind:
Aussen-T/F 776 05-10-2010 11:07:02 17.2 C 13.62 g/m*3 17.2 C 0 km/h
777 05-10-2010 11:19:02 17.3 C 13.7 g/m*3 17.3 C 0 km/h
778 05-10-2010 11:31:02 17.4 C 13.34 g/m*3 17.4 C 0 km/h
779 05-10-2010 11:43:02 17.3 C 12.37 g/m*3 17.3 C 0 km/h
780 05-10-2010 11:55:01 18.2 C 11.97 g/m*3 18.2 C 0 km/h
781 05-10-2010 12:07:02 18.3 C 11.73 g/m*3 18.3 C 0 km/h
782 05-10-2010 12:19:02 17.9 C 11.45 g/m*3 17.9 C 0 km/h
783 05-10-2010 12:31:01 18 C 11.37 g/m*3 18 C 0 km/h
784 05-10-2010 12:43:01 17.9 C 11.3 g/m*3 17.9 C 0 km/h
785 05-10-2010 12:55:02 18.4 C 11.32 g/m*3 18.4 C 0 km/h
786 05-10-2010 13:07:01 18.7 C 11.37 g/m*3 18.7 C 0 km/h
787 05-10-2010 13:19:02 18.9 C 11.18 g/m*3 18.9 C 0 km/h
788 05-10-2010 13:31:01 19 C 11.08 g/m*3 19 C 0 km/h
789 05-10-2010 13:43:01 19.3 C 11.44 g/m*3 19.3 C 0 km/h
790 05-10-2010 13:55:02 20 C 11.06 g/m*3 20 C 0 km/h
791 05-10-2010 14:07:02 19.9 C 10.31 g/m*3 19.9 C 0 km/h
792 05-10-2010 14:19:02 19.5 C 10.57 g/m*3 19.5 C 0 km/h
793 05-10-2010 14:31:02 19.6 C 10.8 g/m*3 19.6 C 0 km/h
794 05-10-2010 14:43:02 18.7 C 11.05 g/m*3 18.7 C 0 km/h
795 05-10-2010 14:55:02 18.6 C 11.94 g/m*3 18.6 C 0 km/h
796 05-10-2010 15:07:01 19 C 12.22 g/m*3 19 C 0 km/h
797 05-10-2010 15:19:02 17.9 C 12.06 g/m*3 17.9 C 0 km/h
798 05-10-2010 15:31:02 18.3 C 12.51 g/m*3 18.3 C 0 km/h
799 05-10-2010 15:43:02 19.3 C 13.27 g/m*3 19.3 C 0 km/h
800 05-10-2010 15:55:01 19.5 C 13.09 g/m*3 19.5 C 0 km/h
Sensor: Nr:Datum:Temp:Abs-Feuchte:Windchill:Wind:
Aussen-T/F 801 05-10-2010 16:07:02 19 C 12.55 g/m*3 19 C 0 km/h
802 05-10-2010 16:19:01 18.7 C 12.65 g/m*3 18.7 C 0 km/h
803 05-10-2010 16:31:02 18.4 C 12.43 g/m*3 18.4 C 0 km/h
804 05-10-2010 16:43:02 18.3 C 12.51 g/m*3 18.3 C 0 km/h
805 05-10-2010 16:55:02 18.1 C 12.21 g/m*3 18.1 C 0 km/h
806 05-10-2010 17:07:02 17.7 C 11.92 g/m*3 17.7 C 0 km/h
807 05-10-2010 17:19:01 17.2 C 11.42 g/m*3 17.2 C 0 km/h
808 05-10-2010 17:31:02 16.8 C 11.58 g/m*3 16.8 C 0 km/h
809 05-10-2010 17:43:02 16.8 C 11.72 g/m*3 16.8 C 0 km/h
810 05-10-2010 17:55:02 17 C 11.72 g/m*3 17 C 0 km/h
811 05-10-2010 18:07:02 17.1 C 11.65 g/m*3 17.1 C 0 km/h
812 05-10-2010 18:19:02 17.1 C 11.65 g/m*3 17.1 C 0 km/h
813 05-10-2010 18:31:02 17.1 C 11.35 g/m*3 17.1 C 0 km/h
814 05-10-2010 18:43:02 17 C 11.29 g/m*3 17 C 0 km/h
815 05-10-2010 18:55:02 16.8 C 11.29 g/m*3 16.8 C 0 km/h
816 05-10-2010 19:07:02 16.6 C 11.3 g/m*3 16.6 C 0 km/h
817 05-10-2010 19:19:03 16.5 C 11.23 g/m*3 16.5 C 0 km/h
818 05-10-2010 19:31:02 16.5 C 11.37 g/m*3 16.5 C 0 km/h
819 05-10-2010 19:43:02 17.3 C 11.64 g/m*3 17.3 C 0 km/h
820 05-10-2010 19:55:02 16.4 C 11.03 g/m*3 16.4 C 0 km/h
821 05-10-2010 20:07:02 16.4 C 11.03 g/m*3 16.4 C 0 km/h
822 05-10-2010 20:19:02 16.4 C 11.03 g/m*3 16.4 C 0 km/h
823 05-10-2010 20:31:02 16.4 C 11.03 g/m*3 16.4 C 0 km/h
824 05-10-2010 20:43:02 16.3 C 10.96 g/m*3 16.3 C 0 km/h
825 05-10-2010 20:55:02 16.3 C 10.68 g/m*3 16.3 C 0 km/h
Sensor: Nr:Datum:Temp:Abs-Feuchte:Windchill:Wind:
Aussen-T/F 826 05-10-2010 21:07:02 16.1 C 10.55 g/m*3 16.1 C 0 km/h
827 05-10-2010 21:19:02 16 C 10.35 g/m*3 16 C 0 km/h
828 05-10-2010 21:31:01 15.6 C 10.24 g/m*3 15.6 C 0 km/h
829 05-10-2010 21:43:01 15.4 C 10.12 g/m*3 15.4 C 0 km/h
830 05-10-2010 21:55:02 15.3 C 10.06 g/m*3 15.3 C 0 km/h
831 05-10-2010 22:07:01 15.2 C 9.99 g/m*3 15.2 C 0 km/h
832 05-10-2010 22:19:02 15.3 C 9.92 g/m*3 15.3 C 0 km/h
833 05-10-2010 22:31:01 15.4 C 9.99 g/m*3 15.4 C 0 km/h
834 05-10-2010 22:43:01 15.2 C 9.99 g/m*3 15.2 C 0 km/h
835 05-10-2010 22:55:02 15.4 C 9.99 g/m*3 15.4 C 0 km/h
836 05-10-2010 23:07:01 15.6 C 9.97 g/m*3 15.6 C 0 km/h
837 05-10-2010 23:19:02 15.6 C 9.97 g/m*3 15.6 C 0 km/h
838 05-10-2010 23:31:01 15.6 C 9.97 g/m*3 15.6 C 0 km/h
839 05-10-2010 23:43:01 15.6 C 9.97 g/m*3 15.6 C 0 km/h
840 05-10-2010 23:55:02 15.6 C 9.97 g/m*3 15.6 C 0 km/h
841 06-10-2010 00:07:01 15.6 C 9.97 g/m*3 15.6 C 0 km/h
842 06-10-2010 00:19:02 15.6 C 9.97 g/m*3 15.6 C 0 km/h
843 06-10-2010 00:31:01 15.6 C 9.97 g/m*3 15.6 C 0 km/h
844 06-10-2010 00:43:01 15.6 C 9.97 g/m*3 15.6 C 0 km/h
845 06-10-2010 00:55:02 15.6 C 9.97 g/m*3 15.6 C 0 km/h
846 06-10-2010 01:07:02 15.5 C 9.91 g/m*3 15.5 C 0 km/h
847 06-10-2010 01:19:02 15.5 C 9.91 g/m*3 15.5 C 0 km/h
848 06-10-2010 01:31:03 15.5 C 10.05 g/m*3 15.5 C 0 km/h
849 06-10-2010 01:43:03 15.5 C 10.05 g/m*3 15.5 C 0 km/h
850 06-10-2010 01:55:02 15.5 C 10.05 g/m*3 15.5 C 0 km/h
Sensor: Nr:Datum:Temp:Abs-Feuchte:Windchill:Wind:
Aussen-T/F 851 06-10-2010 02:07:01 15.5 C 10.05 g/m*3 15.5 C 0 km/h
852 06-10-2010 02:19:02 15.5 C 10.18 g/m*3 15.5 C 0 km/h
853 06-10-2010 02:31:02 15.4 C 10.25 g/m*3 15.4 C 0 km/h
854 06-10-2010 02:43:02 15.4 C 10.25 g/m*3 15.4 C 0 km/h
855 06-10-2010 02:55:01 15.4 C 10.12 g/m*3 15.4 C 0 km/h
856 06-10-2010 03:07:01 15.3 C 10.19 g/m*3 15.3 C 0 km/h
857 06-10-2010 03:19:02 15.3 C 10.06 g/m*3 15.3 C 0 km/h
858 06-10-2010 03:31:01 15.3 C 10.06 g/m*3 15.3 C 0 km/h
859 06-10-2010 03:43:02 15.3 C 10.06 g/m*3 15.3 C 0 km/h
860 06-10-2010 03:55:02 15.2 C 10.12 g/m*3 15.2 C 0 km/h
861 06-10-2010 04:07:01 15.2 C 10.12 g/m*3 15.2 C 0 km/h
862 06-10-2010 04:19:01 15.2 C 10.12 g/m*3 15.2 C 0 km/h
863 06-10-2010 04:31:02 15.1 C 10.06 g/m*3 15.1 C 0 km/h
864 06-10-2010 04:43:02 15 C 10 g/m*3 15 C 0 km/h
865 06-10-2010 04:55:01 15 C 10.13 g/m*3 15 C 0 km/h
866 06-10-2010 05:07:02 14.9 C 10.2 g/m*3 14.9 C 0 km/h
867 06-10-2010 05:19:01 15 C 10.13 g/m*3 15 C 0 km/h
868 06-10-2010 05:31:02 14.9 C 10.32 g/m*3 14.9 C 0 km/h
869 06-10-2010 05:43:02 14.9 C 10.32 g/m*3 14.9 C 0 km/h
870 06-10-2010 05:55:01 14.9 C 10.32 g/m*3 14.9 C 0 km/h
871 06-10-2010 06:07:02 14.8 C 10.26 g/m*3 14.8 C 0 km/h
872 06-10-2010 06:19:01 14.9 C 10.32 g/m*3 14.9 C 0 km/h
873 06-10-2010 06:31:01 14.8 C 10.01 g/m*3 14.8 C 0 km/h
874 06-10-2010 06:43:01 14.8 C 10.01 g/m*3 14.8 C 0 km/h
875 06-10-2010 06:55:01 14.8 C 9.88 g/m*3 14.8 C 0 km/h
Sensor: Nr:Datum:Temp:Abs-Feuchte:Windchill:Wind:
Aussen-T/F 876 06-10-2010 07:07:01 14.7 C 9.82 g/m*3 14.7 C 0 km/h
877 06-10-2010 07:19:01 14.7 C 9.95 g/m*3 14.7 C 0 km/h
878 06-10-2010 07:31:01 14.7 C 9.95 g/m*3 14.7 C 0 km/h
879 06-10-2010 07:43:02 14.6 C 10.01 g/m*3 14.6 C 0 km/h
880 06-10-2010 07:55:02 14.6 C 10.01 g/m*3 14.6 C 0 km/h
881 06-10-2010 08:07:01 14.5 C 10.07 g/m*3 14.5 C 0 km/h
882 06-10-2010 08:19:02 14.3 C 9.95 g/m*3 14.3 C 0 km/h
883 06-10-2010 08:31:01 14.1 C 9.95 g/m*3 14.1 C 0 km/h
884 06-10-2010 08:43:01 14.5 C 10.32 g/m*3 14.5 C 0 km/h
885 06-10-2010 08:55:01 15.2 C 10.64 g/m*3 15.2 C 0 km/h
886 06-10-2010 09:07:01 15.6 C 10.64 g/m*3 15.6 C 0 km/h
887 06-10-2010 09:19:02 15.5 C 10.31 g/m*3 15.5 C 0 km/h
888 06-10-2010 09:31:01 15.3 C 10.06 g/m*3 15.3 C 0 km/h
889 06-10-2010 09:43:01 15.6 C 9.84 g/m*3 15.6 C 0 km/h
890 06-10-2010 09:55:02 15.7 C 9.77 g/m*3 15.7 C 0 km/h
891 06-10-2010 10:07:01 15.9 C 10.16 g/m*3 15.9 C 0 km/h
892 06-10-2010 10:19:01 16.2 C 9.93 g/m*3 16.2 C 0 km/h
893 06-10-2010 10:31:01 16.3 C 9.99 g/m*3 16.3 C 0 km/h
894 06-10-2010 10:43:01 16.4 C 9.63 g/m*3 16.4 C 0 km/h
895 06-10-2010 10:55:02 16.4 C 9.91 g/m*3 16.4 C 0 km/h
896 06-10-2010 11:07:01 17.1 C 9.46 g/m*3 17.1 C 0 km/h
897 06-10-2010 11:19:01 17.2 C 9.37 g/m*3 17.2 C 0 km/h
898 06-10-2010 11:31:02 17.7 C 9.35 g/m*3 17.7 C 0 km/h
899 06-10-2010 11:43:02 18.2 C 9.01 g/m*3 18.2 C 0 km/h
900 06-10-2010 11:55:01 18.6 C 9.07 g/m*3 18.6 C 0 km/h
Sensor: Nr:Datum:Temp:Abs-Feuchte:Windchill:Wind:
Aussen-T/F 901 06-10-2010 12:07:02 18.9 C 8.91 g/m*3 18.9 C 0 km/h
902 06-10-2010 12:19:01 18.8 C 8.7 g/m*3 18.8 C 0 km/h
903 06-10-2010 12:31:02 19 C 8.64 g/m*3 19 C 0 km/h
904 06-10-2010 12:43:02 19.2 C 8.57 g/m*3 19.2 C 0 km/h
905 06-10-2010 12:55:01 19.3 C 8.63 g/m*3 19.3 C 0 km/h
906 06-10-2010 13:07:02 19.8 C 8.71 g/m*3 19.8 C 0 km/h
907 06-10-2010 13:19:01 20.2 C 8.39 g/m*3 20.2 C 0 km/h
908 06-10-2010 13:31:01 20.4 C 8.67 g/m*3 20.4 C 0 km/h
909 06-10-2010 13:43:01 20.3 C 8.27 g/m*3 20.3 C 0 km/h
910 06-10-2010 13:55:01 20.3 C 8.44 g/m*3 20.3 C 0 km/h
911 06-10-2010 14:07:01 20.4 C 8.31 g/m*3 20.4 C 0 km/h
912 06-10-2010 14:19:01 21 C 8.43 g/m*3 21 C 0 km/h
913 06-10-2010 14:31:01 21.6 C 8.35 g/m*3 21.6 C 0 km/h
914 06-10-2010 14:43:01 22.2 C 8.25 g/m*3 22.2 C 0 km/h
915 06-10-2010 14:55:01 22.9 C 7.77 g/m*3 22.9 C 0 km/h
916 06-10-2010 15:07:01 23.3 C 8.15 g/m*3 23.3 C 0 km/h
917 06-10-2010 15:19:02 23.4 C 8.41 g/m*3 23.4 C 0 km/h
918 06-10-2010 15:31:01 23.3 C 8.15 g/m*3 23.3 C 0 km/h
919 06-10-2010 15:43:01 22.9 C 8.17 g/m*3 22.9 C 0 km/h
920 06-10-2010 15:55:02 22.4 C 8.34 g/m*3 22.4 C 0 km/h
921 06-10-2010 16:07:01 22.8 C 8.53 g/m*3 22.8 C 0 km/h
922 06-10-2010 16:19:02 23.2 C 8.32 g/m*3 23.2 C 0 km/h
923 06-10-2010 16:31:01 22.8 C 9.14 g/m*3 22.8 C 0 km/h
924 06-10-2010 16:43:01 22.7 C 9.7 g/m*3 22.7 C 0 km/h
925 06-10-2010 16:55:02 22.7 C 9.09 g/m*3 22.7 C 0 km/h
Sensor: Nr:Datum:Temp:Abs-Feuchte:Windchill:Wind:
Aussen-T/F 926 06-10-2010 17:07:01 21.9 C 9.84 g/m*3 21.9 C 0 km/h
927 06-10-2010 17:19:01 21.5 C 10.18 g/m*3 21.5 C 0 km/h
928 06-10-2010 17:31:02 21.1 C 10.32 g/m*3 21.1 C 0 km/h
929 06-10-2010 17:43:02 20.7 C 10.26 g/m*3 20.7 C 0 km/h
930 06-10-2010 17:55:01 20.2 C 10.14 g/m*3 20.2 C 0 km/h
931 06-10-2010 18:07:01 19.7 C 10.02 g/m*3 19.7 C 0 km/h
932 06-10-2010 18:19:01 19.4 C 10.34 g/m*3 19.4 C 0 km/h
933 06-10-2010 18:31:02 18.9 C 10.21 g/m*3 18.9 C 0 km/h
934 06-10-2010 18:43:02 18.6 C 10.35 g/m*3 18.6 C 0 km/h
935 06-10-2010 18:55:01 18.1 C 10.2 g/m*3 18.1 C 0 km/h
936 06-10-2010 19:07:02 17.9 C 10.23 g/m*3 17.9 C 0 km/h
937 06-10-2010 19:19:01 17.5 C 10.14 g/m*3 17.5 C 0 km/h
938 06-10-2010 19:31:01 17.2 C 10.25 g/m*3 17.2 C 0 km/h
939 06-10-2010 19:43:01 17 C 10.13 g/m*3 17 C 0 km/h
940 06-10-2010 19:55:01 16.9 C 10.21 g/m*3 16.9 C 0 km/h
941 06-10-2010 20:07:01 16.9 C 10.07 g/m*3 16.9 C 0 km/h
942 06-10-2010 20:19:01 17 C 9.98 g/m*3 17 C 0 km/h
943 06-10-2010 20:31:01 17 C 9.98 g/m*3 17 C 0 km/h
944 06-10-2010 20:43:01 16.8 C 10.29 g/m*3 16.8 C 0 km/h
945 06-10-2010 20:55:01 16.8 C 10.29 g/m*3 16.8 C 0 km/h
946 06-10-2010 21:07:01 16.6 C 10.45 g/m*3 16.6 C 0 km/h
947 06-10-2010 21:19:02 16.5 C 10.39 g/m*3 16.5 C 0 km/h
948 06-10-2010 21:31:01 16.4 C 10.47 g/m*3 16.4 C 0 km/h
949 06-10-2010 21:43:01 16.2 C 10.34 g/m*3 16.2 C 0 km/h
950 06-10-2010 21:55:02 16.1 C 10.42 g/m*3 16.1 C 0 km/h
Sensor: Nr:Datum:Temp:Abs-Feuchte:Windchill:Wind:
Aussen-T/F 951 06-10-2010 22:07:02 16 C 10.49 g/m*3 16 C 0 km/h
952 06-10-2010 22:19:01 15.8 C 10.5 g/m*3 15.8 C 0 km/h
953 06-10-2010 22:31:01 15.8 C 10.63 g/m*3 15.8 C 0 km/h
954 06-10-2010 22:43:01 15.7 C 10.57 g/m*3 15.7 C 0 km/h
955 06-10-2010 22:55:01 15.4 C 10.38 g/m*3 15.4 C 0 km/h
956 06-10-2010 23:07:01 15.2 C 10.38 g/m*3 15.2 C 0 km/h
957 06-10-2010 23:19:01 15 C 10.26 g/m*3 15 C 0 km/h
958 06-10-2010 23:31:01 14.9 C 10.32 g/m*3 14.9 C 0 km/h
959 06-10-2010 23:43:01 14.8 C 10.39 g/m*3 14.8 C 0 km/h
960 06-10-2010 23:55:01 14.6 C 10.26 g/m*3 14.6 C 0 km/h
961 07-10-2010 00:07:01 14.5 C 10.2 g/m*3 14.5 C 0 km/h
962 07-10-2010 00:19:01 14.3 C 10.2 g/m*3 14.3 C 0 km/h
963 07-10-2010 00:31:02 14.2 C 10.14 g/m*3 14.2 C 0 km/h
964 07-10-2010 00:43:02 14.1 C 10.19 g/m*3 14.1 C 0 km/h
965 07-10-2010 00:55:01 14 C 10.13 g/m*3 14 C 0 km/h
966 07-10-2010 01:07:01 14 C 10.25 g/m*3 14 C 0 km/h
967 07-10-2010 01:19:01 14.4 C 10.63 g/m*3 14.4 C 0 km/h
968 07-10-2010 01:31:02 14.3 C 10.57 g/m*3 14.3 C 0 km/h
969 07-10-2010 01:43:02 14.2 C 10.5 g/m*3 14.2 C 0 km/h
970 07-10-2010 01:55:01 14.3 C 10.57 g/m*3 14.3 C 0 km/h
971 07-10-2010 02:07:02 14.3 C 10.57 g/m*3 14.3 C 0 km/h
972 07-10-2010 02:19:01 14.2 C 10.38 g/m*3 14.2 C 0 km/h
973 07-10-2010 02:31:01 14.2 C 10.38 g/m*3 14.2 C 0 km/h
974 07-10-2010 02:43:01 14.3 C 10.44 g/m*3 14.3 C 0 km/h
975 07-10-2010 02:55:01 14.2 C 10.38 g/m*3 14.2 C 0 km/h
Sensor: Nr:Datum:Temp:Abs-Feuchte:Windchill:Wind:
Aussen-T/F 976 07-10-2010 03:07:01 14.2 C 10.38 g/m*3 14.2 C 0 km/h
977 07-10-2010 03:19:02 14.2 C 10.38 g/m*3 14.2 C 0 km/h
978 07-10-2010 03:31:01 14 C 10.25 g/m*3 14 C 0 km/h
979 07-10-2010 03:43:01 14 C 10.37 g/m*3 14 C 0 km/h
980 07-10-2010 03:55:01 14 C 10.37 g/m*3 14 C 0 km/h
981 07-10-2010 04:07:02 14.5 C 10.7 g/m*3 14.5 C 0 km/h
982 07-10-2010 04:19:01 13.9 C 10.43 g/m*3 13.9 C 0 km/h
983 07-10-2010 04:31:01 13.9 C 10.43 g/m*3 13.9 C 0 km/h
984 07-10-2010 04:43:01 13.5 C 10.06 g/m*3 13.5 C 0 km/h
985 07-10-2010 04:55:01 13.3 C 9.94 g/m*3 13.3 C 0 km/h
986 07-10-2010 05:07:01 13.1 C 9.93 g/m*3 13.1 C 0 km/h
987 07-10-2010 05:20:01 13 C 9.87 g/m*3 13 C 0 km/h
988 07-10-2010 05:31:01 13.1 C 10.04 g/m*3 13.1 C 0 km/h
989 07-10-2010 05:43:01 13.6 C 10.47 g/m*3 13.6 C 0 km/h
990 07-10-2010 05:56:01 13.7 C 10.54 g/m*3 13.7 C 0 km/h
991 07-10-2010 06:07:01 13.8 C 10.48 g/m*3 13.8 C 0 km/h
992 07-10-2010 06:19:02 13.8 C 10.48 g/m*3 13.8 C 0 km/h
993 07-10-2010 06:32:01 13.8 C 10.48 g/m*3 13.8 C 0 km/h
994 07-10-2010 06:44:01 13.9 C 10.55 g/m*3 13.9 C 0 km/h
995 07-10-2010 06:55:02 13.9 C 10.55 g/m*3 13.9 C 0 km/h
996 07-10-2010 07:08:01 13.8 C 10.48 g/m*3 13.8 C 0 km/h
997 07-10-2010 07:20:01 14 C 10.49 g/m*3 14 C 0 km/h
998 07-10-2010 07:31:02 14.1 C 10.56 g/m*3 14.1 C 0 km/h
999 07-10-2010 07:43:02 14.4 C 10.75 g/m*3 14.4 C 0 km/h
1000 07-10-2010 07:56:01 14.3 C 10.69 g/m*3 14.3 C 0 km/h
Sensor: Nr:Datum:Temp:Abs-Feuchte:Windchill:Wind:
Aussen-T/F 1001 07-10-2010 08:08:01 14.4 C 10.75 g/m*3 14.4 C 0 km/h
1002 07-10-2010 08:20:01 14.6 C 10.89 g/m*3 14.6 C 0 km/h
1003 07-10-2010 08:32:02 14.7 C 10.95 g/m*3 14.7 C 0 km/h
1004 07-10-2010 08:44:02 14.8 C 11.02 g/m*3 14.8 C 0 km/h
1005 07-10-2010 08:56:01 14.8 C 10.89 g/m*3 14.8 C 0 km/h
1006 07-10-2010 09:08:02 14.8 C 10.77 g/m*3 14.8 C 0 km/h
1007 07-10-2010 09:20:01 14.7 C 10.45 g/m*3 14.7 C 0 km/h
1008 07-10-2010 09:32:01 14.8 C 10.51 g/m*3 14.8 C 0 km/h
1009 07-10-2010 09:44:01 15.3 C 10.71 g/m*3 15.3 C 0 km/h
1010 07-10-2010 09:56:01 15.7 C 10.57 g/m*3 15.7 C 0 km/h
1011 07-10-2010 10:08:01 16.2 C 10.48 g/m*3 16.2 C 0 km/h
1012 07-10-2010 10:20:02 16.1 C 10.14 g/m*3 16.1 C 0 km/h
1013 07-10-2010 10:32:01 16.2 C 10.34 g/m*3 16.2 C 0 km/h
1014 07-10-2010 10:44:01 16.2 C 10.34 g/m*3 16.2 C 0 km/h
1015 07-10-2010 10:56:01 16.2 C 10.34 g/m*3 16.2 C 0 km/h
1016 07-10-2010 11:08:01 16.7 C 10.52 g/m*3 16.7 C 0 km/h
1017 07-10-2010 11:20:02 17.1 C 10.34 g/m*3 17.1 C 0 km/h
1018 07-10-2010 11:32:01 17.3 C 10.31 g/m*3 17.3 C 0 km/h
1019 07-10-2010 11:44:01 17.4 C 10.08 g/m*3 17.4 C 0 km/h
1020 07-10-2010 11:56:02 17.8 C 10.32 g/m*3 17.8 C 0 km/h
1021 07-10-2010 12:08:01 18.1 C 9.89 g/m*3 18.1 C 0 km/h
1022 07-10-2010 12:20:01 18.3 C 10.01 g/m*3 18.3 C 0 km/h
1023 07-10-2010 12:32:02 18.3 C 10.01 g/m*3 18.3 C 0 km/h
1024 07-10-2010 12:44:02 18.7 C 10.09 g/m*3 18.7 C 0 km/h
1025 07-10-2010 12:56:01 18.6 C 9.87 g/m*3 18.6 C 0 km/h
Sensor: Nr:Datum:Temp:Abs-Feuchte:Windchill:Wind:
Aussen-T/F 1026 07-10-2010 13:08:02 18.8 C 10.15 g/m*3 18.8 C 0 km/h
1027 07-10-2010 13:20:01 19.2 C 10.06 g/m*3 19.2 C 0 km/h
1028 07-10-2010 13:32:02 19.3 C 9.62 g/m*3 19.3 C 0 km/h
1029 07-10-2010 13:44:02 19.5 C 9.73 g/m*3 19.5 C 0 km/h
1030 07-10-2010 13:56:01 19.5 C 9.57 g/m*3 19.5 C 0 km/h
1031 07-10-2010 14:08:02 19.7 C 9.85 g/m*3 19.7 C 0 km/h
1032 07-10-2010 14:20:01 19.8 C 9.91 g/m*3 19.8 C 0 km/h
1033 07-10-2010 14:32:01 19.7 C 9.68 g/m*3 19.7 C 0 km/h
1034 07-10-2010 14:44:01 19.9 C 9.79 g/m*3 19.9 C 0 km/h
1035 07-10-2010 14:56:01 20.3 C 9.67 g/m*3 20.3 C 0 km/h
1036 07-10-2010 15:08:01 20.5 C 9.43 g/m*3 20.5 C 0 km/h
1037 07-10-2010 15:20:01 20.8 C 9.6 g/m*3 20.8 C 0 km/h
1038 07-10-2010 15:32:01 20.7 C 9.54 g/m*3 20.7 C 0 km/h
1039 07-10-2010 15:44:01 20.4 C 9.38 g/m*3 20.4 C 0 km/h
1040 07-10-2010 15:56:01 20.1 C 9.56 g/m*3 20.1 C 0 km/h
1041 07-10-2010 16:08:01 20 C 9.68 g/m*3 20 C 0 km/h
1042 07-10-2010 16:20:02 20.4 C 9.55 g/m*3 20.4 C 0 km/h
1043 07-10-2010 16:32:01 20.1 C 9.39 g/m*3 20.1 C 0 km/h
1044 07-10-2010 16:44:01 19.6 C 9.45 g/m*3 19.6 C 0 km/h
1045 07-10-2010 16:56:02 19.6 C 9.28 g/m*3 19.6 C 0 km/h
1046 07-10-2010 17:08:01 19.6 C 9.45 g/m*3 19.6 C 0 km/h
1047 07-10-2010 17:20:01 19.3 C 9.45 g/m*3 19.3 C 0 km/h
1048 07-10-2010 17:32:02 19.2 C 9.56 g/m*3 19.2 C 0 km/h
1049 07-10-2010 17:44:02 19 C 9.45 g/m*3 19 C 0 km/h
1050 07-10-2010 17:56:01 18.7 C 9.93 g/m*3 18.7 C 0 km/h
Sensor: Nr:Datum:Temp:Abs-Feuchte:Windchill:Wind:
Aussen-T/F 1051 07-10-2010 18:08:02 18.3 C 10.01 g/m*3 18.3 C 0 km/h
1052 07-10-2010 18:20:01 18.1 C 10.2 g/m*3 18.1 C 0 km/h
1053 07-10-2010 18:32:02 17.9 C 10.23 g/m*3 17.9 C 0 km/h
1054 07-10-2010 18:44:02 17.7 C 10.26 g/m*3 17.7 C 0 km/h
1055 07-10-2010 18:56:01 17.4 C 10.37 g/m*3 17.4 C 0 km/h
1056 07-10-2010 19:08:02 17.1 C 10.34 g/m*3 17.1 C 0 km/h
1057 07-10-2010 19:20:01 17 C 10.42 g/m*3 17 C 0 km/h
1058 07-10-2010 19:32:01 16.8 C 10.44 g/m*3 16.8 C 0 km/h
1059 07-10-2010 19:44:01 17 C 10.42 g/m*3 17 C 0 km/h
1060 07-10-2010 19:56:01 16.6 C 10.31 g/m*3 16.6 C 0 km/h
1061 07-10-2010 20:08:01 16.5 C 10.39 g/m*3 16.5 C 0 km/h
1062 07-10-2010 20:20:02 16.4 C 10.33 g/m*3 16.4 C 0 km/h
1063 07-10-2010 20:32:01 16.2 C 10.34 g/m*3 16.2 C 0 km/h
1064 07-10-2010 20:44:01 16.2 C 10.34 g/m*3 16.2 C 0 km/h
1065 07-10-2010 20:56:02 16.2 C 10.34 g/m*3 16.2 C 0 km/h
1066 07-10-2010 21:08:01 16.3 C 10.13 g/m*3 16.3 C 0 km/h
1067 07-10-2010 21:20:02 16.3 C 10.27 g/m*3 16.3 C 0 km/h
1068 07-10-2010 21:32:01 16.2 C 10.2 g/m*3 16.2 C 0 km/h
1069 07-10-2010 21:44:01 16.2 C 10.07 g/m*3 16.2 C 0 km/h
1070 07-10-2010 21:56:02 16.1 C 10.01 g/m*3 16.1 C 0 km/h
1071 07-10-2010 22:08:01 16 C 9.95 g/m*3 16 C 0 km/h
1072 07-10-2010 22:20:02 16 C 9.95 g/m*3 16 C 0 km/h
1073 07-10-2010 22:32:02 16 C 9.95 g/m*3 16 C 0 km/h
1074 07-10-2010 22:44:02 16 C 9.81 g/m*3 16 C 0 km/h
1075 07-10-2010 22:56:02 16 C 9.67 g/m*3 16 C 0 km/h
Sensor: Nr:Datum:Temp:Abs-Feuchte:Windchill:Wind:
Aussen-T/F 1076 07-10-2010 23:08:02 16.1 C 9.73 g/m*3 16.1 C 0 km/h
1077 07-10-2010 23:20:02 16 C 9.67 g/m*3 16 C 0 km/h
1078 07-10-2010 23:32:02 16 C 9.67 g/m*3 16 C 0 km/h
1079 07-10-2010 23:44:02 16 C 9.81 g/m*3 16 C 0 km/h
1080 07-10-2010 23:56:02 16 C 9.81 g/m*3 16 C 0 km/h
1081 08-10-2010 00:08:03 15.8 C 9.83 g/m*3 15.8 C 0 km/h
1082 08-10-2010 00:20:03 15.9 C 10.02 g/m*3 15.9 C 0 km/h
1083 08-10-2010 00:32:03 15.8 C 9.96 g/m*3 15.8 C 0 km/h
1084 08-10-2010 00:44:03 15.8 C 9.96 g/m*3 15.8 C 0 km/h
1085 08-10-2010 00:56:03 15.8 C 9.69 g/m*3 15.8 C 0 km/h
1086 08-10-2010 01:08:03 15.7 C 9.77 g/m*3 15.7 C 0 km/h
1087 08-10-2010 01:20:03 15.7 C 9.77 g/m*3 15.7 C 0 km/h
1088 08-10-2010 01:32:03 15.6 C 9.71 g/m*3 15.6 C 0 km/h
1089 08-10-2010 01:44:03 15.5 C 9.52 g/m*3 15.5 C 0 km/h
1090 08-10-2010 01:56:03 15.6 C 9.58 g/m*3 15.6 C 0 km/h
1091 08-10-2010 02:08:03 15.6 C 9.58 g/m*3 15.6 C 0 km/h
1092 08-10-2010 02:20:03 15.5 C 9.39 g/m*3 15.5 C 0 km/h
1093 08-10-2010 02:32:03 15.4 C 9.33 g/m*3 15.4 C 0 km/h
1094 08-10-2010 02:44:03 15.4 C 9.33 g/m*3 15.4 C 0 km/h
1095 08-10-2010 02:56:03 15.3 C 9.14 g/m*3 15.3 C 0 km/h
1096 08-10-2010 03:08:03 15.2 C 8.96 g/m*3 15.2 C 0 km/h
1097 08-10-2010 03:20:03 15 C 8.98 g/m*3 15 C 0 km/h
1098 08-10-2010 03:32:03 14.9 C 8.79 g/m*3 14.9 C 0 km/h
1099 08-10-2010 03:44:03 14.8 C 8.49 g/m*3 14.8 C 0 km/h
1100 08-10-2010 03:56:03 14.7 C 8.56 g/m*3 14.7 C 0 km/h
Sensor: Nr:Datum:Temp:Abs-Feuchte:Windchill:Wind:
Aussen-T/F 1101 08-10-2010 04:08:03 14.7 C 8.56 g/m*3 14.7 C 0 km/h
1102 08-10-2010 04:20:03 14.6 C 8.51 g/m*3 14.6 C 0 km/h
1103 08-10-2010 04:32:04 14.5 C 8.58 g/m*3 14.5 C 0 km/h
1104 08-10-2010 04:44:04 14.4 C 8.53 g/m*3 14.4 C 0 km/h
1105 08-10-2010 04:56:04 14.4 C 8.65 g/m*3 14.4 C 0 km/h
1106 08-10-2010 05:08:04 14.3 C 8.72 g/m*3 14.3 C 0 km/h
1107 08-10-2010 05:20:04 14.3 C 8.85 g/m*3 14.3 C 0 km/h
1108 08-10-2010 05:32:04 14.3 C 8.85 g/m*3 14.3 C 0 km/h
1109 08-10-2010 05:44:04 14.1 C 8.74 g/m*3 14.1 C 0 km/h
1110 08-10-2010 05:56:04 14.2 C 8.91 g/m*3 14.2 C 0 km/h
1111 08-10-2010 06:08:04 14.1 C 8.86 g/m*3 14.1 C 0 km/h
1112 08-10-2010 06:20:04 14 C 8.93 g/m*3 14 C 0 km/h
1113 08-10-2010 06:32:04 14 C 8.93 g/m*3 14 C 0 km/h
1114 08-10-2010 06:44:04 13.9 C 8.99 g/m*3 13.9 C 0 km/h
1115 08-10-2010 06:56:04 13.9 C 9.11 g/m*3 13.9 C 0 km/h
1116 08-10-2010 07:08:04 13.9 C 9.11 g/m*3 13.9 C 0 km/h
1117 08-10-2010 07:20:01 14 C 9.17 g/m*3 14 C 0 km/h
1118 08-10-2010 07:32:01 14.1 C 9.22 g/m*3 14.1 C 0 km/h
1119 08-10-2010 07:44:01 14.1 C 9.1 g/m*3 14.1 C 0 km/h
1120 08-10-2010 07:56:01 14 C 9.05 g/m*3 14 C 0 km/h
1121 08-10-2010 08:08:02 14 C 9.05 g/m*3 14 C 0 km/h
1122 08-10-2010 08:20:02 14.1 C 9.1 g/m*3 14.1 C 0 km/h
1123 08-10-2010 08:32:01 14.2 C 9.28 g/m*3 14.2 C 0 km/h
1124 08-10-2010 08:44:01 14.3 C 9.34 g/m*3 14.3 C 0 km/h
1125 08-10-2010 08:56:02 14.4 C 9.39 g/m*3 14.4 C 0 km/h
Sensor: Nr:Datum:Temp:Abs-Feuchte:Windchill:Wind:
Aussen-T/F 1126 08-10-2010 09:08:01 14.4 C 9.27 g/m*3 14.4 C 0 km/h
1127 08-10-2010 09:20:01 14.5 C 9.33 g/m*3 14.5 C 0 km/h
1128 08-10-2010 09:32:02 14.6 C 9.51 g/m*3 14.6 C 0 km/h
1129 08-10-2010 09:44:02 14.7 C 9.44 g/m*3 14.7 C 0 km/h
1130 08-10-2010 09:56:02 14.8 C 9.5 g/m*3 14.8 C 0 km/h
1131 08-10-2010 10:08:01 14.9 C 9.43 g/m*3 14.9 C 0 km/h
1132 08-10-2010 10:20:02 15.1 C 9.42 g/m*3 15.1 C 0 km/h
1133 08-10-2010 10:32:02 15.3 C 9.53 g/m*3 15.3 C 0 km/h
1134 08-10-2010 10:44:02 15.4 C 9.33 g/m*3 15.4 C 0 km/h
1135 08-10-2010 10:56:02 15.7 C 9.63 g/m*3 15.7 C 0 km/h
1136 08-10-2010 11:08:02 15.7 C 9.23 g/m*3 15.7 C 0 km/h
1137 08-10-2010 11:20:02 15.8 C 9.42 g/m*3 15.8 C 0 km/h
1138 08-10-2010 11:32:02 15.8 C 9.29 g/m*3 15.8 C 0 km/h
1139 08-10-2010 11:44:02 15.9 C 9.21 g/m*3 15.9 C 0 km/h
1140 08-10-2010 11:56:02 16.1 C 9.32 g/m*3 16.1 C 0 km/h
1141 08-10-2010 12:08:02 16.3 C 9.43 g/m*3 16.3 C 0 km/h
1142 08-10-2010 12:20:03 16.5 C 9.13 g/m*3 16.5 C 0 km/h
1143 08-10-2010 12:32:02 16.6 C 9.04 g/m*3 16.6 C 0 km/h
1144 08-10-2010 12:44:02 16.6 C 8.9 g/m*3 16.6 C 0 km/h
1145 08-10-2010 12:56:02 16.7 C 8.95 g/m*3 16.7 C 0 km/h
1146 08-10-2010 13:08:02 16.7 C 8.81 g/m*3 16.7 C 0 km/h
1147 08-10-2010 13:20:02 17 C 8.83 g/m*3 17 C 0 km/h
1148 08-10-2010 13:32:02 17 C 8.83 g/m*3 17 C 0 km/h
1149 08-10-2010 13:44:02 17 C 8.54 g/m*3 17 C 0 km/h
1150 08-10-2010 13:56:02 17 C 8.83 g/m*3 17 C 0 km/h
Sensor: Nr:Datum:Temp:Abs-Feuchte:Windchill:Wind:
Aussen-T/F 1151 08-10-2010 14:08:02 17.6 C 9 g/m*3 17.6 C 0 km/h
1152 08-10-2010 14:20:02 18.1 C 8.81 g/m*3 18.1 C 0 km/h
1153 08-10-2010 14:32:02 18.6 C 8.75 g/m*3 18.6 C 0 km/h
1154 08-10-2010 14:44:02 19.7 C 8.66 g/m*3 19.7 C 0 km/h
1155 08-10-2010 14:56:02 19.8 C 8.54 g/m*3 19.8 C 0 km/h
1156 08-10-2010 15:08:02 19.7 C 8.66 g/m*3 19.7 C 0 km/h
1157 08-10-2010 15:20:01 19.9 C 8.25 g/m*3 19.9 C 0 km/h
1158 08-10-2010 15:32:02 20.4 C 8.67 g/m*3 20.4 C 0 km/h
1159 08-10-2010 15:44:02 20.6 C 8.59 g/m*3 20.6 C 0 km/h
1160 08-10-2010 15:56:02 21 C 8.43 g/m*3 21 C 0 km/h
1161 08-10-2010 16:08:02 22 C 8.73 g/m*3 22 C 0 km/h
1162 08-10-2010 16:20:02 22.1 C 8.98 g/m*3 22.1 C 0 km/h
1163 08-10-2010 16:32:02 22.5 C 9.19 g/m*3 22.5 C 0 km/h
1164 08-10-2010 16:44:02 22.4 C 8.74 g/m*3 22.4 C 0 km/h
1165 08-10-2010 16:56:02 22 C 9.12 g/m*3 22 C 0 km/h
1166 08-10-2010 17:08:02 22.1 C 9.17 g/m*3 22.1 C 0 km/h
1167 08-10-2010 17:20:03 22.1 C 9.17 g/m*3 22.1 C 0 km/h
1168 08-10-2010 17:32:02 21.9 C 9.26 g/m*3 21.9 C 0 km/h
1169 08-10-2010 17:44:02 21.6 C 9.29 g/m*3 21.6 C 0 km/h
1170 08-10-2010 17:56:02 21.2 C 9.27 g/m*3 21.2 C 0 km/h
1171 08-10-2010 18:08:02 20.6 C 9.49 g/m*3 20.6 C 0 km/h
1172 08-10-2010 18:20:03 20 C 9.51 g/m*3 20 C 0 km/h
1173 08-10-2010 18:32:02 19.3 C 9.62 g/m*3 19.3 C 0 km/h
1174 08-10-2010 18:44:02 18.1 C 9.73 g/m*3 18.1 C 0 km/h
1175 08-10-2010 18:56:02 17.3 C 9.87 g/m*3 17.3 C 0 km/h
Sensor: Nr:Datum:Temp:Abs-Feuchte:Windchill:Wind:
Aussen-T/F 1176 08-10-2010 19:08:02 16.9 C 10.21 g/m*3 16.9 C 0 km/h
1177 08-10-2010 19:20:02 16.1 C 10.01 g/m*3 16.1 C 0 km/h
1178 08-10-2010 19:32:02 15.8 C 9.96 g/m*3 15.8 C 0 km/h
1179 08-10-2010 19:44:02 15.4 C 9.85 g/m*3 15.4 C 0 km/h
1180 08-10-2010 19:56:02 15.2 C 9.86 g/m*3 15.2 C 0 km/h
1181 08-10-2010 20:08:02 15 C 9.75 g/m*3 15 C 0 km/h
1182 08-10-2010 20:20:02 14.9 C 9.81 g/m*3 14.9 C 0 km/h
1183 08-10-2010 20:32:02 14.8 C 9.88 g/m*3 14.8 C 0 km/h
1184 08-10-2010 20:44:02 14.7 C 9.82 g/m*3 14.7 C 0 km/h
1185 08-10-2010 20:56:02 14.5 C 9.7 g/m*3 14.5 C 0 km/h
1186 08-10-2010 21:08:02 14.4 C 9.77 g/m*3 14.4 C 0 km/h
1187 08-10-2010 21:20:02 14.2 C 9.65 g/m*3 14.2 C 0 km/h
1188 08-10-2010 21:32:02 14.1 C 9.59 g/m*3 14.1 C 0 km/h
1189 08-10-2010 21:44:02 14 C 9.65 g/m*3 14 C 0 km/h
1190 08-10-2010 21:56:01 13.7 C 9.59 g/m*3 13.7 C 0 km/h
1191 08-10-2010 22:08:01 13.5 C 9.59 g/m*3 13.5 C 0 km/h
1192 08-10-2010 22:20:02 13.5 C 9.59 g/m*3 13.5 C 0 km/h
1193 08-10-2010 22:33:02 13.3 C 9.47 g/m*3 13.3 C 0 km/h
1194 08-10-2010 22:45:02 13.1 C 9.47 g/m*3 13.1 C 0 km/h
1195 08-10-2010 22:57:02 13 C 9.41 g/m*3 13 C 0 km/h
1196 08-10-2010 23:09:02 12.9 C 9.47 g/m*3 12.9 C 0 km/h
1197 08-10-2010 23:21:02 12.7 C 9.35 g/m*3 12.7 C 0 km/h
1198 08-10-2010 23:33:02 12.6 C 9.29 g/m*3 12.6 C 0 km/h
1199 08-10-2010 23:45:02 12.4 C 9.18 g/m*3 12.4 C 0 km/h
1200 08-10-2010 23:57:02 12.3 C 9.23 g/m*3 12.3 C 0 km/h
Sensor: Nr:Datum:Temp:Abs-Feuchte:Windchill:Wind:
Aussen-T/F 1201 09-10-2010 00:09:02 12.1 C 9.12 g/m*3 12.1 C 0 km/h
1202 09-10-2010 00:21:03 12 C 9.06 g/m*3 12 C 0 km/h
1203 09-10-2010 00:33:03 11.9 C 9.11 g/m*3 11.9 C 0 km/h
1204 09-10-2010 00:45:03 11.7 C 9.1 g/m*3 11.7 C 0 km/h
1205 09-10-2010 00:57:03 11.8 C 9.16 g/m*3 11.8 C 0 km/h
1206 09-10-2010 01:09:03 11.5 C 8.99 g/m*3 11.5 C 0 km/h
1207 09-10-2010 01:21:03 11.5 C 8.99 g/m*3 11.5 C 0 km/h
1208 09-10-2010 01:33:03 11.4 C 9.03 g/m*3 11.4 C 0 km/h
1209 09-10-2010 01:45:03 11.2 C 8.92 g/m*3 11.2 C 0 km/h
1210 09-10-2010 01:57:03 11.1 C 8.86 g/m*3 11.1 C 0 km/h
1211 09-10-2010 02:09:03 11 C 8.81 g/m*3 11 C 0 km/h
1212 09-10-2010 02:21:03 10.9 C 8.85 g/m*3 10.9 C 0 km/h
1213 09-10-2010 02:33:03 10.7 C 8.64 g/m*3 10.7 C 0 km/h
1214 09-10-2010 02:45:03 10.6 C 8.59 g/m*3 10.6 C 0 km/h
1215 09-10-2010 02:57:03 10.5 C 8.53 g/m*3 10.5 C 0 km/h
1216 09-10-2010 03:09:03 10.4 C 8.48 g/m*3 10.4 C 0 km/h
1217 09-10-2010 03:21:03 10.3 C 8.43 g/m*3 10.3 C 0 km/h
1218 09-10-2010 03:33:03 10.2 C 8.37 g/m*3 10.2 C 0 km/h
1219 09-10-2010 03:45:03 10.2 C 8.47 g/m*3 10.2 C 0 km/h
1220 09-10-2010 03:57:03 10.1 C 8.42 g/m*3 10.1 C 0 km/h
1221 09-10-2010 04:09:03 10 C 8.36 g/m*3 10 C 0 km/h
1222 09-10-2010 04:21:03 9.8 C 8.35 g/m*3 9.8 C 0 km/h
1223 09-10-2010 04:33:04 9.8 C 8.35 g/m*3 9.8 C 0 km/h
1224 09-10-2010 04:45:04 9.7 C 8.3 g/m*3 9.7 C 0 km/h
1225 09-10-2010 04:57:04 9.6 C 8.24 g/m*3 9.6 C 0 km/h
Sensor: Nr:Datum:Temp:Abs-Feuchte:Windchill:Wind:
Aussen-T/F 1226 09-10-2010 05:09:04 9.6 C 8.34 g/m*3 9.6 C 0 km/h
1227 09-10-2010 05:21:04 9.5 C 8.28 g/m*3 9.5 C 0 km/h
1228 09-10-2010 05:33:04 9.4 C 8.23 g/m*3 9.4 C 0 km/h
1229 09-10-2010 05:45:04 9.5 C 8.28 g/m*3 9.5 C 0 km/h
1230 09-10-2010 05:57:04 9.6 C 8.34 g/m*3 9.6 C 0 km/h
1231 09-10-2010 06:09:04 9.6 C 8.34 g/m*3 9.6 C 0 km/h
1232 09-10-2010 06:21:04 9.5 C 8.37 g/m*3 9.5 C 0 km/h
1233 09-10-2010 06:33:04 9.4 C 8.32 g/m*3 9.4 C 0 km/h
1234 09-10-2010 06:45:04 9.3 C 8.27 g/m*3 9.3 C 0 km/h
1235 09-10-2010 06:57:04 9.3 C 8.27 g/m*3 9.3 C 0 km/h
1236 09-10-2010 07:09:04 9.3 C 8.27 g/m*3 9.3 C 0 km/h
1237 09-10-2010 07:21:04 9.2 C 8.22 g/m*3 9.2 C 0 km/h
1238 09-10-2010 07:33:04 9.1 C 8.16 g/m*3 9.1 C 0 km/h
1239 09-10-2010 07:45:04 9.2 C 8.22 g/m*3 9.2 C 0 km/h
1240 09-10-2010 07:57:04 9.4 C 8.32 g/m*3 9.4 C 0 km/h
1241 09-10-2010 08:09:04 9.2 C 8.22 g/m*3 9.2 C 0 km/h
1242 09-10-2010 08:21:04 9.2 C 8.22 g/m*3 9.2 C 0 km/h
1243 09-10-2010 08:33:02 9.2 C 8.22 g/m*3 9.2 C 0 km/h
1244 09-10-2010 08:45:02 9.2 C 8.22 g/m*3 9.2 C 0 km/h
1245 09-10-2010 08:57:02 9.2 C 8.22 g/m*3 9.2 C 0 km/h
1246 09-10-2010 09:09:02 9.2 C 8.22 g/m*3 9.2 C 0 km/h
1247 09-10-2010 09:21:02 9.2 C 8.22 g/m*3 9.2 C 0 km/h
1248 09-10-2010 09:33:02 9.2 C 8.13 g/m*3 9.2 C 0 km/h
1249 09-10-2010 09:45:02 9.3 C 8.27 g/m*3 9.3 C 0 km/h
1250 09-10-2010 09:57:02 9.5 C 8.37 g/m*3 9.5 C 0 km/h
Sensor: Nr:Datum:Temp:Abs-Feuchte:Windchill:Wind:
Aussen-T/F 1251 09-10-2010 10:09:02 9.7 C 8.48 g/m*3 9.7 C 0 km/h
1252 09-10-2010 10:21:01 10 C 8.55 g/m*3 10 C 0 km/h
1253 09-10-2010 10:33:02 10.5 C 8.92 g/m*3 10.5 C 0 km/h
1254 09-10-2010 10:45:02 10.8 C 9.09 g/m*3 10.8 C 0 km/h
1255 09-10-2010 10:57:02 11.2 C 9.33 g/m*3 11.2 C 0 km/h
1256 09-10-2010 11:09:02 11.7 C 9.62 g/m*3 11.7 C 0 km/h
1257 09-10-2010 11:21:02 12.1 C 9.65 g/m*3 12.1 C 0 km/h
1258 09-10-2010 11:33:02 12.5 C 9.68 g/m*3 12.5 C 0 km/h
1259 09-10-2010 11:45:02 12.9 C 9.47 g/m*3 12.9 C 0 km/h
1260 09-10-2010 11:57:02 13.4 C 9.18 g/m*3 13.4 C 0 km/h
1261 09-10-2010 12:09:02 13.7 C 8.76 g/m*3 13.7 C 0 km/h
1262 09-10-2010 12:21:01 14.4 C 8.28 g/m*3 14.4 C 0 km/h
1263 09-10-2010 12:33:02 14.7 C 7.81 g/m*3 14.7 C 0 km/h
1264 09-10-2010 12:45:01 15.1 C 8.39 g/m*3 15.1 C 0 km/h
1265 09-10-2010 12:57:01 15.5 C 7.67 g/m*3 15.5 C 0 km/h
1266 09-10-2010 13:09:02 16.1 C 7.95 g/m*3 16.1 C 0 km/h
1267 09-10-2010 13:21:02 16.6 C 8.05 g/m*3 16.6 C 0 km/h
1268 09-10-2010 13:33:02 17 C 8.1 g/m*3 17 C 0 km/h
1269 09-10-2010 13:45:02 17.6 C 7.8 g/m*3 17.6 C 0 km/h
1270 09-10-2010 13:57:02 18.2 C 7.46 g/m*3 18.2 C 0 km/h
1271 09-10-2010 14:09:01 19 C 6.84 g/m*3 19 C 0 km/h
1272 09-10-2010 14:21:02 19.5 C 7.05 g/m*3 19.5 C 0 km/h
1273 09-10-2010 14:33:02 20 C 7.09 g/m*3 20 C 0 km/h
1274 09-10-2010 14:45:02 20.4 C 6.72 g/m*3 20.4 C 0 km/h
1275 09-10-2010 14:57:02 20.9 C 7.47 g/m*3 20.9 C 0 km/h
Sensor: Nr:Datum:Temp:Abs-Feuchte:Windchill:Wind:
Aussen-T/F 1276 09-10-2010 15:09:02 21.4 C 6.75 g/m*3 21.4 C 0 km/h
1277 09-10-2010 15:21:02 21.8 C 6.72 g/m*3 21.8 C 0 km/h
1278 09-10-2010 15:33:02 21.7 C 5.91 g/m*3 21.7 C 0 km/h
1279 09-10-2010 15:45:02 22.1 C 6.25 g/m*3 22.1 C 0 km/h
1280 09-10-2010 15:57:02 22.3 C 5.73 g/m*3 22.3 C 0 km/h
1281 09-10-2010 16:09:01 22.4 C 6.16 g/m*3 22.4 C 0 km/h
1282 09-10-2010 16:21:02 22.4 C 6.16 g/m*3 22.4 C 0 km/h
1283 09-10-2010 16:33:02 22.4 C 6.36 g/m*3 22.4 C 0 km/h
1284 09-10-2010 16:45:01 22 C 6.21 g/m*3 22 C 0 km/h
1285 09-10-2010 16:57:01 21.6 C 6.26 g/m*3 21.6 C 0 km/h
1286 09-10-2010 17:09:02 21.3 C 5.96 g/m*3 21.3 C 0 km/h
1287 09-10-2010 17:21:01 21.3 C 6.15 g/m*3 21.3 C 0 km/h
1288 09-10-2010 17:33:01 21.1 C 6.26 g/m*3 21.1 C 0 km/h
1289 09-10-2010 17:45:01 20.6 C 6.26 g/m*3 20.6 C 0 km/h
1290 09-10-2010 17:57:01 19.7 C 6.28 g/m*3 19.7 C 0 km/h
1291 09-10-2010 18:09:02 19.1 C 6.23 g/m*3 19.1 C 0 km/h
1292 09-10-2010 18:21:01 18.2 C 6.22 g/m*3 18.2 C 0 km/h
1293 09-10-2010 18:33:01 17 C 6.37 g/m*3 17 C 0 km/h
1294 09-10-2010 18:45:01 15.8 C 6.33 g/m*3 15.8 C 0 km/h
1295 09-10-2010 18:57:01 15 C 6.03 g/m*3 15 C 0 km/h
1296 09-10-2010 19:09:02 14.6 C 6.01 g/m*3 14.6 C 0 km/h
1297 09-10-2010 19:21:02 14 C 6.03 g/m*3 14 C 0 km/h
1298 09-10-2010 19:33:01 13.8 C 5.96 g/m*3 13.8 C 0 km/h
1299 09-10-2010 19:45:02 13.4 C 6.28 g/m*3 13.4 C 0 km/h
1300 09-10-2010 19:57:02 13.2 C 6.32 g/m*3 13.2 C 0 km/h
Sensor: Nr:Datum:Temp:Abs-Feuchte:Windchill:Wind:
Aussen-T/F 1301 09-10-2010 20:09:01 13 C 6.35 g/m*3 13 C 0 km/h
1302 09-10-2010 20:21:02 13.1 C 6.39 g/m*3 13.1 C 0 km/h
1303 09-10-2010 20:33:01 13 C 6.46 g/m*3 13 C 0 km/h
1304 09-10-2010 20:45:02 12.7 C 6.79 g/m*3 12.7 C 0 km/h
1305 09-10-2010 20:57:02 12.4 C 6.88 g/m*3 12.4 C 0 km/h
1306 09-10-2010 21:09:02 12 C 6.82 g/m*3 12 C 0 km/h
1307 09-10-2010 21:21:02 11.7 C 7.01 g/m*3 11.7 C 0 km/h
1308 09-10-2010 21:33:02 11.5 C 7.02 g/m*3 11.5 C 0 km/h
1309 09-10-2010 21:45:01 11.2 C 7.1 g/m*3 11.2 C 0 km/h
1310 09-10-2010 21:57:01 11 C 7.01 g/m*3 11 C 0 km/h
1311 09-10-2010 22:09:01 11 C 7.01 g/m*3 11 C 0 km/h
1312 09-10-2010 22:21:02 10.8 C 7.12 g/m*3 10.8 C 0 km/h
1313 09-10-2010 22:33:01 10.6 C 7.03 g/m*3 10.6 C 0 km/h
1314 09-10-2010 22:46:02 10.4 C 7.04 g/m*3 10.4 C 0 km/h
1315 09-10-2010 22:58:02 10.2 C 6.95 g/m*3 10.2 C 0 km/h
1316 09-10-2010 23:10:02 10 C 6.86 g/m*3 10 C 0 km/h
1317 09-10-2010 23:22:02 9.8 C 6.96 g/m*3 9.8 C 0 km/h
1318 09-10-2010 23:34:02 9.7 C 6.91 g/m*3 9.7 C 0 km/h
1319 09-10-2010 23:46:02 9.4 C 6.96 g/m*3 9.4 C 0 km/h
1320 09-10-2010 23:58:02 9.2 C 6.88 g/m*3 9.2 C 0 km/h
1321 10-10-2010 00:10:02 9.1 C 6.92 g/m*3 9.1 C 0 km/h
1322 10-10-2010 00:22:02 9.1 C 7.01 g/m*3 9.1 C 0 km/h
1323 10-10-2010 00:34:02 9 C 6.96 g/m*3 9 C 0 km/h
1324 10-10-2010 00:46:02 8.8 C 7.05 g/m*3 8.8 C 0 km/h
1325 10-10-2010 00:58:02 8.7 C 7.01 g/m*3 8.7 C 0 km/h
Sensor: Nr:Datum:Temp:Abs-Feuchte:Windchill:Wind:
Aussen-T/F 1326 10-10-2010 01:10:03 8.5 C 6.92 g/m*3 8.5 C 0 km/h
1327 10-10-2010 01:22:03 8.5 C 7 g/m*3 8.5 C 0 km/h
1328 10-10-2010 01:34:03 8.4 C 6.96 g/m*3 8.4 C 0 km/h
1329 10-10-2010 01:46:03 8.3 C 6.91 g/m*3 8.3 C 0 km/h
1330 10-10-2010 01:58:03 8.2 C 6.87 g/m*3 8.2 C 0 km/h
1331 10-10-2010 02:10:03 8 C 6.86 g/m*3 8 C 0 km/h
1332 10-10-2010 02:22:03 7.9 C 6.9 g/m*3 7.9 C 0 km/h
1333 10-10-2010 02:34:03 7.9 C 6.9 g/m*3 7.9 C 0 km/h
1334 10-10-2010 02:46:03 7.6 C 6.77 g/m*3 7.6 C 0 km/h
1335 10-10-2010 02:58:03 7.4 C 6.68 g/m*3 7.4 C 0 km/h
1336 10-10-2010 03:10:03 7.5 C 6.8 g/m*3 7.5 C 0 km/h
1337 10-10-2010 03:22:03 7.2 C 6.67 g/m*3 7.2 C 0 km/h
1338 10-10-2010 03:34:03 7.1 C 6.63 g/m*3 7.1 C 0 km/h
1339 10-10-2010 03:46:03 7 C 6.59 g/m*3 7 C 0 km/h
1340 10-10-2010 03:58:03 6.9 C 6.62 g/m*3 6.9 C 0 km/h
1341 10-10-2010 04:10:03 7 C 6.59 g/m*3 7 C 0 km/h
1342 10-10-2010 04:22:03 6.8 C 6.65 g/m*3 6.8 C 0 km/h
1343 10-10-2010 04:34:03 6.7 C 6.61 g/m*3 6.7 C 0 km/h
1344 10-10-2010 04:46:03 6.7 C 6.61 g/m*3 6.7 C 0 km/h
1345 10-10-2010 04:58:03 6.6 C 6.57 g/m*3 6.6 C 0 km/h
1346 10-10-2010 05:10:03 6.5 C 6.52 g/m*3 6.5 C 0 km/h
1347 10-10-2010 05:22:03 6.4 C 6.48 g/m*3 6.4 C 0 km/h
1348 10-10-2010 05:34:03 6.2 C 6.4 g/m*3 6.2 C 0 km/h
1349 10-10-2010 05:46:04 6.2 C 6.4 g/m*3 6.2 C 0 km/h
1350 10-10-2010 05:58:04 6.1 C 6.43 g/m*3 6.1 C 0 km/h
Sensor: Nr:Datum:Temp:Abs-Feuchte:Windchill:Wind:
Aussen-T/F 1351 10-10-2010 06:10:04 5.9 C 6.35 g/m*3 5.9 C 0 km/h
1352 10-10-2010 06:22:04 6 C 6.39 g/m*3 6 C 0 km/h
1353 10-10-2010 06:34:04 6 C 6.39 g/m*3 6 C 0 km/h
1354 10-10-2010 06:46:04 5.8 C 6.38 g/m*3 5.8 C 0 km/h
1355 10-10-2010 06:58:04 5.6 C 6.29 g/m*3 5.6 C 0 km/h
1356 10-10-2010 07:10:02 5.5 C 6.25 g/m*3 5.5 C 0 km/h
1357 10-10-2010 07:22:03 5.6 C 6.29 g/m*3 5.6 C 0 km/h
1358 10-10-2010 07:34:02 5.4 C 6.28 g/m*3 5.4 C 0 km/h
1359 10-10-2010 07:46:02 5.4 C 6.28 g/m*3 5.4 C 0 km/h
1360 10-10-2010 07:58:02 5.6 C 6.43 g/m*3 5.6 C 0 km/h
1361 10-10-2010 08:10:01 6 C 6.53 g/m*3 6 C 0 km/h
1362 10-10-2010 08:22:01 6.2 C 6.62 g/m*3 6.2 C 0 km/h
1363 10-10-2010 08:34:01 6.4 C 6.71 g/m*3 6.4 C 0 km/h
1364 10-10-2010 08:46:01 6.5 C 6.75 g/m*3 6.5 C 0 km/h
1365 10-10-2010 08:58:01 6.7 C 6.84 g/m*3 6.7 C 0 km/h
1366 10-10-2010 09:10:02 7 C 6.82 g/m*3 7 C 0 km/h
1367 10-10-2010 09:22:01 6.9 C 6.85 g/m*3 6.9 C 0 km/h
1368 10-10-2010 09:34:01 7.1 C 6.79 g/m*3 7.1 C 0 km/h
1369 10-10-2010 09:46:01 7.5 C 6.8 g/m*3 7.5 C 0 km/h
1370 10-10-2010 09:58:01 7.8 C 6.69 g/m*3 7.8 C 0 km/h
1371 10-10-2010 10:10:01 8.1 C 6.49 g/m*3 8.1 C 0 km/h
1372 10-10-2010 10:22:02 8.4 C 6.45 g/m*3 8.4 C 0 km/h
1373 10-10-2010 10:34:01 8.8 C 6.7 g/m*3 8.8 C 0 km/h
1374 10-10-2010 10:46:03 9.5 C 6.74 g/m*3 9.5 C 0 km/h
1375 10-10-2010 10:58:03 9.8 C 6.59 g/m*3 9.8 C 0 km/h
Sensor: Nr:Datum:Temp:Abs-Feuchte:Windchill:Wind:
Aussen-T/F 1376 10-10-2010 11:10:02 10.2 C 6.47 g/m*3 10.2 C 0 km/h
1377 10-10-2010 11:22:02 10.3 C 6.7 g/m*3 10.3 C 0 km/h
1378 10-10-2010 11:34:02 10.8 C 6.72 g/m*3 10.8 C 0 km/h
1379 10-10-2010 11:46:02 11.5 C 6.51 g/m*3 11.5 C 0 km/h
1380 10-10-2010 11:58:03 11.8 C 6.42 g/m*3 11.8 C 0 km/h
1381 10-10-2010 12:10:01 12 C 6.61 g/m*3 12 C 0 km/h
1382 10-10-2010 12:22:02 12.3 C 6.73 g/m*3 12.3 C 0 km/h
1383 10-10-2010 12:34:02 12.7 C 6.68 g/m*3 12.7 C 0 km/h
1384 10-10-2010 12:46:02 13.2 C 6.2 g/m*3 13.2 C 0 km/h
1385 10-10-2010 12:58:02 13.8 C 6.08 g/m*3 13.8 C 0 km/h
1386 10-10-2010 13:10:03 14.4 C 5.69 g/m*3 14.4 C 0 km/h
1387 10-10-2010 13:22:02 15.2 C 5.58 g/m*3 15.2 C 0 km/h
1388 10-10-2010 13:34:02 16 C 5.86 g/m*3 16 C 0 km/h
1389 10-10-2010 13:46:01 16.5 C 5.76 g/m*3 16.5 C 0 km/h
1390 10-10-2010 13:58:01 17.2 C 5.42 g/m*3 17.2 C 0 km/h
1391 10-10-2010 14:10:02 17.8 C 5.01 g/m*3 17.8 C 0 km/h
1392 10-10-2010 14:22:01 18.3 C 5.16 g/m*3 18.3 C 0 km/h
1393 10-10-2010 14:34:01 18.7 C 5.76 g/m*3 18.7 C 0 km/h
1394 10-10-2010 14:46:01 19 C 5.7 g/m*3 19 C 0 km/h
1395 10-10-2010 14:58:01 19.3 C 5.64 g/m*3 19.3 C 0 km/h
1396 10-10-2010 15:10:01 19.6 C 5.91 g/m*3 19.6 C 0 km/h
1397 10-10-2010 15:22:02 20 C 6.05 g/m*3 20 C 0 km/h
1398 10-10-2010 15:34:01 20.4 C 6.01 g/m*3 20.4 C 0 km/h
1399 10-10-2010 15:46:02 20.9 C 6.37 g/m*3 20.9 C 0 km/h
1400 10-10-2010 15:58:02 21.1 C 5.16 g/m*3 21.1 C 0 km/h
Sensor: Nr:Datum:Temp:Abs-Feuchte:Windchill:Wind:
Aussen-T/F 1401 10-10-2010 16:10:01 21.1 C 5.71 g/m*3 21.1 C 0 km/h
1402 10-10-2010 16:22:02 21.4 C 5.81 g/m*3 21.4 C 0 km/h
1403 10-10-2010 16:34:01 21.3 C 5.78 g/m*3 21.3 C 0 km/h
1404 10-10-2010 16:46:02 21.3 C 5.59 g/m*3 21.3 C 0 km/h
1405 10-10-2010 16:58:02 21.3 C 5.59 g/m*3 21.3 C 0 km/h
1406 10-10-2010 17:10:02 21.2 C 5.56 g/m*3 21.2 C 0 km/h
1407 10-10-2010 17:22:02 21 C 5.86 g/m*3 21 C 0 km/h
1408 10-10-2010 17:34:02 20.8 C 5.79 g/m*3 20.8 C 0 km/h
1409 10-10-2010 17:46:01 20.4 C 5.48 g/m*3 20.4 C 0 km/h
1410 10-10-2010 17:58:01 19.8 C 5.3 g/m*3 19.8 C 0 km/h
1411 10-10-2010 18:10:02 19.1 C 5.41 g/m*3 19.1 C 0 km/h
1412 10-10-2010 18:22:01 18.3 C 5.32 g/m*3 18.3 C 0 km/h
1413 10-10-2010 18:34:02 17.1 C 5.24 g/m*3 17.1 C 0 km/h
1414 10-10-2010 18:46:01 16.2 C 5.65 g/m*3 16.2 C 0 km/h
1415 10-10-2010 18:58:01 15.3 C 5.48 g/m*3 15.3 C 0 km/h
1416 10-10-2010 19:10:02 14.8 C 5.57 g/m*3 14.8 C 0 km/h
1417 10-10-2010 19:22:01 14.5 C 5.35 g/m*3 14.5 C 0 km/h
1418 10-10-2010 19:34:02 14.2 C 5.62 g/m*3 14.2 C 0 km/h
1419 10-10-2010 19:46:01 13.7 C 5.68 g/m*3 13.7 C 0 km/h
1420 10-10-2010 19:58:01 13.7 C 5.21 g/m*3 13.7 C 0 km/h
1421 10-10-2010 20:10:02 13.4 C 5.23 g/m*3 13.4 C 0 km/h
1422 10-10-2010 20:22:02 13 C 5.22 g/m*3 13 C 0 km/h
1423 10-10-2010 20:34:01 13 C 4.99 g/m*3 13 C 0 km/h
1424 10-10-2010 20:46:02 12.8 C 4.7 g/m*3 12.8 C 0 km/h
1425 10-10-2010 20:58:02 12.9 C 4.4 g/m*3 12.9 C 0 km/h
Sensor: Nr:Datum:Temp:Abs-Feuchte:Windchill:Wind:
Aussen-T/F 1426 10-10-2010 21:10:01 12.7 C 4.23 g/m*3 12.7 C 0 km/h
1427 10-10-2010 21:22:02 12.6 C 4.09 g/m*3 12.6 C 0 km/h
1428 10-10-2010 21:34:01 12.5 C 3.85 g/m*3 12.5 C 0 km/h
1429 10-10-2010 21:46:02 12.4 C 3.93 g/m*3 12.4 C 0 km/h
1430 10-10-2010 21:58:03 12 C 3.94 g/m*3 12 C 0 km/h
1431 10-10-2010 22:11:02 11.8 C 3.89 g/m*3 11.8 C 0 km/h
1432 10-10-2010 22:23:03 11.6 C 4.16 g/m*3 11.6 C 0 km/h
1433 10-10-2010 22:35:03 11.4 C 4.11 g/m*3 11.4 C 0 km/h
1434 10-10-2010 22:47:03 11.3 C 4.18 g/m*3 11.3 C 0 km/h
1435 10-10-2010 22:59:03 11.2 C 4.26 g/m*3 11.2 C 0 km/h
1436 10-10-2010 23:11:03 11.1 C 4.33 g/m*3 11.1 C 0 km/h
1437 10-10-2010 23:23:03 10.9 C 4.48 g/m*3 10.9 C 0 km/h
1438 10-10-2010 23:35:03 10.7 C 4.52 g/m*3 10.7 C 0 km/h
1439 10-10-2010 23:47:03 10.6 C 4.59 g/m*3 10.6 C 0 km/h
1440 10-10-2010 23:59:03 10.3 C 4.69 g/m*3 10.3 C 0 km/h
1441 11-10-2010 00:11:03 10.2 C 4.85 g/m*3 10.2 C 0 km/h
1442 11-10-2010 00:23:03 10 C 4.89 g/m*3 10 C 0 km/h
1443 11-10-2010 00:35:03 9.9 C 4.95 g/m*3 9.9 C 0 km/h
1444 11-10-2010 00:47:03 10 C 4.79 g/m*3 10 C 0 km/h
1445 11-10-2010 00:59:03 9.8 C 4.92 g/m*3 9.8 C 0 km/h
1446 11-10-2010 01:11:03 9.6 C 4.95 g/m*3 9.6 C 0 km/h
1447 11-10-2010 01:23:03 9.5 C 4.92 g/m*3 9.5 C 0 km/h
1448 11-10-2010 01:35:03 9.4 C 4.88 g/m*3 9.4 C 0 km/h
1449 11-10-2010 01:47:03 9.3 C 4.94 g/m*3 9.3 C 0 km/h
1450 11-10-2010 01:59:03 9.4 C 4.88 g/m*3 9.4 C 0 km/h
Sensor: Nr:Datum:Temp:Abs-Feuchte:Windchill:Wind:
Aussen-T/F 1451 11-10-2010 02:11:03 9.4 C 4.79 g/m*3 9.4 C 0 km/h
1452 11-10-2010 02:23:03 9.4 C 4.88 g/m*3 9.4 C 0 km/h
1453 11-10-2010 02:35:03 9 C 4.85 g/m*3 9 C 0 km/h
1454 11-10-2010 02:47:04 8.9 C 4.91 g/m*3 8.9 C 0 km/h
1455 11-10-2010 02:59:04 8.7 C 4.93 g/m*3 8.7 C 0 km/h
1456 11-10-2010 03:11:04 8.5 C 4.95 g/m*3 8.5 C 0 km/h
1457 11-10-2010 03:23:04 8.3 C 4.97 g/m*3 8.3 C 0 km/h
1458 11-10-2010 03:35:04 8.2 C 5.02 g/m*3 8.2 C 0 km/h
1459 11-10-2010 03:47:04 8.1 C 4.99 g/m*3 8.1 C 0 km/h
1460 11-10-2010 03:59:04 8.1 C 4.99 g/m*3 8.1 C 0 km/h
1461 11-10-2010 04:11:04 7.7 C 5.03 g/m*3 7.7 C 0 km/h
1462 11-10-2010 04:23:04 7.5 C 5.12 g/m*3 7.5 C 0 km/h
1463 11-10-2010 04:35:04 7.5 C 5.12 g/m*3 7.5 C 0 km/h
1464 11-10-2010 04:47:04 7.6 C 5.16 g/m*3 7.6 C 0 km/h
1465 11-10-2010 04:59:04 7.6 C 5.08 g/m*3 7.6 C 0 km/h
1466 11-10-2010 05:11:04 7.1 C 5.07 g/m*3 7.1 C 0 km/h
1467 11-10-2010 05:23:04 7 C 5.27 g/m*3 7 C 0 km/h
1468 11-10-2010 05:35:04 6.6 C 5.28 g/m*3 6.6 C 0 km/h
1469 11-10-2010 05:47:04 6.3 C 5.26 g/m*3 6.3 C 0 km/h
1470 11-10-2010 05:59:04 6.2 C 5.29 g/m*3 6.2 C 0 km/h
1471 11-10-2010 06:11:04 6 C 5.23 g/m*3 6 C 0 km/h
1472 11-10-2010 06:23:04 5.8 C 5.23 g/m*3 5.8 C 0 km/h
1473 11-10-2010 06:35:04 5.7 C 5.34 g/m*3 5.7 C 0 km/h
1474 11-10-2010 06:47:04 5.6 C 5.37 g/m*3 5.6 C 0 km/h
1475 11-10-2010 06:59:05 5.5 C 5.41 g/m*3 5.5 C 0 km/h
Sensor: Nr:Datum:Temp:Abs-Feuchte:Windchill:Wind:
Aussen-T/F 1476 11-10-2010 07:11:02 5.4 C 5.37 g/m*3 5.4 C 0 km/h
1477 11-10-2010 07:23:02 5.3 C 5.41 g/m*3 5.3 C 0 km/h
1478 11-10-2010 07:35:03 5.3 C 5.41 g/m*3 5.3 C 0 km/h
1479 11-10-2010 07:47:02 5.1 C 5.34 g/m*3 5.1 C 0 km/h
1480 11-10-2010 07:59:02 5 C 5.3 g/m*3 5 C 0 km/h
1481 11-10-2010 08:11:02 4.9 C 5.33 g/m*3 4.9 C 0 km/h
1482 11-10-2010 08:23:02 4.9 C 5.4 g/m*3 4.9 C 0 km/h
1483 11-10-2010 08:35:02 5 C 5.37 g/m*3 5 C 0 km/h
1484 11-10-2010 08:47:02 5 C 5.44 g/m*3 5 C 0 km/h
1485 11-10-2010 08:59:02 5 C 5.44 g/m*3 5 C 0 km/h
1486 11-10-2010 09:11:02 5.3 C 5.61 g/m*3 5.3 C 0 km/h
1487 11-10-2010 09:23:02 5.4 C 5.65 g/m*3 5.4 C 0 km/h
1488 11-10-2010 09:35:02 5.6 C 5.73 g/m*3 5.6 C 0 km/h
1489 11-10-2010 09:47:01 5.8 C 5.73 g/m*3 5.8 C 0 km/h
1490 11-10-2010 09:59:01 5.9 C 5.77 g/m*3 5.9 C 0 km/h
1491 11-10-2010 10:11:01 6.1 C 5.77 g/m*3 6.1 C 0 km/h
1492 11-10-2010 10:23:01 6.5 C 6 g/m*3 6.5 C 0 km/h
1493 11-10-2010 10:35:01 7.1 C 6.16 g/m*3 7.1 C 0 km/h
1494 11-10-2010 10:47:02 7.7 C 6.32 g/m*3 7.7 C 0 km/h
1495 11-10-2010 10:59:02 8.2 C 6.28 g/m*3 8.2 C 0 km/h
1496 11-10-2010 11:11:02 8.7 C 6.31 g/m*3 8.7 C 0 km/h
1497 11-10-2010 11:23:03 9 C 6.26 g/m*3 9 C 0 km/h
1498 11-10-2010 11:35:02 9.4 C 6.33 g/m*3 9.4 C 0 km/h
1499 11-10-2010 11:47:01 9.9 C 6.44 g/m*3 9.9 C 0 km/h
1500 11-10-2010 11:59:01 10.3 C 6.42 g/m*3 10.3 C 0 km/h
Sensor: Nr:Datum:Temp:Abs-Feuchte:Windchill:Wind:
Aussen-T/F 1501 11-10-2010 12:11:02 10.7 C 6.38 g/m*3 10.7 C 0 km/h
1502 11-10-2010 12:23:01 11.3 C 6.43 g/m*3 11.3 C 0 km/h
1503 11-10-2010 12:35:01 11.6 C 6.44 g/m*3 11.6 C 0 km/h
1504 11-10-2010 12:47:01 12 C 6.39 g/m*3 12 C 0 km/h
1505 11-10-2010 12:59:01 12.5 C 6.6 g/m*3 12.5 C 0 km/h
1506 11-10-2010 13:11:01 13.8 C 6.2 g/m*3 13.8 C 0 km/h
1507 11-10-2010 13:23:02 14.5 C 6.09 g/m*3 14.5 C 0 km/h
1508 11-10-2010 13:35:01 14.9 C 5.99 g/m*3 14.9 C 0 km/h
1509 11-10-2010 13:47:02 15.4 C 5.65 g/m*3 15.4 C 0 km/h
1510 11-10-2010 13:59:02 16 C 5.45 g/m*3 16 C 0 km/h
1511 11-10-2010 14:11:02 16.7 C 4.97 g/m*3 16.7 C 0 km/h
1512 11-10-2010 14:23:02 17.1 C 5.82 g/m*3 17.1 C 0 km/h
1513 11-10-2010 14:35:01 17.4 C 5.48 g/m*3 17.4 C 0 km/h
1514 11-10-2010 14:47:01 17.9 C 5.5 g/m*3 17.9 C 0 km/h
1515 11-10-2010 14:59:02 18.3 C 5.47 g/m*3 18.3 C 0 km/h
1516 11-10-2010 15:11:01 18.8 C 5.31 g/m*3 18.8 C 0 km/h
1517 11-10-2010 15:23:01 19.4 C 5.51 g/m*3 19.4 C 0 km/h
1518 11-10-2010 15:35:01 19.8 C 5.12 g/m*3 19.8 C 0 km/h
1519 11-10-2010 15:47:01 20.3 C 4.57 g/m*3 20.3 C 0 km/h
1520 11-10-2010 15:59:01 20.6 C 4.65 g/m*3 20.6 C 0 km/h
1521 11-10-2010 16:11:02 20.8 C 4.71 g/m*3 20.8 C 0 km/h
1522 11-10-2010 16:23:01 21.1 C 4.97 g/m*3 21.1 C 0 km/h
1523 11-10-2010 16:35:01 21.2 C 4.63 g/m*3 21.2 C 0 km/h
1524 11-10-2010 16:47:01 21 C 4.58 g/m*3 21 C 0 km/h
1525 11-10-2010 16:59:01 20.7 C 4.14 g/m*3 20.7 C 0 km/h
Sensor: Nr:Datum:Temp:Abs-Feuchte:Windchill:Wind:
Aussen-T/F 1526 11-10-2010 17:11:02 20.5 C 3.74 g/m*3 20.5 C 0 km/h
1527 11-10-2010 17:23:01 20 C 3.63 g/m*3 20 C 0 km/h
1528 11-10-2010 17:35:01 19.5 C 3.36 g/m*3 19.5 C 0 km/h
1529 11-10-2010 17:47:01 19.1 C 3.44 g/m*3 19.1 C 0 km/h
1530 11-10-2010 17:59:01 18.7 C 3.84 g/m*3 18.7 C 0 km/h
1531 11-10-2010 18:11:01 18 C 4.45 g/m*3 18 C 0 km/h
1532 11-10-2010 18:23:02 16.9 C 4.31 g/m*3 16.9 C 0 km/h
1533 11-10-2010 18:35:01 15.7 C 3.88 g/m*3 15.7 C 0 km/h
1534 11-10-2010 18:47:03 15.1 C 3.61 g/m*3 15.1 C 0 km/h
1535 11-10-2010 18:59:03 14.9 C 3.7 g/m*3 14.9 C 0 km/h
1536 11-10-2010 19:11:02 14.4 C 3.71 g/m*3 14.4 C 0 km/h
1537 11-10-2010 19:23:02 13.7 C 4.14 g/m*3 13.7 C 0 km/h
1538 11-10-2010 19:35:02 13.2 C 4.48 g/m*3 13.2 C 0 km/h
1539 11-10-2010 19:47:02 12.5 C 4.51 g/m*3 12.5 C 0 km/h
1540 11-10-2010 19:59:03 12.1 C 4.72 g/m*3 12.1 C 0 km/h
1541 11-10-2010 20:11:02 11.9 C 4.77 g/m*3 11.9 C 0 km/h
1542 11-10-2010 20:23:02 11.8 C 4.84 g/m*3 11.8 C 0 km/h
1543 11-10-2010 20:35:02 11.3 C 4.79 g/m*3 11.3 C 0 km/h
1544 11-10-2010 20:47:01 11 C 4.7 g/m*3 11 C 0 km/h
1545 11-10-2010 20:59:01 10.6 C 4.98 g/m*3 10.6 C 0 km/h
1546 11-10-2010 21:11:02 10.3 C 5.08 g/m*3 10.3 C 0 km/h
1547 11-10-2010 21:23:01 10.1 C 4.82 g/m*3 10.1 C 0 km/h
1548 11-10-2010 21:35:02 9.9 C 4.95 g/m*3 9.9 C 0 km/h
1549 11-10-2010 21:48:03 9.8 C 5.01 g/m*3 9.8 C 0 km/h
1550 11-10-2010 22:00:03 9.6 C 4.95 g/m*3 9.6 C 0 km/h
Sensor: Nr:Datum:Temp:Abs-Feuchte:Windchill:Wind:
Aussen-T/F 1551 11-10-2010 22:12:03 9.4 C 4.88 g/m*3 9.4 C 0 km/h
1552 11-10-2010 22:24:03 9.3 C 4.76 g/m*3 9.3 C 0 km/h
1553 11-10-2010 22:36:03 8.9 C 4.82 g/m*3 8.9 C 0 km/h
1554 11-10-2010 22:48:03 8.8 C 4.79 g/m*3 8.8 C 0 km/h
1555 11-10-2010 23:00:03 8.7 C 5.02 g/m*3 8.7 C 0 km/h
1556 11-10-2010 23:12:04 8.4 C 4.84 g/m*3 8.4 C 0 km/h
1557 11-10-2010 23:24:04 8.2 C 4.86 g/m*3 8.2 C 0 km/h
1558 11-10-2010 23:36:04 8.1 C 4.83 g/m*3 8.1 C 0 km/h
1559 11-10-2010 23:48:04 7.8 C 4.82 g/m*3 7.8 C 0 km/h
1560 12-10-2010 00:00:04 7.4 C 4.93 g/m*3 7.4 C 0 km/h
1561 12-10-2010 00:12:04 7.3 C 4.98 g/m*3 7.3 C 0 km/h
1562 12-10-2010 00:24:04 7.2 C 4.95 g/m*3 7.2 C 0 km/h
1563 12-10-2010 00:36:04 7.1 C 5.07 g/m*3 7.1 C 0 km/h
1564 12-10-2010 00:48:04 6.8 C 5.12 g/m*3 6.8 C 0 km/h
1565 12-10-2010 01:00:04 6.7 C 5.09 g/m*3 6.7 C 0 km/h
1566 12-10-2010 01:12:04 6.5 C 5.1 g/m*3 6.5 C 0 km/h
1567 12-10-2010 01:24:04 6.4 C 5.14 g/m*3 6.4 C 0 km/h
1568 12-10-2010 01:36:04 6.3 C 5.18 g/m*3 6.3 C 0 km/h
1569 12-10-2010 01:48:04 6.1 C 5.11 g/m*3 6.1 C 0 km/h
1570 12-10-2010 02:00:04 6 C 5.15 g/m*3 6 C 0 km/h
1571 12-10-2010 02:12:04 5.8 C 5.23 g/m*3 5.8 C 0 km/h
1572 12-10-2010 02:24:04 5.8 C 5.3 g/m*3 5.8 C 0 km/h
1573 12-10-2010 02:36:04 5.6 C 5.23 g/m*3 5.6 C 0 km/h
1574 12-10-2010 02:48:04 5.5 C 5.27 g/m*3 5.5 C 0 km/h
1575 12-10-2010 03:00:04 5.2 C 5.16 g/m*3 5.2 C 0 km/h
Sensor: Nr:Datum:Temp:Abs-Feuchte:Windchill:Wind:
Aussen-T/F 1576 12-10-2010 03:12:04 5.3 C 5.41 g/m*3 5.3 C 0 km/h
1577 12-10-2010 03:24:05 5.1 C 5.4 g/m*3 5.1 C 0 km/h
1578 12-10-2010 03:36:05 4.9 C 5.33 g/m*3 4.9 C 0 km/h
1579 12-10-2010 03:48:05 4.7 C 5.26 g/m*3 4.7 C 0 km/h
1580 12-10-2010 04:00:05 4.6 C 5.29 g/m*3 4.6 C 0 km/h
1581 12-10-2010 04:12:05 4.4 C 5.22 g/m*3 4.4 C 0 km/h
1582 12-10-2010 04:24:05 4.5 C 5.39 g/m*3 4.5 C 0 km/h
1583 12-10-2010 04:36:05 4.4 C 5.42 g/m*3 4.4 C 0 km/h
1584 12-10-2010 04:48:05 4.2 C 5.35 g/m*3 4.2 C 0 km/h
1585 12-10-2010 05:00:05 4.1 C 5.38 g/m*3 4.1 C 0 km/h
1586 12-10-2010 05:12:05 4 C 5.34 g/m*3 4 C 0 km/h
1587 12-10-2010 05:24:05 3.7 C 5.3 g/m*3 3.7 C 0 km/h
1588 12-10-2010 05:36:05 3.6 C 5.26 g/m*3 3.6 C 0 km/h
1589 12-10-2010 05:48:05 3.6 C 5.26 g/m*3 3.6 C 0 km/h
1590 12-10-2010 06:00:05 3.6 C 5.26 g/m*3 3.6 C 0 km/h
1591 12-10-2010 06:12:05 3.5 C 5.29 g/m*3 3.5 C 0 km/h
1592 12-10-2010 06:24:05 3.4 C 5.25 g/m*3 3.4 C 0 km/h
1593 12-10-2010 06:36:05 3.4 C 5.25 g/m*3 3.4 C 0 km/h
1594 12-10-2010 06:48:02 3.4 C 5.25 g/m*3 3.4 C 0 km/h
1595 12-10-2010 07:00:02 3.2 C 5.18 g/m*3 3.2 C 0 km/h
1596 12-10-2010 07:12:03 3.1 C 5.15 g/m*3 3.1 C 0 km/h
1597 12-10-2010 07:24:02 3 C 5.17 g/m*3 3 C 0 km/h
1598 12-10-2010 07:36:02 2.8 C 5.16 g/m*3 2.8 C 0 km/h
1599 12-10-2010 07:48:01 2.6 C 5.09 g/m*3 2.6 C 0 km/h
1600 12-10-2010 08:00:01 2.7 C 5.13 g/m*3 2.7 C 0 km/h
Sensor: Nr:Datum:Temp:Abs-Feuchte:Windchill:Wind:
Aussen-T/F 1601 12-10-2010 08:12:02 3.2 C 5.36 g/m*3 3.2 C 0 km/h
1602 12-10-2010 08:24:02 3.6 C 5.57 g/m*3 3.6 C 0 km/h
1603 12-10-2010 08:36:02 4 C 5.72 g/m*3 4 C 0 km/h
1604 12-10-2010 08:48:02 4.3 C 5.84 g/m*3 4.3 C 0 km/h
1605 12-10-2010 09:00:02 4.5 C 5.85 g/m*3 4.5 C 0 km/h
1606 12-10-2010 09:12:02 4.7 C 5.93 g/m*3 4.7 C 0 km/h
1607 12-10-2010 09:24:02 4.8 C 5.9 g/m*3 4.8 C 0 km/h
1608 12-10-2010 09:36:02 5.2 C 5.99 g/m*3 5.2 C 0 km/h
1609 12-10-2010 09:48:02 5.3 C 5.96 g/m*3 5.3 C 0 km/h
1610 12-10-2010 10:00:02 5.3 C 5.89 g/m*3 5.3 C 0 km/h
1611 12-10-2010 10:12:02 5.6 C 6.01 g/m*3 5.6 C 0 km/h
1612 12-10-2010 10:24:02 5.7 C 6.05 g/m*3 5.7 C 0 km/h
1613 12-10-2010 10:36:02 6 C 6.1 g/m*3 6 C 0 km/h
1614 12-10-2010 10:48:02 6.5 C 6.3 g/m*3 6.5 C 0 km/h
1615 12-10-2010 11:00:02 6.5 C 6.3 g/m*3 6.5 C 0 km/h
1616 12-10-2010 11:12:02 6.6 C 6.34 g/m*3 6.6 C 0 km/h
1617 12-10-2010 11:24:02 7 C 6.43 g/m*3 7 C 0 km/h
1618 12-10-2010 11:36:02 7.7 C 6.41 g/m*3 7.7 C 0 km/h
1619 12-10-2010 11:48:02 8 C 6.28 g/m*3 8 C 0 km/h
1620 12-10-2010 12:00:02 8.4 C 6.28 g/m*3 8.4 C 0 km/h
1621 12-10-2010 12:12:02 9 C 6.17 g/m*3 9 C 0 km/h
1622 12-10-2010 12:24:02 9.6 C 6.14 g/m*3 9.6 C 0 km/h
1623 12-10-2010 12:36:02 10.2 C 6.09 g/m*3 10.2 C 0 km/h
1624 12-10-2010 12:48:02 10.6 C 6.15 g/m*3 10.6 C 0 km/h
1625 12-10-2010 13:00:02 11.5 C 5.78 g/m*3 11.5 C 0 km/h
Sensor: Nr:Datum:Temp:Abs-Feuchte:Windchill:Wind:
Aussen-T/F 1626 12-10-2010 13:12:01 12.2 C 5.5 g/m*3 12.2 C 0 km/h
1627 12-10-2010 13:24:02 12.7 C 5.79 g/m*3 12.7 C 0 km/h
1628 12-10-2010 13:36:02 13 C 5.78 g/m*3 13 C 0 km/h
1629 12-10-2010 13:48:02 13.5 C 5.73 g/m*3 13.5 C 0 km/h
1630 12-10-2010 14:00:02 14.1 C 5.83 g/m*3 14.1 C 0 km/h
1631 12-10-2010 14:12:03 15 C 5.39 g/m*3 15 C 0 km/h
1632 12-10-2010 14:24:02 15.4 C 5.65 g/m*3 15.4 C 0 km/h
1633 12-10-2010 14:36:02 15.6 C 5.72 g/m*3 15.6 C 0 km/h
1634 12-10-2010 14:48:01 16.2 C 5.65 g/m*3 16.2 C 0 km/h
1635 12-10-2010 15:00:01 16.4 C 5.58 g/m*3 16.4 C 0 km/h
1636 12-10-2010 15:12:02 17 C 5.5 g/m*3 17 C 0 km/h
1637 12-10-2010 15:24:01 16.8 C 5.29 g/m*3 16.8 C 0 km/h
1638 12-10-2010 15:36:01 17.2 C 5.42 g/m*3 17.2 C 0 km/h
1639 12-10-2010 15:48:01 17.3 C 5.3 g/m*3 17.3 C 0 km/h
1640 12-10-2010 16:00:01 17.5 C 5.52 g/m*3 17.5 C 0 km/h
1641 12-10-2010 16:12:02 17.8 C 5.31 g/m*3 17.8 C 0 km/h
1642 12-10-2010 16:24:02 17.4 C 5.48 g/m*3 17.4 C 0 km/h
1643 12-10-2010 16:36:01 17.7 C 5.43 g/m*3 17.7 C 0 km/h
1644 12-10-2010 16:48:02 17.9 C 5.34 g/m*3 17.9 C 0 km/h
1645 12-10-2010 17:00:02 17.9 C 4.89 g/m*3 17.9 C 0 km/h
1646 12-10-2010 17:12:01 17.8 C 4.86 g/m*3 17.8 C 0 km/h
1647 12-10-2010 17:24:02 17.4 C 4.45 g/m*3 17.4 C 0 km/h
1648 12-10-2010 17:36:01 16.6 C 4.24 g/m*3 16.6 C 0 km/h
1649 12-10-2010 17:48:02 16.4 C 4.47 g/m*3 16.4 C 0 km/h
1650 12-10-2010 18:00:02 16 C 4.9 g/m*3 16 C 0 km/h
Sensor: Nr:Datum:Temp:Abs-Feuchte:Windchill:Wind:
Aussen-T/F 1651 12-10-2010 18:12:02 15.4 C 5.39 g/m*3 15.4 C 0 km/h
1652 12-10-2010 18:24:02 14.4 C 5.69 g/m*3 14.4 C 0 km/h
1653 12-10-2010 18:36:03 13.7 C 5.92 g/m*3 13.7 C 0 km/h
1654 12-10-2010 18:48:02 13 C 6.12 g/m*3 13 C 0 km/h
1655 12-10-2010 19:00:02 12.3 C 6.3 g/m*3 12.3 C 0 km/h
1656 12-10-2010 19:12:02 11.8 C 6.42 g/m*3 11.8 C 0 km/h
1657 12-10-2010 19:24:02 11.3 C 6.43 g/m*3 11.3 C 0 km/h
1658 12-10-2010 19:36:02 10.9 C 6.56 g/m*3 10.9 C 0 km/h
1659 12-10-2010 19:48:02 10.8 C 6.52 g/m*3 10.8 C 0 km/h
1660 12-10-2010 20:00:02 10.4 C 6.46 g/m*3 10.4 C 0 km/h
1661 12-10-2010 20:12:01 10.1 C 6.43 g/m*3 10.1 C 0 km/h
1662 12-10-2010 20:24:02 9.9 C 6.54 g/m*3 9.9 C 0 km/h
1663 12-10-2010 20:36:01 9.5 C 6.46 g/m*3 9.5 C 0 km/h
1664 12-10-2010 20:48:02 9.3 C 6.47 g/m*3 9.3 C 0 km/h
1665 12-10-2010 21:00:02 8.9 C 6.39 g/m*3 8.9 C 0 km/h
1666 12-10-2010 21:12:02 8.6 C 6.27 g/m*3 8.6 C 0 km/h
1667 12-10-2010 21:24:02 8.3 C 6.24 g/m*3 8.3 C 0 km/h
1668 12-10-2010 21:36:02 8.1 C 6.16 g/m*3 8.1 C 0 km/h
1669 12-10-2010 21:48:02 7.9 C 6.24 g/m*3 7.9 C 0 km/h
1670 12-10-2010 22:00:02 7.7 C 6.16 g/m*3 7.7 C 0 km/h
1671 12-10-2010 22:12:01 7.5 C 6.08 g/m*3 7.5 C 0 km/h
1672 12-10-2010 22:25:03 7.6 C 6.2 g/m*3 7.6 C 0 km/h
1673 12-10-2010 22:37:03 7.9 C 6.24 g/m*3 7.9 C 0 km/h
1674 12-10-2010 22:49:03 8 C 6.04 g/m*3 8 C 0 km/h
1675 12-10-2010 23:01:03 7.9 C 6 g/m*3 7.9 C 0 km/h
Sensor: Nr:Datum:Temp:Abs-Feuchte:Windchill:Wind:
Aussen-T/F 1676 12-10-2010 23:13:03 7.7 C 5.92 g/m*3 7.7 C 0 km/h
1677 12-10-2010 23:25:03 7.8 C 6.04 g/m*3 7.8 C 0 km/h
1678 12-10-2010 23:37:03 7.8 C 6.04 g/m*3 7.8 C 0 km/h
1679 12-10-2010 23:49:03 7.7 C 6 g/m*3 7.7 C 0 km/h
1680 13-10-2010 00:01:03 7.7 C 5.92 g/m*3 7.7 C 0 km/h
1681 13-10-2010 00:13:03 7.7 C 5.92 g/m*3 7.7 C 0 km/h
1682 13-10-2010 00:25:03 7.9 C 5.91 g/m*3 7.9 C 0 km/h
1683 13-10-2010 00:37:03 7.4 C 5.81 g/m*3 7.4 C 0 km/h
1684 13-10-2010 00:49:03 7.3 C 5.77 g/m*3 7.3 C 0 km/h
1685 13-10-2010 01:01:03 7.3 C 5.85 g/m*3 7.3 C 0 km/h
1686 13-10-2010 01:13:03 7.3 C 5.85 g/m*3 7.3 C 0 km/h
1687 13-10-2010 01:25:04 7 C 5.73 g/m*3 7 C 0 km/h
1688 13-10-2010 01:37:04 6.8 C 5.81 g/m*3 6.8 C 0 km/h
1689 13-10-2010 01:49:04 6.7 C 5.85 g/m*3 6.7 C 0 km/h
1690 13-10-2010 02:01:04 6.9 C 5.93 g/m*3 6.9 C 0 km/h
1691 13-10-2010 02:13:04 6.9 C 5.85 g/m*3 6.9 C 0 km/h
1692 13-10-2010 02:25:04 6.8 C 5.81 g/m*3 6.8 C 0 km/h
1693 13-10-2010 02:37:04 6.9 C 5.85 g/m*3 6.9 C 0 km/h
1694 13-10-2010 02:49:04 6.5 C 5.7 g/m*3 6.5 C 0 km/h
1695 13-10-2010 03:01:04 6.4 C 5.74 g/m*3 6.4 C 0 km/h
1696 13-10-2010 03:13:04 6.4 C 5.74 g/m*3 6.4 C 0 km/h
1697 13-10-2010 03:25:04 6.5 C 5.7 g/m*3 6.5 C 0 km/h
1698 13-10-2010 03:37:04 6.5 C 5.7 g/m*3 6.5 C 0 km/h
1699 13-10-2010 03:49:04 6.4 C 5.59 g/m*3 6.4 C 0 km/h
1700 13-10-2010 04:01:04 6.2 C 5.52 g/m*3 6.2 C 0 km/h
Sensor: Nr:Datum:Temp:Abs-Feuchte:Windchill:Wind:
Aussen-T/F 1701 13-10-2010 04:13:04 6.1 C 5.55 g/m*3 6.1 C 0 km/h
1702 13-10-2010 04:25:04 6.2 C 5.66 g/m*3 6.2 C 0 km/h
1703 13-10-2010 04:37:04 6.2 C 5.59 g/m*3 6.2 C 0 km/h
1704 13-10-2010 04:49:04 6.3 C 5.63 g/m*3 6.3 C 0 km/h
1705 13-10-2010 05:01:04 6.3 C 5.63 g/m*3 6.3 C 0 km/h
1706 13-10-2010 05:13:04 6.2 C 5.59 g/m*3 6.2 C 0 km/h
1707 13-10-2010 05:25:04 6.1 C 5.55 g/m*3 6.1 C 0 km/h
1708 13-10-2010 05:37:05 6 C 5.59 g/m*3 6 C 0 km/h
1709 13-10-2010 05:49:05 5.9 C 5.62 g/m*3 5.9 C 0 km/h
1710 13-10-2010 06:01:05 6 C 5.66 g/m*3 6 C 0 km/h
1711 13-10-2010 06:13:05 6 C 5.59 g/m*3 6 C 0 km/h
1712 13-10-2010 06:25:05 5.8 C 5.59 g/m*3 5.8 C 0 km/h
1713 13-10-2010 06:37:05 5.8 C 5.59 g/m*3 5.8 C 0 km/h
1714 13-10-2010 06:49:02 5.6 C 5.59 g/m*3 5.6 C 0 km/h
1715 13-10-2010 07:01:02 5.5 C 5.55 g/m*3 5.5 C 0 km/h
1716 13-10-2010 07:13:02 5.4 C 5.51 g/m*3 5.4 C 0 km/h
1717 13-10-2010 07:25:02 5.2 C 5.44 g/m*3 5.2 C 0 km/h
1718 13-10-2010 07:37:02 5.4 C 5.58 g/m*3 5.4 C 0 km/h
1719 13-10-2010 07:49:01 5.6 C 5.59 g/m*3 5.6 C 0 km/h
1720 13-10-2010 08:01:02 5.7 C 5.55 g/m*3 5.7 C 0 km/h
1721 13-10-2010 08:13:02 5.6 C 5.51 g/m*3 5.6 C 0 km/h
1722 13-10-2010 08:25:02 5.6 C 5.51 g/m*3 5.6 C 0 km/h
1723 13-10-2010 08:37:01 5.6 C 5.44 g/m*3 5.6 C 0 km/h
1724 13-10-2010 08:49:02 5.6 C 5.44 g/m*3 5.6 C 0 km/h
1725 13-10-2010 09:01:02 5.7 C 5.48 g/m*3 5.7 C 0 km/h
Sensor: Nr:Datum:Temp:Abs-Feuchte:Windchill:Wind:
Aussen-T/F 1726 13-10-2010 09:13:02 5.7 C 5.48 g/m*3 5.7 C 0 km/h
1727 13-10-2010 09:25:02 5.8 C 5.44 g/m*3 5.8 C 0 km/h
1728 13-10-2010 09:37:03 6 C 5.44 g/m*3 6 C 0 km/h
1729 13-10-2010 09:49:02 6.1 C 5.41 g/m*3 6.1 C 0 km/h
1730 13-10-2010 10:01:02 6.4 C 5.44 g/m*3 6.4 C 0 km/h
1731 13-10-2010 10:13:02 6.6 C 5.36 g/m*3 6.6 C 0 km/h
1732 13-10-2010 10:25:01 6.7 C 5.32 g/m*3 6.7 C 0 km/h
1733 13-10-2010 10:37:02 6.8 C 5.2 g/m*3 6.8 C 0 km/h
1734 13-10-2010 10:49:02 6.8 C 5.2 g/m*3 6.8 C 0 km/h
1735 13-10-2010 11:01:02 7 C 5.11 g/m*3 7 C 0 km/h
1736 13-10-2010 11:13:02 7 C 5.04 g/m*3 7 C 0 km/h
1737 13-10-2010 11:25:02 6.8 C 5.05 g/m*3 6.8 C 0 km/h
1738 13-10-2010 11:37:02 7.1 C 5.15 g/m*3 7.1 C 0 km/h
1739 13-10-2010 11:49:02 7.3 C 5.06 g/m*3 7.3 C 0 km/h
1740 13-10-2010 12:01:02 7.7 C 5.11 g/m*3 7.7 C 0 km/h
1741 13-10-2010 12:13:02 7.9 C 5.01 g/m*3 7.9 C 0 km/h
1742 13-10-2010 12:25:02 8 C 5.04 g/m*3 8 C 0 km/h
1743 13-10-2010 12:37:02 8.4 C 5.01 g/m*3 8.4 C 0 km/h
1744 13-10-2010 12:49:02 8.7 C 5.1 g/m*3 8.7 C 0 km/h
1745 13-10-2010 13:01:02 9 C 4.94 g/m*3 9 C 0 km/h
1746 13-10-2010 13:13:02 8.8 C 4.87 g/m*3 8.8 C 0 km/h
1747 13-10-2010 13:25:02 9 C 4.94 g/m*3 9 C 0 km/h
1748 13-10-2010 13:37:02 8.5 C 4.87 g/m*3 8.5 C 0 km/h
1749 13-10-2010 13:49:02 8.7 C 4.84 g/m*3 8.7 C 0 km/h
1750 13-10-2010 14:01:02 9.6 C 5.13 g/m*3 9.6 C 0 km/h
Sensor: Nr:Datum:Temp:Abs-Feuchte:Windchill:Wind:
Aussen-T/F 1751 13-10-2010 14:13:02 9.4 C 4.79 g/m*3 9.4 C 0 km/h
1752 13-10-2010 14:25:02 9.6 C 4.86 g/m*3 9.6 C 0 km/h
1753 13-10-2010 14:37:01 9.7 C 4.98 g/m*3 9.7 C 0 km/h
1754 13-10-2010 14:49:02 10.7 C 5.01 g/m*3 10.7 C 0 km/h
1755 13-10-2010 15:01:01 11.3 C 5 g/m*3 11.3 C 0 km/h
1756 13-10-2010 15:13:01 11.2 C 4.87 g/m*3 11.2 C 0 km/h
1757 13-10-2010 15:25:01 11.9 C 5.08 g/m*3 11.9 C 0 km/h
1758 13-10-2010 15:37:02 12 C 4.8 g/m*3 12 C 0 km/h
1759 13-10-2010 15:49:02 12.5 C 4.95 g/m*3 12.5 C 0 km/h
1760 13-10-2010 16:01:02 12.1 C 4.93 g/m*3 12.1 C 0 km/h
1761 13-10-2010 16:13:02 11.9 C 4.98 g/m*3 11.9 C 0 km/h
1762 13-10-2010 16:25:01 12.1 C 4.93 g/m*3 12.1 C 0 km/h
1763 13-10-2010 16:37:02 11.8 C 5.05 g/m*3 11.8 C 0 km/h
1764 13-10-2010 16:49:02 12.4 C 5.14 g/m*3 12.4 C 0 km/h
1765 13-10-2010 17:01:02 12.3 C 4.99 g/m*3 12.3 C 0 km/h
1766 13-10-2010 17:13:02 12.2 C 5.07 g/m*3 12.2 C 0 km/h
1767 13-10-2010 17:25:01 12.5 C 5.39 g/m*3 12.5 C 0 km/h
1768 13-10-2010 17:37:02 12.5 C 5.28 g/m*3 12.5 C 0 km/h
1769 13-10-2010 17:49:01 12.2 C 5.4 g/m*3 12.2 C 0 km/h
1770 13-10-2010 18:01:02 11.6 C 5.4 g/m*3 11.6 C 0 km/h
1771 13-10-2010 18:13:02 10.9 C 5.47 g/m*3 10.9 C 0 km/h
1772 13-10-2010 18:25:02 9.8 C 5.47 g/m*3 9.8 C 0 km/h
1773 13-10-2010 18:37:02 9 C 5.47 g/m*3 9 C 0 km/h
1774 13-10-2010 18:49:02 8.4 C 5.6 g/m*3 8.4 C 0 km/h
1775 13-10-2010 19:01:01 7.9 C 5.67 g/m*3 7.9 C 0 km/h
Sensor: Nr:Datum:Temp:Abs-Feuchte:Windchill:Wind:
Aussen-T/F 1776 13-10-2010 19:13:01 7.6 C 5.72 g/m*3 7.6 C 0 km/h
1777 13-10-2010 19:25:02 7.4 C 5.73 g/m*3 7.4 C 0 km/h
1778 13-10-2010 19:37:01 7.3 C 5.85 g/m*3 7.3 C 0 km/h
1779 13-10-2010 19:49:02 7.2 C 5.81 g/m*3 7.2 C 0 km/h
1780 13-10-2010 20:01:02 7.3 C 5.85 g/m*3 7.3 C 0 km/h
1781 13-10-2010 20:13:02 7 C 5.73 g/m*3 7 C 0 km/h
1782 13-10-2010 20:25:02 7 C 5.81 g/m*3 7 C 0 km/h
1783 13-10-2010 20:37:03 6.9 C 5.85 g/m*3 6.9 C 0 km/h
1784 13-10-2010 20:49:02 6.6 C 5.81 g/m*3 6.6 C 0 km/h
1785 13-10-2010 21:01:02 6.3 C 5.77 g/m*3 6.3 C 0 km/h
1786 13-10-2010 21:13:02 6 C 5.73 g/m*3 6 C 0 km/h
1787 13-10-2010 21:25:01 5.8 C 5.73 g/m*3 5.8 C 0 km/h
1788 13-10-2010 21:37:02 5.6 C 5.73 g/m*3 5.6 C 0 km/h
1789 13-10-2010 21:49:02 5.4 C 5.65 g/m*3 5.4 C 0 km/h
1790 13-10-2010 22:02:03 5.4 C 5.72 g/m*3 5.4 C 0 km/h
1791 13-10-2010 22:14:03 5.3 C 5.75 g/m*3 5.3 C 0 km/h
1792 13-10-2010 22:26:03 5.2 C 5.71 g/m*3 5.2 C 0 km/h
1793 13-10-2010 22:38:03 5.1 C 5.75 g/m*3 5.1 C 0 km/h
1794 13-10-2010 22:50:03 4.8 C 5.7 g/m*3 4.8 C 0 km/h
1795 13-10-2010 23:02:03 4.7 C 5.66 g/m*3 4.7 C 0 km/h
1796 13-10-2010 23:14:03 4.6 C 5.62 g/m*3 4.6 C 0 km/h
1797 13-10-2010 23:26:03 4.6 C 5.62 g/m*3 4.6 C 0 km/h
1798 13-10-2010 23:38:03 4.5 C 5.59 g/m*3 4.5 C 0 km/h
1799 13-10-2010 23:50:03 4.2 C 5.54 g/m*3 4.2 C 0 km/h
1800 14-10-2010 00:02:03 4.1 C 5.5 g/m*3 4.1 C 0 km/h
Sensor: Nr:Datum:Temp:Abs-Feuchte:Windchill:Wind:
Aussen-T/F 1801 14-10-2010 00:14:03 4.1 C 5.57 g/m*3 4.1 C 0 km/h
1802 14-10-2010 00:26:03 3.9 C 5.56 g/m*3 3.9 C 0 km/h
1803 14-10-2010 00:38:03 3.7 C 5.48 g/m*3 3.7 C 0 km/h
1804 14-10-2010 00:50:03 3.6 C 5.45 g/m*3 3.6 C 0 km/h
1805 14-10-2010 01:02:04 3.4 C 5.44 g/m*3 3.4 C 0 km/h
1806 14-10-2010 01:14:04 3.4 C 5.44 g/m*3 3.4 C 0 km/h
1807 14-10-2010 01:26:04 3.3 C 5.4 g/m*3 3.3 C 0 km/h
1808 14-10-2010 01:38:04 3.3 C 5.46 g/m*3 3.3 C 0 km/h
1809 14-10-2010 01:50:04 3.5 C 5.6 g/m*3 3.5 C 0 km/h
1810 14-10-2010 02:02:04 3.6 C 5.63 g/m*3 3.6 C 0 km/h
1811 14-10-2010 02:14:04 3.5 C 5.6 g/m*3 3.5 C 0 km/h
1812 14-10-2010 02:26:04 3.6 C 5.63 g/m*3 3.6 C 0 km/h
1813 14-10-2010 02:38:04 3.7 C 5.73 g/m*3 3.7 C 0 km/h
1814 14-10-2010 02:50:04 3.7 C 5.67 g/m*3 3.7 C 0 km/h
1815 14-10-2010 03:02:04 3.6 C 5.63 g/m*3 3.6 C 0 km/h
1816 14-10-2010 03:14:04 3.5 C 5.6 g/m*3 3.5 C 0 km/h
1817 14-10-2010 03:26:04 3.6 C 5.57 g/m*3 3.6 C 0 km/h
1818 14-10-2010 03:38:04 3.5 C 5.53 g/m*3 3.5 C 0 km/h
1819 14-10-2010 03:50:04 3.4 C 5.5 g/m*3 3.4 C 0 km/h
1820 14-10-2010 04:02:04 3.4 C 5.5 g/m*3 3.4 C 0 km/h
1821 14-10-2010 04:14:04 3.5 C 5.53 g/m*3 3.5 C 0 km/h
1822 14-10-2010 04:26:04 3.6 C 5.57 g/m*3 3.6 C 0 km/h
1823 14-10-2010 04:38:04 3.6 C 5.57 g/m*3 3.6 C 0 km/h
1824 14-10-2010 04:50:04 3.6 C 5.57 g/m*3 3.6 C 0 km/h
1825 14-10-2010 05:02:05 3.5 C 5.53 g/m*3 3.5 C 0 km/h
Sensor: Nr:Datum:Temp:Abs-Feuchte:Windchill:Wind:
Aussen-T/F 1826 14-10-2010 05:14:05 3.6 C 5.63 g/m*3 3.6 C 0 km/h
1827 14-10-2010 05:26:05 3.6 C 5.63 g/m*3 3.6 C 0 km/h
1828 14-10-2010 05:38:05 3.6 C 5.63 g/m*3 3.6 C 0 km/h
1829 14-10-2010 05:50:05 3.8 C 5.71 g/m*3 3.8 C 0 km/h
1830 14-10-2010 06:02:05 3.9 C 5.75 g/m*3 3.9 C 0 km/h
1831 14-10-2010 06:14:05 3.9 C 5.75 g/m*3 3.9 C 0 km/h
1832 14-10-2010 06:26:05 3.9 C 5.68 g/m*3 3.9 C 0 km/h
1833 14-10-2010 06:38:05 3.9 C 5.68 g/m*3 3.9 C 0 km/h
1834 14-10-2010 06:50:01 4 C 5.66 g/m*3 4 C 0 km/h
1835 14-10-2010 07:02:02 4 C 5.66 g/m*3 4 C 0 km/h
1836 14-10-2010 07:14:02 4 C 5.72 g/m*3 4 C 0 km/h
1837 14-10-2010 07:26:02 4.1 C 5.76 g/m*3 4.1 C 0 km/h
1838 14-10-2010 07:38:01 4.2 C 5.8 g/m*3 4.2 C 0 km/h
1839 14-10-2010 07:50:02 4.3 C 5.84 g/m*3 4.3 C 0 km/h
1840 14-10-2010 08:02:01 4.4 C 5.88 g/m*3 4.4 C 0 km/h
1841 14-10-2010 08:14:01 4.5 C 5.85 g/m*3 4.5 C 0 km/h
1842 14-10-2010 08:26:01 4.5 C 5.85 g/m*3 4.5 C 0 km/h
1843 14-10-2010 08:38:02 4.4 C 5.81 g/m*3 4.4 C 0 km/h
1844 14-10-2010 08:50:02 4.4 C 5.81 g/m*3 4.4 C 0 km/h
1845 14-10-2010 09:02:02 4.5 C 5.85 g/m*3 4.5 C 0 km/h
1846 14-10-2010 09:14:02 4.4 C 5.81 g/m*3 4.4 C 0 km/h
1847 14-10-2010 09:26:02 4.6 C 5.89 g/m*3 4.6 C 0 km/h
1848 14-10-2010 09:38:02 4.6 C 5.89 g/m*3 4.6 C 0 km/h
1849 14-10-2010 09:50:02 4.7 C 5.86 g/m*3 4.7 C 0 km/h
1850 14-10-2010 10:02:02 5 C 5.91 g/m*3 5 C 0 km/h
Sensor: Nr:Datum:Temp:Abs-Feuchte:Windchill:Wind:
Aussen-T/F 1851 14-10-2010 10:14:02 5 C 5.91 g/m*3 5 C 0 km/h
1852 14-10-2010 10:26:02 5 C 5.78 g/m*3 5 C 0 km/h
1853 14-10-2010 10:38:02 5.2 C 5.85 g/m*3 5.2 C 0 km/h
1854 14-10-2010 10:50:02 5.6 C 5.94 g/m*3 5.6 C 0 km/h
1855 14-10-2010 11:02:02 6 C 5.95 g/m*3 6 C 0 km/h
1856 14-10-2010 11:14:02 5.9 C 5.77 g/m*3 5.9 C 0 km/h
1857 14-10-2010 11:26:02 6.2 C 5.74 g/m*3 6.2 C 0 km/h
1858 14-10-2010 11:38:02 6.1 C 5.55 g/m*3 6.1 C 0 km/h
1859 14-10-2010 11:50:02 6.8 C 5.74 g/m*3 6.8 C 0 km/h
1860 14-10-2010 12:02:02 7 C 5.58 g/m*3 7 C 0 km/h
1861 14-10-2010 12:14:02 7.5 C 5.68 g/m*3 7.5 C 0 km/h
1862 14-10-2010 12:26:02 8 C 5.62 g/m*3 8 C 0 km/h
1863 14-10-2010 12:38:01 8.4 C 5.51 g/m*3 8.4 C 0 km/h
1864 14-10-2010 12:50:02 8.4 C 5.51 g/m*3 8.4 C 0 km/h
1865 14-10-2010 13:02:01 9.2 C 5.63 g/m*3 9.2 C 0 km/h
1866 14-10-2010 13:14:01 8.7 C 5.36 g/m*3 8.7 C 0 km/h
1867 14-10-2010 13:26:02 9.4 C 5.61 g/m*3 9.4 C 0 km/h
1868 14-10-2010 13:38:02 9.6 C 5.59 g/m*3 9.6 C 0 km/h
1869 14-10-2010 13:50:02 9.9 C 5.7 g/m*3 9.9 C 0 km/h
1870 14-10-2010 14:02:03 10.8 C 5.83 g/m*3 10.8 C 0 km/h
1871 14-10-2010 14:14:03 11.4 C 5.85 g/m*3 11.4 C 0 km/h
1872 14-10-2010 14:26:02 11.9 C 5.82 g/m*3 11.9 C 0 km/h
1873 14-10-2010 14:38:02 12.3 C 5.86 g/m*3 12.3 C 0 km/h
1874 14-10-2010 14:50:01 12.9 C 5.86 g/m*3 12.9 C 0 km/h
1875 14-10-2010 15:02:02 13.1 C 5.71 g/m*3 13.1 C 0 km/h
Sensor: Nr:Datum:Temp:Abs-Feuchte:Windchill:Wind:
Aussen-T/F 1876 14-10-2010 15:14:02 13.8 C 5.84 g/m*3 13.8 C 0 km/h
1877 14-10-2010 15:26:01 14 C 5.67 g/m*3 14 C 0 km/h
1878 14-10-2010 15:38:01 14.4 C 5.81 g/m*3 14.4 C 0 km/h
1879 14-10-2010 15:50:01 14.4 C 5.56 g/m*3 14.4 C 0 km/h
1880 14-10-2010 16:02:02 14.7 C 5.67 g/m*3 14.7 C 0 km/h
1881 14-10-2010 16:14:02 14.7 C 5.67 g/m*3 14.7 C 0 km/h
1882 14-10-2010 16:26:02 14.4 C 5.81 g/m*3 14.4 C 0 km/h
1883 14-10-2010 16:38:01 14 C 6.03 g/m*3 14 C 0 km/h
1884 14-10-2010 16:50:02 14.2 C 5.98 g/m*3 14.2 C 0 km/h
1885 14-10-2010 17:02:01 13.5 C 5.5 g/m*3 13.5 C 0 km/h
1886 14-10-2010 17:14:01 13.4 C 5.46 g/m*3 13.4 C 0 km/h
1887 14-10-2010 17:26:02 13.4 C 5.46 g/m*3 13.4 C 0 km/h
1888 14-10-2010 17:38:01 13 C 5.33 g/m*3 13 C 0 km/h
1889 14-10-2010 17:50:02 12.9 C 5.75 g/m*3 12.9 C 0 km/h
1890 14-10-2010 18:02:02 12 C 5.75 g/m*3 12 C 0 km/h
1891 14-10-2010 18:14:02 11.6 C 5.92 g/m*3 11.6 C 0 km/h
1892 14-10-2010 18:26:02 10.9 C 5.97 g/m*3 10.9 C 0 km/h
1893 14-10-2010 18:38:03 10.5 C 6.01 g/m*3 10.5 C 0 km/h
1894 14-10-2010 18:50:02 10.2 C 6.09 g/m*3 10.2 C 0 km/h
1895 14-10-2010 19:02:02 10.2 C 6.19 g/m*3 10.2 C 0 km/h
1896 14-10-2010 19:14:02 10.2 C 6.19 g/m*3 10.2 C 0 km/h
1897 14-10-2010 19:26:02 10.3 C 6.22 g/m*3 10.3 C 0 km/h
1898 14-10-2010 19:38:02 10.3 C 6.32 g/m*3 10.3 C 0 km/h
1899 14-10-2010 19:50:02 10.3 C 6.32 g/m*3 10.3 C 0 km/h
1900 14-10-2010 20:02:02 10.3 C 6.32 g/m*3 10.3 C 0 km/h
Sensor: Nr:Datum:Temp:Abs-Feuchte:Windchill:Wind:
Aussen-T/F 1901 14-10-2010 20:14:02 10.2 C 6.19 g/m*3 10.2 C 0 km/h
1902 14-10-2010 20:26:02 10.2 C 6.19 g/m*3 10.2 C 0 km/h
1903 14-10-2010 20:38:02 10.2 C 6.28 g/m*3 10.2 C 0 km/h
1904 14-10-2010 20:50:02 10.1 C 6.24 g/m*3 10.1 C 0 km/h
1905 14-10-2010 21:02:02 9.9 C 6.26 g/m*3 9.9 C 0 km/h
1906 14-10-2010 21:14:02 9.7 C 6.27 g/m*3 9.7 C 0 km/h
1907 14-10-2010 21:26:02 9.8 C 6.4 g/m*3 9.8 C 0 km/h
1908 14-10-2010 21:38:02 9.8 C 6.4 g/m*3 9.8 C 0 km/h
1909 14-10-2010 21:51:04 9.8 C 6.31 g/m*3 9.8 C 0 km/h
1910 14-10-2010 22:03:04 9.7 C 6.36 g/m*3 9.7 C 0 km/h
1911 14-10-2010 22:15:04 9.7 C 6.45 g/m*3 9.7 C 0 km/h
1912 14-10-2010 22:27:04 9.8 C 6.59 g/m*3 9.8 C 0 km/h
1913 14-10-2010 22:39:05 9.8 C 6.59 g/m*3 9.8 C 0 km/h
1914 14-10-2010 22:51:05 9.7 C 6.55 g/m*3 9.7 C 0 km/h
1915 14-10-2010 23:03:05 9.7 C 6.64 g/m*3 9.7 C 0 km/h
1916 14-10-2010 23:15:05 9.7 C 6.64 g/m*3 9.7 C 0 km/h
1917 14-10-2010 23:27:05 9.7 C 6.73 g/m*3 9.7 C 0 km/h
1918 14-10-2010 23:39:05 9.7 C 6.73 g/m*3 9.7 C 0 km/h
1919 14-10-2010 23:51:05 9.6 C 6.69 g/m*3 9.6 C 0 km/h
1920 15-10-2010 00:03:05 9.5 C 6.74 g/m*3 9.5 C 0 km/h
1921 15-10-2010 00:15:05 9.5 C 6.74 g/m*3 9.5 C 0 km/h
1922 15-10-2010 00:27:05 9.5 C 6.74 g/m*3 9.5 C 0 km/h
1923 15-10-2010 00:39:05 9.5 C 6.74 g/m*3 9.5 C 0 km/h
1924 15-10-2010 00:51:05 9.5 C 6.83 g/m*3 9.5 C 0 km/h
1925 15-10-2010 01:03:05 9.5 C 6.83 g/m*3 9.5 C 0 km/h
Sensor: Nr:Datum:Temp:Abs-Feuchte:Windchill:Wind:
Aussen-T/F 1926 15-10-2010 01:15:05 9.5 C 6.83 g/m*3 9.5 C 0 km/h
1927 15-10-2010 01:27:05 9.5 C 6.92 g/m*3 9.5 C 0 km/h
1928 15-10-2010 01:39:05 9.4 C 6.87 g/m*3 9.4 C 0 km/h
1929 15-10-2010 01:51:05 9.2 C 6.97 g/m*3 9.2 C 0 km/h
1930 15-10-2010 02:03:05 9.2 C 7.05 g/m*3 9.2 C 0 km/h
1931 15-10-2010 02:15:05 9.2 C 7.05 g/m*3 9.2 C 0 km/h
1932 15-10-2010 02:27:05 9.3 C 7.19 g/m*3 9.3 C 0 km/h
1933 15-10-2010 02:39:05 9.2 C 7.14 g/m*3 9.2 C 0 km/h
1934 15-10-2010 02:51:06 9.3 C 7.19 g/m*3 9.3 C 0 km/h
1935 15-10-2010 03:03:06 9.3 C 7.19 g/m*3 9.3 C 0 km/h
1936 15-10-2010 03:15:06 9.3 C 7.28 g/m*3 9.3 C 0 km/h
1937 15-10-2010 03:27:06 9.2 C 7.14 g/m*3 9.2 C 0 km/h
1938 15-10-2010 03:39:06 9.3 C 7.28 g/m*3 9.3 C 0 km/h
1939 15-10-2010 03:51:06 9.3 C 7.37 g/m*3 9.3 C 0 km/h
1940 15-10-2010 04:03:06 9.3 C 7.37 g/m*3 9.3 C 0 km/h
1941 15-10-2010 04:15:06 9.2 C 7.32 g/m*3 9.2 C 0 km/h
1942 15-10-2010 04:27:06 9.3 C 7.37 g/m*3 9.3 C 0 km/h
1943 15-10-2010 04:39:06 9.3 C 7.37 g/m*3 9.3 C 0 km/h
1944 15-10-2010 04:51:06 9.3 C 7.37 g/m*3 9.3 C 0 km/h
1945 15-10-2010 05:03:06 9.2 C 7.32 g/m*3 9.2 C 0 km/h
1946 15-10-2010 05:15:06 9.2 C 7.32 g/m*3 9.2 C 0 km/h
1947 15-10-2010 05:27:06 9.2 C 7.41 g/m*3 9.2 C 0 km/h
1948 15-10-2010 05:39:06 9.2 C 7.5 g/m*3 9.2 C 0 km/h
1949 15-10-2010 05:51:06 9.2 C 7.5 g/m*3 9.2 C 0 km/h
1950 15-10-2010 06:03:06 9.3 C 7.55 g/m*3 9.3 C 0 km/h
Sensor: Nr:Datum:Temp:Abs-Feuchte:Windchill:Wind:
Aussen-T/F 1951 15-10-2010 06:15:06 9.3 C 7.64 g/m*3 9.3 C 0 km/h
1952 15-10-2010 06:27:06 9.3 C 7.64 g/m*3 9.3 C 0 km/h
1953 15-10-2010 06:39:06 9.3 C 7.73 g/m*3 9.3 C 0 km/h
1954 15-10-2010 06:51:07 9.3 C 7.73 g/m*3 9.3 C 0 km/h
1955 15-10-2010 07:03:03 9.3 C 7.73 g/m*3 9.3 C 0 km/h
1956 15-10-2010 07:15:04 9.3 C 7.73 g/m*3 9.3 C 0 km/h
1957 15-10-2010 07:27:04 9.3 C 7.73 g/m*3 9.3 C 0 km/h
1958 15-10-2010 07:39:03 9.3 C 7.73 g/m*3 9.3 C 0 km/h
1959 15-10-2010 07:51:02 9.2 C 7.77 g/m*3 9.2 C 0 km/h
1960 15-10-2010 08:03:01 9.2 C 7.77 g/m*3 9.2 C 0 km/h
1961 15-10-2010 08:15:02 9.2 C 7.86 g/m*3 9.2 C 0 km/h
1962 15-10-2010 08:27:02 9.2 C 7.86 g/m*3 9.2 C 0 km/h
1963 15-10-2010 08:39:01 9.3 C 7.91 g/m*3 9.3 C 0 km/h
1964 15-10-2010 08:51:01 9.3 C 7.91 g/m*3 9.3 C 0 km/h
1965 15-10-2010 09:03:01 9.5 C 8.01 g/m*3 9.5 C 0 km/h
1966 15-10-2010 09:15:02 9.6 C 8.15 g/m*3 9.6 C 0 km/h
1967 15-10-2010 09:27:02 9.7 C 8.2 g/m*3 9.7 C 0 km/h
1968 15-10-2010 09:39:01 10.1 C 8.32 g/m*3 10.1 C 0 km/h
1969 15-10-2010 09:51:02 10.2 C 8.28 g/m*3 10.2 C 0 km/h
1970 15-10-2010 10:03:01 10.4 C 8.19 g/m*3 10.4 C 0 km/h
1971 15-10-2010 10:15:01 10.5 C 8.15 g/m*3 10.5 C 0 km/h
1972 15-10-2010 10:27:01 10.7 C 8.05 g/m*3 10.7 C 0 km/h
1973 15-10-2010 10:39:01 10.9 C 7.96 g/m*3 10.9 C 0 km/h
1974 15-10-2010 10:51:02 11.1 C 7.96 g/m*3 11.1 C 0 km/h
1975 15-10-2010 11:03:01 11.2 C 7.91 g/m*3 11.2 C 0 km/h
Sensor: Nr:Datum:Temp:Abs-Feuchte:Windchill:Wind:
Aussen-T/F 1976 15-10-2010 11:15:02 11.3 C 7.75 g/m*3 11.3 C 0 km/h
1977 15-10-2010 11:27:02 11.4 C 7.7 g/m*3 11.4 C 0 km/h
1978 15-10-2010 11:39:02 11.8 C 7.79 g/m*3 11.8 C 0 km/h
1979 15-10-2010 11:51:02 11.9 C 7.63 g/m*3 11.9 C 0 km/h
1980 15-10-2010 12:03:03 12.3 C 7.6 g/m*3 12.3 C 0 km/h
1981 15-10-2010 12:15:02 12 C 7.25 g/m*3 12 C 0 km/h
1982 15-10-2010 12:27:02 11.9 C 7.31 g/m*3 11.9 C 0 km/h
1983 15-10-2010 12:39:02 12.8 C 7.39 g/m*3 12.8 C 0 km/h
1984 15-10-2010 12:51:01 13.1 C 7.07 g/m*3 13.1 C 0 km/h
1985 15-10-2010 13:03:02 12.9 C 6.99 g/m*3 12.9 C 0 km/h
1986 15-10-2010 13:15:01 12.9 C 6.99 g/m*3 12.9 C 0 km/h
1987 15-10-2010 13:27:01 13.4 C 6.97 g/m*3 13.4 C 0 km/h
1988 15-10-2010 13:39:01 14 C 6.88 g/m*3 14 C 0 km/h
1989 15-10-2010 13:51:01 13.7 C 6.63 g/m*3 13.7 C 0 km/h
1990 15-10-2010 14:03:01 13.4 C 6.63 g/m*3 13.4 C 0 km/h
1991 15-10-2010 14:15:02 12.9 C 6.76 g/m*3 12.9 C 0 km/h
1992 15-10-2010 14:27:02 12.7 C 6.9 g/m*3 12.7 C 0 km/h
1993 15-10-2010 14:39:01 12.4 C 6.66 g/m*3 12.4 C 0 km/h
1994 15-10-2010 14:51:03 12.5 C 6.82 g/m*3 12.5 C 0 km/h
1995 15-10-2010 15:03:02 13 C 6.8 g/m*3 13 C 0 km/h
1996 15-10-2010 15:15:02 12.9 C 6.76 g/m*3 12.9 C 0 km/h
1997 15-10-2010 15:27:02 12.9 C 6.76 g/m*3 12.9 C 0 km/h
1998 15-10-2010 15:39:03 13 C 6.58 g/m*3 13 C 0 km/h
1999 15-10-2010 15:51:02 12.5 C 6.49 g/m*3 12.5 C 0 km/h
2000 15-10-2010 16:03:02 12.5 C 6.71 g/m*3 12.5 C 0 km/h
Sensor: Nr:Datum:Temp:Abs-Feuchte:Windchill:Wind:
Aussen-T/F 2001 15-10-2010 16:15:02 12.4 C 6.77 g/m*3 12.4 C 0 km/h
2002 15-10-2010 16:27:02 12.2 C 6.69 g/m*3 12.2 C 0 km/h
2003 15-10-2010 16:39:02 12.1 C 6.86 g/m*3 12.1 C 0 km/h
2004 15-10-2010 16:51:02 12 C 6.93 g/m*3 12 C 0 km/h
2005 15-10-2010 17:03:02 11.8 C 7.05 g/m*3 11.8 C 0 km/h
2006 15-10-2010 17:15:02 11.7 C 7.11 g/m*3 11.7 C 0 km/h
2007 15-10-2010 17:27:02 11.5 C 7.13 g/m*3 11.5 C 0 km/h
2008 15-10-2010 17:39:02 11.5 C 7.02 g/m*3 11.5 C 0 km/h
2009 15-10-2010 17:51:02 11.3 C 7.04 g/m*3 11.3 C 0 km/h
2010 15-10-2010 18:03:02 11.1 C 7.05 g/m*3 11.1 C 0 km/h
2011 15-10-2010 18:15:03 11 C 7.01 g/m*3 11 C 0 km/h
2012 15-10-2010 18:27:03 10.9 C 7.06 g/m*3 10.9 C 0 km/h
2013 15-10-2010 18:39:02 10.7 C 6.97 g/m*3 10.7 C 0 km/h
2014 15-10-2010 18:51:01 10.7 C 7.07 g/m*3 10.7 C 0 km/h
2015 15-10-2010 19:03:02 10.6 C 7.03 g/m*3 10.6 C 0 km/h
2016 15-10-2010 19:15:01 10.5 C 6.98 g/m*3 10.5 C 0 km/h
2017 15-10-2010 19:27:01 10.5 C 7.08 g/m*3 10.5 C 0 km/h
2018 15-10-2010 19:39:01 10.5 C 6.98 g/m*3 10.5 C 0 km/h
2019 15-10-2010 19:51:01 10.5 C 6.98 g/m*3 10.5 C 0 km/h
2020 15-10-2010 20:03:01 10.4 C 6.94 g/m*3 10.4 C 0 km/h
2021 15-10-2010 20:15:02 10.3 C 6.99 g/m*3 10.3 C 0 km/h
2022 15-10-2010 20:27:02 10.2 C 6.95 g/m*3 10.2 C 0 km/h
2023 15-10-2010 20:39:01 10.4 C 7.13 g/m*3 10.4 C 0 km/h
2024 15-10-2010 20:51:03 10.5 C 7.08 g/m*3 10.5 C 0 km/h
2025 15-10-2010 21:03:02 10.5 C 7.08 g/m*3 10.5 C 0 km/h
Sensor: Nr:Datum:Temp:Abs-Feuchte:Windchill:Wind:
Aussen-T/F 2026 15-10-2010 21:15:02 10.4 C 7.04 g/m*3 10.4 C 0 km/h
2027 15-10-2010 21:27:02 10.2 C 7.04 g/m*3 10.2 C 0 km/h
2028 15-10-2010 21:39:03 9.8 C 7.33 g/m*3 9.8 C 0 km/h
2029 15-10-2010 21:51:02 9.6 C 7.42 g/m*3 9.6 C 0 km/h
2030 15-10-2010 22:03:02 9.5 C 7.55 g/m*3 9.5 C 0 km/h
2031 15-10-2010 22:15:02 9.3 C 7.55 g/m*3 9.3 C 0 km/h
2032 15-10-2010 22:27:02 9.3 C 7.64 g/m*3 9.3 C 0 km/h
2033 15-10-2010 22:39:01 9.2 C 7.77 g/m*3 9.2 C 0 km/h
2034 15-10-2010 22:52:04 9.2 C 7.86 g/m*3 9.2 C 0 km/h
2035 15-10-2010 23:04:04 9.2 C 7.95 g/m*3 9.2 C 0 km/h
2036 15-10-2010 23:16:04 9.3 C 8 g/m*3 9.3 C 0 km/h
2037 15-10-2010 23:28:04 9.3 C 8.09 g/m*3 9.3 C 0 km/h
2038 15-10-2010 23:40:04 9.1 C 8.07 g/m*3 9.1 C 0 km/h
2039 15-10-2010 23:52:04 9.1 C 8.07 g/m*3 9.1 C 0 km/h
2040 16-10-2010 00:04:04 9.1 C 8.16 g/m*3 9.1 C 0 km/h
2041 16-10-2010 00:16:04 9 C 8.11 g/m*3 9 C 0 km/h
2042 16-10-2010 00:28:04 9 C 8.11 g/m*3 9 C 0 km/h
2043 16-10-2010 00:40:04 9 C 8.2 g/m*3 9 C 0 km/h
2044 16-10-2010 00:52:04 9 C 8.2 g/m*3 9 C 0 km/h
2045 16-10-2010 01:04:04 8.9 C 8.23 g/m*3 8.9 C 0 km/h
2046 16-10-2010 01:16:04 8.9 C 8.23 g/m*3 8.9 C 0 km/h
2047 16-10-2010 01:28:04 8.8 C 8.18 g/m*3 8.8 C 0 km/h
2048 16-10-2010 01:40:04 8.8 C 8.18 g/m*3 8.8 C 0 km/h
2049 16-10-2010 01:52:04 8.7 C 8.13 g/m*3 8.7 C 0 km/h
2050 16-10-2010 02:04:04 8.7 C 8.13 g/m*3 8.7 C 0 km/h
Sensor: Nr:Datum:Temp:Abs-Feuchte:Windchill:Wind:
Aussen-T/F 2051 16-10-2010 02:16:05 8.8 C 8.18 g/m*3 8.8 C 0 km/h
2052 16-10-2010 02:28:05 8.8 C 8.27 g/m*3 8.8 C 0 km/h
2053 16-10-2010 02:40:05 8.8 C 8.27 g/m*3 8.8 C 0 km/h
2054 16-10-2010 02:52:05 8.8 C 8.27 g/m*3 8.8 C 0 km/h
2055 16-10-2010 03:04:05 8.7 C 8.22 g/m*3 8.7 C 0 km/h
2056 16-10-2010 03:16:05 8.7 C 8.22 g/m*3 8.7 C 0 km/h
2057 16-10-2010 03:28:05 8.7 C 8.22 g/m*3 8.7 C 0 km/h
2058 16-10-2010 03:40:05 8.7 C 8.22 g/m*3 8.7 C 0 km/h
2059 16-10-2010 03:52:05 8.6 C 8.16 g/m*3 8.6 C 0 km/h
2060 16-10-2010 04:04:05 8.6 C 8.16 g/m*3 8.6 C 0 km/h
2061 16-10-2010 04:16:05 8.6 C 8.16 g/m*3 8.6 C 0 km/h
2062 16-10-2010 04:28:05 8.5 C 8.11 g/m*3 8.5 C 0 km/h
2063 16-10-2010 04:40:05 8.5 C 8.11 g/m*3 8.5 C 0 km/h
2064 16-10-2010 04:52:05 8.5 C 8.11 g/m*3 8.5 C 0 km/h
2065 16-10-2010 05:04:05 8.5 C 8.11 g/m*3 8.5 C 0 km/h
2066 16-10-2010 05:16:05 8.4 C 8.06 g/m*3 8.4 C 0 km/h
2067 16-10-2010 05:28:05 8.3 C 8.01 g/m*3 8.3 C 0 km/h
2068 16-10-2010 05:40:05 8.3 C 8.01 g/m*3 8.3 C 0 km/h
2069 16-10-2010 05:52:05 8.3 C 8.01 g/m*3 8.3 C 0 km/h
2070 16-10-2010 06:04:05 8.3 C 8.01 g/m*3 8.3 C 0 km/h
2071 16-10-2010 06:16:05 8.4 C 8.06 g/m*3 8.4 C 0 km/h
2072 16-10-2010 06:28:05 8.3 C 8.01 g/m*3 8.3 C 0 km/h
2073 16-10-2010 06:40:06 8.3 C 8.01 g/m*3 8.3 C 0 km/h
2074 16-10-2010 06:52:06 8.2 C 7.96 g/m*3 8.2 C 0 km/h
2075 16-10-2010 07:04:06 8.2 C 7.96 g/m*3 8.2 C 0 km/h
Sensor: Nr:Datum:Temp:Abs-Feuchte:Windchill:Wind:
Aussen-T/F 2076 16-10-2010 07:16:06 8.2 C 7.96 g/m*3 8.2 C 0 km/h
2077 16-10-2010 07:28:06 8.1 C 7.9 g/m*3 8.1 C 0 km/h
2078 16-10-2010 07:40:04 8.1 C 7.82 g/m*3 8.1 C 0 km/h
2079 16-10-2010 07:52:02 8 C 7.77 g/m*3 8 C 0 km/h
2080 16-10-2010 08:04:02 8.1 C 7.82 g/m*3 8.1 C 0 km/h
2081 16-10-2010 08:16:01 8.1 C 7.82 g/m*3 8.1 C 0 km/h
2082 16-10-2010 08:28:01 8.1 C 7.74 g/m*3 8.1 C 0 km/h
2083 16-10-2010 08:40:01 8.1 C 7.74 g/m*3 8.1 C 0 km/h
2084 16-10-2010 08:52:01 8.1 C 7.74 g/m*3 8.1 C 0 km/h
2085 16-10-2010 09:04:01 8.2 C 7.79 g/m*3 8.2 C 0 km/h
2086 16-10-2010 09:16:02 8.2 C 7.79 g/m*3 8.2 C 0 km/h
2087 16-10-2010 09:28:02 8.2 C 7.79 g/m*3 8.2 C 0 km/h
2088 16-10-2010 09:40:01 8.2 C 7.79 g/m*3 8.2 C 0 km/h
2089 16-10-2010 09:52:02 8.4 C 7.89 g/m*3 8.4 C 0 km/h
2090 16-10-2010 10:04:02 8.5 C 7.94 g/m*3 8.5 C 0 km/h
2091 16-10-2010 10:16:02 8.6 C 7.99 g/m*3 8.6 C 0 km/h
2092 16-10-2010 10:28:02 8.8 C 8.18 g/m*3 8.8 C 0 km/h
2093 16-10-2010 10:40:01 8.6 C 7.99 g/m*3 8.6 C 0 km/h
2094 16-10-2010 10:52:02 8.7 C 8.04 g/m*3 8.7 C 0 km/h
2095 16-10-2010 11:04:01 8.9 C 8.15 g/m*3 8.9 C 0 km/h
2096 16-10-2010 11:16:01 8.8 C 8.09 g/m*3 8.8 C 0 km/h
2097 16-10-2010 11:28:01 9 C 8.11 g/m*3 9 C 0 km/h
2098 16-10-2010 11:40:01 9.1 C 8.16 g/m*3 9.1 C 0 km/h
2099 16-10-2010 11:52:01 9 C 8.02 g/m*3 9 C 0 km/h
2100 16-10-2010 12:04:02 9.3 C 8.18 g/m*3 9.3 C 0 km/h
Sensor: Nr:Datum:Temp:Abs-Feuchte:Windchill:Wind:
Aussen-T/F 2101 16-10-2010 12:16:01 9.1 C 7.99 g/m*3 9.1 C 0 km/h
2102 16-10-2010 12:28:01 9.1 C 7.9 g/m*3 9.1 C 0 km/h
2103 16-10-2010 12:40:01 9.7 C 8.3 g/m*3 9.7 C 0 km/h
2104 16-10-2010 12:52:01 9.7 C 8.2 g/m*3 9.7 C 0 km/h
2105 16-10-2010 13:04:02 9.6 C 8.15 g/m*3 9.6 C 0 km/h
2106 16-10-2010 13:16:01 9.9 C 8.31 g/m*3 9.9 C 0 km/h
2107 16-10-2010 13:28:01 9.8 C 8.26 g/m*3 9.8 C 0 km/h
2108 16-10-2010 13:40:02 9.6 C 8.06 g/m*3 9.6 C 0 km/h
2109 16-10-2010 13:52:02 9.7 C 8.02 g/m*3 9.7 C 0 km/h
2110 16-10-2010 14:04:02 9.9 C 8.12 g/m*3 9.9 C 0 km/h
2111 16-10-2010 14:16:01 10 C 7.89 g/m*3 10 C 0 km/h
2112 16-10-2010 14:28:01 10.1 C 7.94 g/m*3 10.1 C 0 km/h
2113 16-10-2010 14:40:02 10 C 7.8 g/m*3 10 C 0 km/h
2114 16-10-2010 14:52:01 9.8 C 7.7 g/m*3 9.8 C 0 km/h
2115 16-10-2010 15:04:02 9.8 C 7.79 g/m*3 9.8 C 0 km/h
2116 16-10-2010 15:16:02 9.9 C 7.84 g/m*3 9.9 C 0 km/h
2117 16-10-2010 15:28:02 10.3 C 7.95 g/m*3 10.3 C 0 km/h
2118 16-10-2010 15:40:02 10.1 C 7.66 g/m*3 10.1 C 0 km/h
2119 16-10-2010 15:52:01 10.3 C 7.85 g/m*3 10.3 C 0 km/h
2120 16-10-2010 16:04:02 10.2 C 7.8 g/m*3 10.2 C 0 km/h
2121 16-10-2010 16:16:02 10.2 C 7.8 g/m*3 10.2 C 0 km/h
2122 16-10-2010 16:28:02 9.9 C 7.84 g/m*3 9.9 C 0 km/h
2123 16-10-2010 16:40:01 9.6 C 7.79 g/m*3 9.6 C 0 km/h
2124 16-10-2010 16:52:02 9.6 C 7.97 g/m*3 9.6 C 0 km/h
2125 16-10-2010 17:04:01 9.6 C 8.06 g/m*3 9.6 C 0 km/h
Sensor: Nr:Datum:Temp:Abs-Feuchte:Windchill:Wind:
Aussen-T/F 2126 16-10-2010 17:16:02 9.6 C 8.15 g/m*3 9.6 C 0 km/h
2127 16-10-2010 17:28:02 9.2 C 7.86 g/m*3 9.2 C 0 km/h
2128 16-10-2010 17:40:01 9.3 C 7.82 g/m*3 9.3 C 0 km/h
2129 16-10-2010 17:52:02 9.1 C 7.63 g/m*3 9.1 C 0 km/h
2130 16-10-2010 18:04:02 8.9 C 7.36 g/m*3 8.9 C 0 km/h
2131 16-10-2010 18:16:02 8.7 C 7.18 g/m*3 8.7 C 0 km/h
2132 16-10-2010 18:28:02 8.4 C 6.96 g/m*3 8.4 C 0 km/h
2133 16-10-2010 18:40:03 8.1 C 6.74 g/m*3 8.1 C 0 km/h
2134 16-10-2010 18:52:02 7.8 C 6.69 g/m*3 7.8 C 0 km/h
2135 16-10-2010 19:04:01 7.5 C 6.56 g/m*3 7.5 C 0 km/h
2136 16-10-2010 19:16:02 7.2 C 6.59 g/m*3 7.2 C 0 km/h
2137 16-10-2010 19:28:02 7 C 6.59 g/m*3 7 C 0 km/h
2138 16-10-2010 19:40:01 6.7 C 6.61 g/m*3 6.7 C 0 km/h
2139 16-10-2010 19:52:02 6.4 C 6.41 g/m*3 6.4 C 0 km/h
2140 16-10-2010 20:04:01 6.5 C 6.45 g/m*3 6.5 C 0 km/h
2141 16-10-2010 20:16:01 6.5 C 6.3 g/m*3 6.5 C 0 km/h
2142 16-10-2010 20:28:01 6.6 C 6.27 g/m*3 6.6 C 0 km/h
2143 16-10-2010 20:40:02 6.6 C 6.27 g/m*3 6.6 C 0 km/h
2144 16-10-2010 20:52:02 6.6 C 6.27 g/m*3 6.6 C 0 km/h
2145 16-10-2010 21:04:02 6.5 C 6.22 g/m*3 6.5 C 0 km/h
2146 16-10-2010 21:16:01 6.3 C 6.14 g/m*3 6.3 C 0 km/h
2147 16-10-2010 21:28:01 6.3 C 6.22 g/m*3 6.3 C 0 km/h
2148 16-10-2010 21:40:02 6.2 C 6.25 g/m*3 6.2 C 0 km/h
2149 16-10-2010 21:52:02 6.1 C 6.21 g/m*3 6.1 C 0 km/h
2150 16-10-2010 22:04:02 6 C 6.24 g/m*3 6 C 0 km/h
Sensor: Nr:Datum:Temp:Abs-Feuchte:Windchill:Wind:
Aussen-T/F 2151 16-10-2010 22:16:02 5.9 C 6.35 g/m*3 5.9 C 0 km/h
2152 16-10-2010 22:28:02 5.8 C 6.38 g/m*3 5.8 C 0 km/h
2153 16-10-2010 22:40:02 5.9 C 6.42 g/m*3 5.9 C 0 km/h
2154 16-10-2010 22:52:02 5.9 C 6.49 g/m*3 5.9 C 0 km/h
2155 16-10-2010 23:04:02 5.9 C 6.49 g/m*3 5.9 C 0 km/h
2156 16-10-2010 23:16:03 5.9 C 6.56 g/m*3 5.9 C 0 km/h
2157 16-10-2010 23:28:03 6 C 6.53 g/m*3 6 C 0 km/h
2158 16-10-2010 23:41:04 6 C 6.6 g/m*3 6 C 0 km/h
2159 16-10-2010 23:53:04 6 C 6.6 g/m*3 6 C 0 km/h
2160 17-10-2010 00:05:04 6 C 6.6 g/m*3 6 C 0 km/h
2161 17-10-2010 00:17:04 6.1 C 6.65 g/m*3 6.1 C 0 km/h
2162 17-10-2010 00:29:04 6.2 C 6.77 g/m*3 6.2 C 0 km/h
2163 17-10-2010 00:41:04 6.2 C 6.77 g/m*3 6.2 C 0 km/h
2164 17-10-2010 00:53:04 6.2 C 6.69 g/m*3 6.2 C 0 km/h
2165 17-10-2010 01:05:04 6.2 C 6.69 g/m*3 6.2 C 0 km/h
2166 17-10-2010 01:17:04 6.2 C 6.69 g/m*3 6.2 C 0 km/h
2167 17-10-2010 01:29:04 6.3 C 6.74 g/m*3 6.3 C 0 km/h
2168 17-10-2010 01:41:04 6.2 C 6.69 g/m*3 6.2 C 0 km/h
2169 17-10-2010 01:53:04 6.3 C 6.74 g/m*3 6.3 C 0 km/h
2170 17-10-2010 02:05:04 6.3 C 6.74 g/m*3 6.3 C 0 km/h
2171 17-10-2010 02:17:05 6.2 C 6.62 g/m*3 6.2 C 0 km/h
2172 17-10-2010 02:29:05 6.2 C 6.62 g/m*3 6.2 C 0 km/h
2173 17-10-2010 02:41:05 6.2 C 6.55 g/m*3 6.2 C 0 km/h
2174 17-10-2010 02:53:05 6.2 C 6.55 g/m*3 6.2 C 0 km/h
2175 17-10-2010 03:05:05 6.2 C 6.55 g/m*3 6.2 C 0 km/h
Sensor: Nr:Datum:Temp:Abs-Feuchte:Windchill:Wind:
Aussen-T/F 2176 17-10-2010 03:17:05 6.3 C 6.51 g/m*3 6.3 C 0 km/h
2177 17-10-2010 03:29:05 6.3 C 6.51 g/m*3 6.3 C 0 km/h
2178 17-10-2010 03:41:05 6.2 C 6.47 g/m*3 6.2 C 0 km/h
2179 17-10-2010 03:53:05 6.2 C 6.4 g/m*3 6.2 C 0 km/h
2180 17-10-2010 04:05:05 6.2 C 6.32 g/m*3 6.2 C 0 km/h
2181 17-10-2010 04:17:05 6.2 C 6.32 g/m*3 6.2 C 0 km/h
2182 17-10-2010 04:29:05 6.2 C 6.32 g/m*3 6.2 C 0 km/h
2183 17-10-2010 04:41:05 6.2 C 6.32 g/m*3 6.2 C 0 km/h
2184 17-10-2010 04:53:05 6.3 C 6.37 g/m*3 6.3 C 0 km/h
2185 17-10-2010 05:05:05 6.3 C 6.37 g/m*3 6.3 C 0 km/h
2186 17-10-2010 05:17:05 6.3 C 6.44 g/m*3 6.3 C 0 km/h
2187 17-10-2010 05:29:05 6.3 C 6.44 g/m*3 6.3 C 0 km/h
2188 17-10-2010 05:41:05 6.3 C 6.44 g/m*3 6.3 C 0 km/h
2189 17-10-2010 05:53:05 6.3 C 6.44 g/m*3 6.3 C 0 km/h
2190 17-10-2010 06:05:05 6.3 C 6.44 g/m*3 6.3 C 0 km/h
2191 17-10-2010 06:17:06 6.3 C 6.44 g/m*3 6.3 C 0 km/h
2192 17-10-2010 06:29:06 6.4 C 6.48 g/m*3 6.4 C 0 km/h
2193 17-10-2010 06:41:06 6.4 C 6.48 g/m*3 6.4 C 0 km/h
2194 17-10-2010 06:53:06 6.3 C 6.44 g/m*3 6.3 C 0 km/h
2195 17-10-2010 07:05:06 6.3 C 6.37 g/m*3 6.3 C 0 km/h
2196 17-10-2010 07:17:06 6.3 C 6.37 g/m*3 6.3 C 0 km/h
2197 17-10-2010 07:29:06 6.3 C 6.22 g/m*3 6.3 C 0 km/h
2198 17-10-2010 07:41:06 6.4 C 6.26 g/m*3 6.4 C 0 km/h
2199 17-10-2010 07:53:06 6.4 C 6.26 g/m*3 6.4 C 0 km/h
2200 17-10-2010 08:05:06 6.5 C 6.22 g/m*3 6.5 C 0 km/h
Sensor: Nr:Datum:Temp:Abs-Feuchte:Windchill:Wind:
Aussen-T/F 2201 17-10-2010 08:17:06 6.5 C 6.15 g/m*3 6.5 C 0 km/h
2202 17-10-2010 08:29:06 6.5 C 6.15 g/m*3 6.5 C 0 km/h
2203 17-10-2010 08:41:06 6.6 C 6.11 g/m*3 6.6 C 0 km/h
2204 17-10-2010 08:53:01 6.8 C 6.19 g/m*3 6.8 C 0 km/h
2205 17-10-2010 09:05:02 6.8 C 6.12 g/m*3 6.8 C 0 km/h
2206 17-10-2010 09:17:02 6.8 C 6.12 g/m*3 6.8 C 0 km/h
2207 17-10-2010 09:29:02 6.9 C 6.24 g/m*3 6.9 C 0 km/h
2208 17-10-2010 09:41:01 6.9 C 6.16 g/m*3 6.9 C 0 km/h
2209 17-10-2010 09:53:02 7 C 6.12 g/m*3 7 C 0 km/h
2210 17-10-2010 10:05:01 7.1 C 6.08 g/m*3 7.1 C 0 km/h
2211 17-10-2010 10:17:02 7.2 C 6.12 g/m*3 7.2 C 0 km/h
2212 17-10-2010 10:29:02 7.3 C 6.16 g/m*3 7.3 C 0 km/h
2213 17-10-2010 10:41:01 7.4 C 6.12 g/m*3 7.4 C 0 km/h
2214 17-10-2010 10:53:02 7.6 C 6.2 g/m*3 7.6 C 0 km/h
2215 17-10-2010 11:05:02 7.7 C 6.16 g/m*3 7.7 C 0 km/h
2216 17-10-2010 11:17:02 7.8 C 6.04 g/m*3 7.8 C 0 km/h
2217 17-10-2010 11:29:02 7.7 C 5.92 g/m*3 7.7 C 0 km/h
2218 17-10-2010 11:41:02 7.6 C 5.88 g/m*3 7.6 C 0 km/h
2219 17-10-2010 11:53:02 7.7 C 5.92 g/m*3 7.7 C 0 km/h
2220 17-10-2010 12:05:02 7.8 C 5.96 g/m*3 7.8 C 0 km/h
2221 17-10-2010 12:17:01 7.8 C 5.96 g/m*3 7.8 C 0 km/h
2222 17-10-2010 12:29:01 7.9 C 6 g/m*3 7.9 C 0 km/h
2223 17-10-2010 12:41:02 8 C 5.95 g/m*3 8 C 0 km/h
2224 17-10-2010 12:53:02 7.9 C 6 g/m*3 7.9 C 0 km/h
2225 17-10-2010 13:05:02 7.9 C 5.91 g/m*3 7.9 C 0 km/h
Sensor: Nr:Datum:Temp:Abs-Feuchte:Windchill:Wind:
Aussen-T/F 2226 17-10-2010 13:17:01 8.1 C 5.91 g/m*3 8.1 C 0 km/h
2227 17-10-2010 13:29:01 8.1 C 5.91 g/m*3 8.1 C 0 km/h
2228 17-10-2010 13:41:02 8.2 C 6.03 g/m*3 8.2 C 0 km/h
2229 17-10-2010 13:53:01 8.2 C 6.03 g/m*3 8.2 C 0 km/h
2230 17-10-2010 14:05:02 8.3 C 6.15 g/m*3 8.3 C 0 km/h
2231 17-10-2010 14:17:02 8.3 C 6.07 g/m*3 8.3 C 0 km/h
2232 17-10-2010 14:29:02 8.4 C 6.19 g/m*3 8.4 C 0 km/h
2233 17-10-2010 14:41:02 8.4 C 6.19 g/m*3 8.4 C 0 km/h
2234 17-10-2010 14:53:02 8.4 C 6.11 g/m*3 8.4 C 0 km/h
2235 17-10-2010 15:05:02 8.5 C 6.15 g/m*3 8.5 C 0 km/h
2236 17-10-2010 15:17:02 8.5 C 6.06 g/m*3 8.5 C 0 km/h
2237 17-10-2010 15:29:02 8.6 C 6.1 g/m*3 8.6 C 0 km/h
2238 17-10-2010 15:41:01 8.6 C 6.1 g/m*3 8.6 C 0 km/h
2239 17-10-2010 15:53:02 8.4 C 6.19 g/m*3 8.4 C 0 km/h
2240 17-10-2010 16:05:01 8.4 C 6.19 g/m*3 8.4 C 0 km/h
2241 17-10-2010 16:17:01 8.4 C 6.28 g/m*3 8.4 C 0 km/h
2242 17-10-2010 16:29:01 8.5 C 6.32 g/m*3 8.5 C 0 km/h
2243 17-10-2010 16:41:02 8.5 C 6.32 g/m*3 8.5 C 0 km/h
2244 17-10-2010 16:53:02 8.5 C 6.32 g/m*3 8.5 C 0 km/h
2245 17-10-2010 17:05:02 8.5 C 6.32 g/m*3 8.5 C 0 km/h
2246 17-10-2010 17:17:02 8.3 C 6.24 g/m*3 8.3 C 0 km/h
2247 17-10-2010 17:29:02 8.3 C 6.32 g/m*3 8.3 C 0 km/h
2248 17-10-2010 17:41:02 8.2 C 6.36 g/m*3 8.2 C 0 km/h
2249 17-10-2010 17:53:02 8.2 C 6.36 g/m*3 8.2 C 0 km/h
2250 17-10-2010 18:05:03 8.1 C 6.32 g/m*3 8.1 C 0 km/h
Sensor: Nr:Datum:Temp:Abs-Feuchte:Windchill:Wind:
Aussen-T/F 2251 17-10-2010 18:17:02 8 C 6.28 g/m*3 8 C 0 km/h
2252 17-10-2010 18:29:02 7.9 C 6.32 g/m*3 7.9 C 0 km/h
2253 17-10-2010 18:41:02 7.8 C 6.37 g/m*3 7.8 C 0 km/h
2254 17-10-2010 18:53:01 7.7 C 6.32 g/m*3 7.7 C 0 km/h
2255 17-10-2010 19:05:02 7.7 C 6.32 g/m*3 7.7 C 0 km/h
2256 17-10-2010 19:17:01 7.7 C 6.41 g/m*3 7.7 C 0 km/h
2257 17-10-2010 19:29:01 7.7 C 6.41 g/m*3 7.7 C 0 km/h
2258 17-10-2010 19:41:01 7.7 C 6.41 g/m*3 7.7 C 0 km/h
2259 17-10-2010 19:53:01 7.6 C 6.36 g/m*3 7.6 C 0 km/h
2260 17-10-2010 20:05:02 7.6 C 6.36 g/m*3 7.6 C 0 km/h
2261 17-10-2010 20:17:01 7.7 C 6.49 g/m*3 7.7 C 0 km/h
2262 17-10-2010 20:29:01 7.7 C 6.49 g/m*3 7.7 C 0 km/h
2263 17-10-2010 20:41:01 7.7 C 6.41 g/m*3 7.7 C 0 km/h
2264 17-10-2010 20:53:02 7.7 C 6.41 g/m*3 7.7 C 0 km/h
2265 17-10-2010 21:05:02 7.7 C 6.41 g/m*3 7.7 C 0 km/h
2266 17-10-2010 21:17:02 7.7 C 6.49 g/m*3 7.7 C 0 km/h
2267 17-10-2010 21:29:02 7.7 C 6.49 g/m*3 7.7 C 0 km/h
2268 17-10-2010 21:41:02 7.5 C 6.4 g/m*3 7.5 C 0 km/h
2269 17-10-2010 21:53:02 7.5 C 6.4 g/m*3 7.5 C 0 km/h
2270 17-10-2010 22:06:02 7.5 C 6.48 g/m*3 7.5 C 0 km/h
2271 17-10-2010 22:18:02 7.5 C 6.48 g/m*3 7.5 C 0 km/h
2272 17-10-2010 22:30:02 7.4 C 6.44 g/m*3 7.4 C 0 km/h
2273 17-10-2010 22:42:02 7.3 C 6.4 g/m*3 7.3 C 0 km/h
2274 17-10-2010 22:54:02 7.2 C 6.36 g/m*3 7.2 C 0 km/h
2275 17-10-2010 23:06:02 7.1 C 6.32 g/m*3 7.1 C 0 km/h
Sensor: Nr:Datum:Temp:Abs-Feuchte:Windchill:Wind:
Aussen-T/F 2276 17-10-2010 23:18:02 7.1 C 6.32 g/m*3 7.1 C 0 km/h
2277 17-10-2010 23:30:02 7.1 C 6.32 g/m*3 7.1 C 0 km/h
2278 17-10-2010 23:42:02 7 C 6.28 g/m*3 7 C 0 km/h
2279 17-10-2010 23:54:02 6.9 C 6.31 g/m*3 6.9 C 0 km/h
2280 18-10-2010 00:06:02 6.9 C 6.31 g/m*3 6.9 C 0 km/h
2281 18-10-2010 00:18:02 6.8 C 6.27 g/m*3 6.8 C 0 km/h
2282 18-10-2010 00:30:02 6.7 C 6.23 g/m*3 6.7 C 0 km/h
2283 18-10-2010 00:42:02 6.3 C 6.14 g/m*3 6.3 C 0 km/h
2284 18-10-2010 00:54:02 5.7 C 5.98 g/m*3 5.7 C 0 km/h
2285 18-10-2010 01:06:02 5.3 C 5.89 g/m*3 5.3 C 0 km/h
2286 18-10-2010 01:18:02 5.1 C 5.88 g/m*3 5.1 C 0 km/h
2287 18-10-2010 01:30:02 5 C 5.91 g/m*3 5 C 0 km/h
2288 18-10-2010 01:42:02 5.2 C 6.06 g/m*3 5.2 C 0 km/h
2289 18-10-2010 01:54:03 5.3 C 6.1 g/m*3 5.3 C 0 km/h
2290 18-10-2010 02:06:03 5.5 C 6.18 g/m*3 5.5 C 0 km/h
2291 18-10-2010 02:18:03 5.7 C 6.33 g/m*3 5.7 C 0 km/h
2292 18-10-2010 02:30:03 5.9 C 6.42 g/m*3 5.9 C 0 km/h
2293 18-10-2010 02:42:03 5.9 C 6.42 g/m*3 5.9 C 0 km/h
2294 18-10-2010 02:54:03 6 C 6.39 g/m*3 6 C 0 km/h
2295 18-10-2010 03:06:03 6 C 6.31 g/m*3 6 C 0 km/h
2296 18-10-2010 03:18:03 6 C 6.31 g/m*3 6 C 0 km/h
2297 18-10-2010 03:30:03 6 C 6.31 g/m*3 6 C 0 km/h
2298 18-10-2010 03:42:03 6 C 6.31 g/m*3 6 C 0 km/h
2299 18-10-2010 03:54:03 6 C 6.24 g/m*3 6 C 0 km/h
2300 18-10-2010 04:06:03 6 C 6.24 g/m*3 6 C 0 km/h
Sensor: Nr:Datum:Temp:Abs-Feuchte:Windchill:Wind:
Aussen-T/F 2301 18-10-2010 04:18:03 6.1 C 6.28 g/m*3 6.1 C 0 km/h
2302 18-10-2010 04:30:03 6.1 C 6.28 g/m*3 6.1 C 0 km/h
2303 18-10-2010 04:42:03 6 C 6.24 g/m*3 6 C 0 km/h
2304 18-10-2010 04:54:03 5.9 C 6.2 g/m*3 5.9 C 0 km/h
2305 18-10-2010 05:06:03 5.9 C 6.13 g/m*3 5.9 C 0 km/h
2306 18-10-2010 05:18:03 5.9 C 6.13 g/m*3 5.9 C 0 km/h
2307 18-10-2010 05:30:03 5.8 C 6.09 g/m*3 5.8 C 0 km/h
2308 18-10-2010 05:42:03 5.8 C 6.09 g/m*3 5.8 C 0 km/h
2309 18-10-2010 05:54:03 5.8 C 6.09 g/m*3 5.8 C 0 km/h
2310 18-10-2010 06:06:03 5.8 C 6.16 g/m*3 5.8 C 0 km/h
2311 18-10-2010 06:18:04 5.8 C 6.16 g/m*3 5.8 C 0 km/h
2312 18-10-2010 06:30:04 5.8 C 6.16 g/m*3 5.8 C 0 km/h
2313 18-10-2010 06:42:04 5.8 C 6.16 g/m*3 5.8 C 0 km/h
2314 18-10-2010 06:54:04 5.8 C 6.16 g/m*3 5.8 C 0 km/h
2315 18-10-2010 07:06:02 5.8 C 6.16 g/m*3 5.8 C 0 km/h
2316 18-10-2010 07:18:02 5.8 C 6.16 g/m*3 5.8 C 0 km/h
2317 18-10-2010 07:30:02 5.8 C 6.16 g/m*3 5.8 C 0 km/h
2318 18-10-2010 07:42:02 5.7 C 6.12 g/m*3 5.7 C 0 km/h
2319 18-10-2010 07:54:02 5.7 C 6.12 g/m*3 5.7 C 0 km/h
2320 18-10-2010 08:06:02 5.7 C 6.19 g/m*3 5.7 C 0 km/h
2321 18-10-2010 08:18:02 5.7 C 6.12 g/m*3 5.7 C 0 km/h
2322 18-10-2010 08:30:02 5.7 C 6.19 g/m*3 5.7 C 0 km/h
2323 18-10-2010 08:42:02 5.8 C 6.23 g/m*3 5.8 C 0 km/h
2324 18-10-2010 08:54:02 6 C 6.24 g/m*3 6 C 0 km/h
2325 18-10-2010 09:06:02 6.2 C 6.32 g/m*3 6.2 C 0 km/h
Sensor: Nr:Datum:Temp:Abs-Feuchte:Windchill:Wind:
Aussen-T/F 2326 18-10-2010 09:18:02 6.3 C 6.37 g/m*3 6.3 C 0 km/h
2327 18-10-2010 09:30:02 6.7 C 6.46 g/m*3 6.7 C 0 km/h
2328 18-10-2010 09:42:01 6.9 C 6.54 g/m*3 6.9 C 0 km/h
2329 18-10-2010 09:54:02 7.2 C 6.52 g/m*3 7.2 C 0 km/h
2330 18-10-2010 10:06:01 7.4 C 6.6 g/m*3 7.4 C 0 km/h
2331 18-10-2010 10:18:02 7.6 C 6.36 g/m*3 7.6 C 0 km/h
2332 18-10-2010 10:30:03 7.6 C 5.88 g/m*3 7.6 C 0 km/h
2333 18-10-2010 10:42:01 7.6 C 5.56 g/m*3 7.6 C 0 km/h
2334 18-10-2010 10:54:02 7.6 C 5.56 g/m*3 7.6 C 0 km/h
2335 18-10-2010 11:06:02 7.5 C 5.12 g/m*3 7.5 C 0 km/h
2336 18-10-2010 11:18:02 7.6 C 5.08 g/m*3 7.6 C 0 km/h
2337 18-10-2010 11:30:02 7.8 C 5.14 g/m*3 7.8 C 0 km/h
2338 18-10-2010 11:42:02 8 C 4.96 g/m*3 8 C 0 km/h
2339 18-10-2010 11:54:02 7.9 C 5.01 g/m*3 7.9 C 0 km/h
2340 18-10-2010 12:06:02 8 C 4.96 g/m*3 8 C 0 km/h
2341 18-10-2010 12:18:01 8.3 C 5.06 g/m*3 8.3 C 0 km/h
2342 18-10-2010 12:30:01 8.4 C 5.01 g/m*3 8.4 C 0 km/h
2343 18-10-2010 12:42:02 8.2 C 4.94 g/m*3 8.2 C 0 km/h
2344 18-10-2010 12:54:02 8.4 C 4.92 g/m*3 8.4 C 0 km/h
2345 18-10-2010 13:06:02 9 C 4.85 g/m*3 9 C 0 km/h
2346 18-10-2010 13:18:02 8.7 C 4.76 g/m*3 8.7 C 0 km/h
2347 18-10-2010 13:30:02 8.7 C 4.76 g/m*3 8.7 C 0 km/h
2348 18-10-2010 13:42:02 8.8 C 4.96 g/m*3 8.8 C 0 km/h
2349 18-10-2010 13:54:01 8.9 C 4.91 g/m*3 8.9 C 0 km/h
2350 18-10-2010 14:06:02 9 C 4.94 g/m*3 9 C 0 km/h
Sensor: Nr:Datum:Temp:Abs-Feuchte:Windchill:Wind:
Aussen-T/F 2351 18-10-2010 14:18:01 8.8 C 4.79 g/m*3 8.8 C 0 km/h
2352 18-10-2010 14:30:01 8.8 C 4.87 g/m*3 8.8 C 0 km/h
2353 18-10-2010 14:42:01 8.8 C 4.87 g/m*3 8.8 C 0 km/h
2354 18-10-2010 14:54:01 9 C 4.85 g/m*3 9 C 0 km/h
2355 18-10-2010 15:06:02 8.9 C 4.82 g/m*3 8.9 C 0 km/h
2356 18-10-2010 15:18:01 8.7 C 4.76 g/m*3 8.7 C 0 km/h
2357 18-10-2010 15:30:01 8.7 C 4.84 g/m*3 8.7 C 0 km/h
2358 18-10-2010 15:42:01 8.7 C 4.93 g/m*3 8.7 C 0 km/h
2359 18-10-2010 15:54:01 8.7 C 4.93 g/m*3 8.7 C 0 km/h
2360 18-10-2010 16:06:01 8.7 C 4.84 g/m*3 8.7 C 0 km/h
2361 18-10-2010 16:18:02 8.6 C 4.81 g/m*3 8.6 C 0 km/h
2362 18-10-2010 16:30:02 8.7 C 4.84 g/m*3 8.7 C 0 km/h
2363 18-10-2010 16:42:01 8.9 C 4.99 g/m*3 8.9 C 0 km/h
2364 18-10-2010 16:54:03 8.8 C 5.05 g/m*3 8.8 C 0 km/h
2365 18-10-2010 17:06:02 8.8 C 5.05 g/m*3 8.8 C 0 km/h
2366 18-10-2010 17:18:02 8.7 C 4.84 g/m*3 8.7 C 0 km/h
2367 18-10-2010 17:30:02 8.5 C 4.78 g/m*3 8.5 C 0 km/h
2368 18-10-2010 17:42:02 8.4 C 4.84 g/m*3 8.4 C 0 km/h
2369 18-10-2010 17:54:02 8.2 C 4.77 g/m*3 8.2 C 0 km/h
2370 18-10-2010 18:06:01 8 C 4.88 g/m*3 8 C 0 km/h
2371 18-10-2010 18:18:02 7.9 C 5.01 g/m*3 7.9 C 0 km/h
2372 18-10-2010 18:30:02 7.8 C 5.06 g/m*3 7.8 C 0 km/h
2373 18-10-2010 18:42:02 7.7 C 5.03 g/m*3 7.7 C 0 km/h
2374 18-10-2010 18:54:02 7.4 C 4.85 g/m*3 7.4 C 0 km/h
2375 18-10-2010 19:06:01 6.8 C 4.82 g/m*3 6.8 C 0 km/h
Sensor: Nr:Datum:Temp:Abs-Feuchte:Windchill:Wind:
Aussen-T/F 2376 18-10-2010 19:18:01 6.6 C 4.83 g/m*3 6.6 C 0 km/h
2377 18-10-2010 19:30:01 6.3 C 4.89 g/m*3 6.3 C 0 km/h
2378 18-10-2010 19:42:02 6.1 C 4.89 g/m*3 6.1 C 0 km/h
2379 18-10-2010 19:54:02 5.8 C 5.01 g/m*3 5.8 C 0 km/h
2380 18-10-2010 20:06:02 5.7 C 5.05 g/m*3 5.7 C 0 km/h
2381 18-10-2010 20:18:01 5.7 C 5.05 g/m*3 5.7 C 0 km/h
2382 18-10-2010 20:30:01 5.6 C 5.02 g/m*3 5.6 C 0 km/h
2383 18-10-2010 20:42:02 5.5 C 5.06 g/m*3 5.5 C 0 km/h
2384 18-10-2010 20:54:02 5.5 C 5.06 g/m*3 5.5 C 0 km/h
2385 18-10-2010 21:06:02 5.3 C 4.99 g/m*3 5.3 C 0 km/h
2386 18-10-2010 21:18:02 5.3 C 5.06 g/m*3 5.3 C 0 km/h
2387 18-10-2010 21:30:02 5.3 C 5.06 g/m*3 5.3 C 0 km/h
2388 18-10-2010 21:42:02 5.1 C 4.99 g/m*3 5.1 C 0 km/h
2389 18-10-2010 21:54:02 4.9 C 5.06 g/m*3 4.9 C 0 km/h
2390 18-10-2010 22:06:02 5 C 5.03 g/m*3 5 C 0 km/h
2391 18-10-2010 22:18:02 5 C 5.03 g/m*3 5 C 0 km/h
2392 18-10-2010 22:30:02 5 C 5.03 g/m*3 5 C 0 km/h
2393 18-10-2010 22:42:02 4.8 C 5.1 g/m*3 4.8 C 0 km/h
2394 18-10-2010 22:54:02 4.8 C 5.1 g/m*3 4.8 C 0 km/h
2395 18-10-2010 23:06:02 4.8 C 5.1 g/m*3 4.8 C 0 km/h
2396 18-10-2010 23:18:02 4.9 C 5.13 g/m*3 4.9 C 0 km/h
2397 18-10-2010 23:30:02 4.9 C 5.2 g/m*3 4.9 C 0 km/h
2398 18-10-2010 23:42:02 4.9 C 5.2 g/m*3 4.9 C 0 km/h
2399 18-10-2010 23:54:02 4.8 C 5.23 g/m*3 4.8 C 0 km/h
2400 19-10-2010 00:06:01 5 C 5.23 g/m*3 5 C 0 km/h
Sensor: Nr:Datum:Temp:Abs-Feuchte:Windchill:Wind:
Aussen-T/F 2401 19-10-2010 00:18:02 5.1 C 5.2 g/m*3 5.1 C 0 km/h
2402 19-10-2010 00:30:02 5.1 C 5.27 g/m*3 5.1 C 0 km/h
2403 19-10-2010 00:42:01 5.2 C 5.23 g/m*3 5.2 C 0 km/h
2404 19-10-2010 00:54:02 5.3 C 5.27 g/m*3 5.3 C 0 km/h
2405 19-10-2010 01:06:01 5.4 C 5.23 g/m*3 5.4 C 0 km/h
2406 19-10-2010 01:18:02 5.4 C 5.23 g/m*3 5.4 C 0 km/h
2407 19-10-2010 01:30:02 5.4 C 5.3 g/m*3 5.4 C 0 km/h
2408 19-10-2010 01:42:01 5.4 C 5.3 g/m*3 5.4 C 0 km/h
2409 19-10-2010 01:54:02 5.5 C 5.27 g/m*3 5.5 C 0 km/h
2410 19-10-2010 02:06:02 5.6 C 5.23 g/m*3 5.6 C 0 km/h
2411 19-10-2010 02:18:02 5.6 C 5.23 g/m*3 5.6 C 0 km/h
2412 19-10-2010 02:30:02 5.6 C 5.3 g/m*3 5.6 C 0 km/h
2413 19-10-2010 02:42:03 5.4 C 5.37 g/m*3 5.4 C 0 km/h
2414 19-10-2010 02:55:04 5.3 C 5.48 g/m*3 5.3 C 0 km/h
2415 19-10-2010 03:07:04 5.3 C 5.54 g/m*3 5.3 C 0 km/h
2416 19-10-2010 03:19:03 5 C 5.64 g/m*3 5 C 0 km/h
2417 19-10-2010 03:31:02 4.9 C 5.81 g/m*3 4.9 C 0 km/h
2418 19-10-2010 03:43:02 4.8 C 5.83 g/m*3 4.8 C 0 km/h
2419 19-10-2010 03:55:02 4.8 C 5.9 g/m*3 4.8 C 0 km/h
2420 19-10-2010 04:07:01 4.8 C 5.97 g/m*3 4.8 C 0 km/h
2421 19-10-2010 04:19:01 4.9 C 6.08 g/m*3 4.9 C 0 km/h
2422 19-10-2010 04:31:02 5 C 6.05 g/m*3 5 C 0 km/h
2423 19-10-2010 04:43:02 5.2 C 6.06 g/m*3 5.2 C 0 km/h
2424 19-10-2010 04:55:02 5.3 C 6.03 g/m*3 5.3 C 0 km/h
2425 19-10-2010 05:07:02 5.4 C 6 g/m*3 5.4 C 0 km/h
Sensor: Nr:Datum:Temp:Abs-Feuchte:Windchill:Wind:
Aussen-T/F 2426 19-10-2010 05:19:02 5.5 C 5.97 g/m*3 5.5 C 0 km/h
2427 19-10-2010 05:31:02 5.5 C 6.04 g/m*3 5.5 C 0 km/h
2428 19-10-2010 05:43:02 5.4 C 6.14 g/m*3 5.4 C 0 km/h
2429 19-10-2010 05:55:01 5.3 C 6.17 g/m*3 5.3 C 0 km/h
2430 19-10-2010 06:07:02 5.3 C 6.17 g/m*3 5.3 C 0 km/h
2431 19-10-2010 06:19:01 5.5 C 6.32 g/m*3 5.5 C 0 km/h
2432 19-10-2010 06:31:01 5.7 C 6.33 g/m*3 5.7 C 0 km/h
2433 19-10-2010 06:43:02 5.7 C 6.33 g/m*3 5.7 C 0 km/h
2434 19-10-2010 06:55:02 5.8 C 6.38 g/m*3 5.8 C 0 km/h
2435 19-10-2010 07:07:02 5.9 C 6.42 g/m*3 5.9 C 0 km/h
2436 19-10-2010 07:19:02 5.9 C 6.42 g/m*3 5.9 C 0 km/h
2437 19-10-2010 07:31:02 6 C 6.39 g/m*3 6 C 0 km/h
2438 19-10-2010 07:43:02 6 C 6.31 g/m*3 6 C 0 km/h
2439 19-10-2010 07:55:02 6.1 C 6.36 g/m*3 6.1 C 0 km/h
2440 19-10-2010 08:07:02 6.1 C 6.36 g/m*3 6.1 C 0 km/h
2441 19-10-2010 08:19:02 6 C 6.39 g/m*3 6 C 0 km/h
2442 19-10-2010 08:31:02 5.9 C 6.42 g/m*3 5.9 C 0 km/h
2443 19-10-2010 08:43:03 5.9 C 6.49 g/m*3 5.9 C 0 km/h
2444 19-10-2010 08:55:02 6 C 6.46 g/m*3 6 C 0 km/h
2445 19-10-2010 09:07:02 6.2 C 6.55 g/m*3 6.2 C 0 km/h
2446 19-10-2010 09:19:02 6.4 C 6.63 g/m*3 6.4 C 0 km/h
2447 19-10-2010 09:31:02 6.6 C 6.64 g/m*3 6.6 C 0 km/h
2448 19-10-2010 09:43:02 6.7 C 6.61 g/m*3 6.7 C 0 km/h
2449 19-10-2010 09:55:02 6.8 C 6.65 g/m*3 6.8 C 0 km/h
2450 19-10-2010 10:07:02 7.1 C 6.63 g/m*3 7.1 C 0 km/h
Sensor: Nr:Datum:Temp:Abs-Feuchte:Windchill:Wind:
Aussen-T/F 2451 19-10-2010 10:19:03 7.3 C 6.64 g/m*3 7.3 C 0 km/h
2452 19-10-2010 10:31:02 7.4 C 6.68 g/m*3 7.4 C 0 km/h
2453 19-10-2010 10:43:02 7.4 C 6.6 g/m*3 7.4 C 0 km/h
2454 19-10-2010 10:55:02 7.5 C 6.72 g/m*3 7.5 C 0 km/h
2455 19-10-2010 11:07:02 7.3 C 6.72 g/m*3 7.3 C 0 km/h
2456 19-10-2010 11:19:02 7.4 C 6.92 g/m*3 7.4 C 0 km/h
2457 19-10-2010 11:31:02 7.5 C 6.96 g/m*3 7.5 C 0 km/h
2458 19-10-2010 11:43:02 7.6 C 7.01 g/m*3 7.6 C 0 km/h
2459 19-10-2010 11:55:02 7.7 C 7.05 g/m*3 7.7 C 0 km/h
2460 19-10-2010 12:07:01 7.9 C 7.06 g/m*3 7.9 C 0 km/h
2461 19-10-2010 12:19:02 8 C 6.94 g/m*3 8 C 0 km/h
2462 19-10-2010 12:31:01 7.9 C 7.06 g/m*3 7.9 C 0 km/h
2463 19-10-2010 12:43:01 8 C 7.11 g/m*3 8 C 0 km/h
2464 19-10-2010 12:55:02 8.1 C 7.24 g/m*3 8.1 C 0 km/h
2465 19-10-2010 13:07:02 8.5 C 7.43 g/m*3 8.5 C 0 km/h
2466 19-10-2010 13:19:02 8.9 C 7.62 g/m*3 8.9 C 0 km/h
2467 19-10-2010 13:31:02 9 C 7.49 g/m*3 9 C 0 km/h
2468 19-10-2010 13:43:02 9.3 C 7.46 g/m*3 9.3 C 0 km/h
2469 19-10-2010 13:55:02 9.7 C 7.38 g/m*3 9.7 C 0 km/h
2470 19-10-2010 14:07:02 10 C 7.24 g/m*3 10 C 0 km/h
2471 19-10-2010 14:19:02 9.7 C 7.19 g/m*3 9.7 C 0 km/h
2472 19-10-2010 14:31:01 9.7 C 7.47 g/m*3 9.7 C 0 km/h
2473 19-10-2010 14:43:01 9.6 C 7.6 g/m*3 9.6 C 0 km/h
2474 19-10-2010 14:55:02 10 C 7.61 g/m*3 10 C 0 km/h
2475 19-10-2010 15:07:01 9.8 C 7.42 g/m*3 9.8 C 0 km/h
Sensor: Nr:Datum:Temp:Abs-Feuchte:Windchill:Wind:
Aussen-T/F 2476 19-10-2010 15:19:01 10.2 C 7.33 g/m*3 10.2 C 0 km/h
2477 19-10-2010 15:31:02 10.3 C 7.18 g/m*3 10.3 C 0 km/h
2478 19-10-2010 15:43:02 10.2 C 7.23 g/m*3 10.2 C 0 km/h
2479 19-10-2010 15:55:02 11.2 C 7.7 g/m*3 11.2 C 0 km/h
2480 19-10-2010 16:07:02 12.6 C 7.52 g/m*3 12.6 C 0 km/h
2481 19-10-2010 16:19:02 14.2 C 7.45 g/m*3 14.2 C 0 km/h
2482 19-10-2010 16:31:02 14.1 C 6.43 g/m*3 14.1 C 0 km/h
2483 19-10-2010 16:43:02 11 C 6.41 g/m*3 11 C 0 km/h
2484 19-10-2010 16:55:02 10.4 C 7.04 g/m*3 10.4 C 0 km/h
2485 19-10-2010 17:07:03 9.9 C 7.28 g/m*3 9.9 C 0 km/h
2486 19-10-2010 17:19:02 9.7 C 7.1 g/m*3 9.7 C 0 km/h
2487 19-10-2010 17:31:02 10.1 C 7 g/m*3 10.1 C 0 km/h
2488 19-10-2010 17:43:02 10.8 C 7.41 g/m*3 10.8 C 0 km/h
2489 19-10-2010 17:55:01 11 C 7.31 g/m*3 11 C 0 km/h
2490 19-10-2010 18:07:02 10.3 C 6.99 g/m*3 10.3 C 0 km/h
2491 19-10-2010 18:19:02 9.3 C 6.92 g/m*3 9.3 C 0 km/h
2492 19-10-2010 18:31:01 8.9 C 7.01 g/m*3 8.9 C 0 km/h
2493 19-10-2010 18:43:01 8.4 C 6.87 g/m*3 8.4 C 0 km/h
2494 19-10-2010 18:55:01 8.3 C 7 g/m*3 8.3 C 0 km/h
2495 19-10-2010 19:07:01 8.1 C 6.91 g/m*3 8.1 C 0 km/h
2496 19-10-2010 19:19:02 8 C 6.86 g/m*3 8 C 0 km/h
2497 19-10-2010 19:31:01 8.1 C 6.99 g/m*3 8.1 C 0 km/h
2498 19-10-2010 19:43:01 7.9 C 6.9 g/m*3 7.9 C 0 km/h
2499 19-10-2010 19:55:02 7.8 C 6.61 g/m*3 7.8 C 0 km/h
2500 19-10-2010 20:07:01 7.4 C 6.44 g/m*3 7.4 C 0 km/h
Sensor: Nr:Datum:Temp:Abs-Feuchte:Windchill:Wind:
Aussen-T/F 2501 19-10-2010 20:19:01 7.4 C 6.52 g/m*3 7.4 C 0 km/h
2502 19-10-2010 20:31:01 7.3 C 6.4 g/m*3 7.3 C 0 km/h
2503 19-10-2010 20:43:01 7.3 C 6.48 g/m*3 7.3 C 0 km/h
2504 19-10-2010 20:55:02 7.4 C 6.44 g/m*3 7.4 C 0 km/h
2505 19-10-2010 21:07:02 7.4 C 6.36 g/m*3 7.4 C 0 km/h
2506 19-10-2010 21:19:02 7 C 6.2 g/m*3 7 C 0 km/h
2507 19-10-2010 21:31:02 6.9 C 6.24 g/m*3 6.9 C 0 km/h
2508 19-10-2010 21:43:02 6.7 C 6.15 g/m*3 6.7 C 0 km/h
2509 19-10-2010 21:55:02 6.7 C 6.15 g/m*3 6.7 C 0 km/h
2510 19-10-2010 22:07:02 6.5 C 6.15 g/m*3 6.5 C 0 km/h
2511 19-10-2010 22:20:03 6.5 C 6.15 g/m*3 6.5 C 0 km/h
2512 19-10-2010 22:32:03 6.5 C 6.15 g/m*3 6.5 C 0 km/h
2513 19-10-2010 22:44:03 6.5 C 6.15 g/m*3 6.5 C 0 km/h
2514 19-10-2010 22:56:03 6.6 C 6.19 g/m*3 6.6 C 0 km/h
2515 19-10-2010 23:08:03 6.7 C 6.23 g/m*3 6.7 C 0 km/h
2516 19-10-2010 23:20:03 6.7 C 6.23 g/m*3 6.7 C 0 km/h
2517 19-10-2010 23:32:04 6.5 C 6.15 g/m*3 6.5 C 0 km/h
2518 19-10-2010 23:44:04 6.4 C 6.18 g/m*3 6.4 C 0 km/h
2519 19-10-2010 23:56:04 6.4 C 6.18 g/m*3 6.4 C 0 km/h
2520 20-10-2010 00:08:04 6.3 C 6.14 g/m*3 6.3 C 0 km/h
2521 20-10-2010 00:20:04 6.4 C 6.18 g/m*3 6.4 C 0 km/h
2522 20-10-2010 00:32:04 6.2 C 6.1 g/m*3 6.2 C 0 km/h
2523 20-10-2010 00:44:04 6.4 C 6.18 g/m*3 6.4 C 0 km/h
2524 20-10-2010 00:56:04 6.4 C 6.18 g/m*3 6.4 C 0 km/h
2525 20-10-2010 01:08:04 6.4 C 6.18 g/m*3 6.4 C 0 km/h
Sensor: Nr:Datum:Temp:Abs-Feuchte:Windchill:Wind:
Aussen-T/F 2526 20-10-2010 01:20:04 6.5 C 6.15 g/m*3 6.5 C 0 km/h
2527 20-10-2010 01:32:04 6.4 C 6.11 g/m*3 6.4 C 0 km/h
2528 20-10-2010 01:44:04 6.4 C 6.18 g/m*3 6.4 C 0 km/h
2529 20-10-2010 01:56:04 6.2 C 6.18 g/m*3 6.2 C 0 km/h
2530 20-10-2010 02:08:04 6.1 C 6.28 g/m*3 6.1 C 0 km/h
2531 20-10-2010 02:20:04 6 C 6.31 g/m*3 6 C 0 km/h
2532 20-10-2010 02:32:04 5.9 C 6.42 g/m*3 5.9 C 0 km/h
2533 20-10-2010 02:44:04 5.9 C 6.49 g/m*3 5.9 C 0 km/h
2534 20-10-2010 02:56:04 5.8 C 6.45 g/m*3 5.8 C 0 km/h
2535 20-10-2010 03:08:04 5.8 C 6.52 g/m*3 5.8 C 0 km/h
2536 20-10-2010 03:20:04 5.7 C 6.48 g/m*3 5.7 C 0 km/h
2537 20-10-2010 03:32:04 5.7 C 6.48 g/m*3 5.7 C 0 km/h
2538 20-10-2010 03:44:05 5.8 C 6.59 g/m*3 5.8 C 0 km/h
2539 20-10-2010 03:56:05 5.8 C 6.59 g/m*3 5.8 C 0 km/h
2540 20-10-2010 04:08:05 5.8 C 6.52 g/m*3 5.8 C 0 km/h
2541 20-10-2010 04:20:05 5.8 C 6.52 g/m*3 5.8 C 0 km/h
2542 20-10-2010 04:32:05 5.9 C 6.56 g/m*3 5.9 C 0 km/h
2543 20-10-2010 04:44:05 5.9 C 6.49 g/m*3 5.9 C 0 km/h
2544 20-10-2010 04:56:05 5.8 C 6.45 g/m*3 5.8 C 0 km/h
2545 20-10-2010 05:08:05 5.7 C 6.48 g/m*3 5.7 C 0 km/h
2546 20-10-2010 05:20:05 5.7 C 6.55 g/m*3 5.7 C 0 km/h
2547 20-10-2010 05:32:05 5.6 C 6.57 g/m*3 5.6 C 0 km/h
2548 20-10-2010 05:44:05 5.6 C 6.57 g/m*3 5.6 C 0 km/h
2549 20-10-2010 05:56:05 5.5 C 6.6 g/m*3 5.5 C 0 km/h
2550 20-10-2010 06:08:05 5.5 C 6.6 g/m*3 5.5 C 0 km/h
Sensor: Nr:Datum:Temp:Abs-Feuchte:Windchill:Wind:
Aussen-T/F 2551 20-10-2010 06:20:05 5.5 C 6.6 g/m*3 5.5 C 0 km/h
2552 20-10-2010 06:32:05 5.5 C 6.6 g/m*3 5.5 C 0 km/h
2553 20-10-2010 06:44:05 5.5 C 6.6 g/m*3 5.5 C 0 km/h
2554 20-10-2010 06:56:05 5.6 C 6.65 g/m*3 5.6 C 0 km/h
2555 20-10-2010 07:08:05 5.5 C 6.67 g/m*3 5.5 C 0 km/h
2556 20-10-2010 07:20:05 5.5 C 6.67 g/m*3 5.5 C 0 km/h
2557 20-10-2010 07:32:05 5.5 C 6.67 g/m*3 5.5 C 0 km/h
2558 20-10-2010 07:44:05 5.5 C 6.6 g/m*3 5.5 C 0 km/h
2559 20-10-2010 07:56:06 5.5 C 6.6 g/m*3 5.5 C 0 km/h
2560 20-10-2010 08:08:03 5.5 C 6.6 g/m*3 5.5 C 0 km/h
2561 20-10-2010 08:20:04 5.5 C 6.6 g/m*3 5.5 C 0 km/h
2562 20-10-2010 08:32:03 5.6 C 6.65 g/m*3 5.6 C 0 km/h
2563 20-10-2010 08:44:03 5.6 C 6.65 g/m*3 5.6 C 0 km/h
2564 20-10-2010 08:56:02 5.8 C 6.81 g/m*3 5.8 C 0 km/h
2565 20-10-2010 09:08:02 5.8 C 6.81 g/m*3 5.8 C 0 km/h
2566 20-10-2010 09:20:02 5.8 C 6.73 g/m*3 5.8 C 0 km/h
2567 20-10-2010 09:32:02 5.9 C 6.78 g/m*3 5.9 C 0 km/h
2568 20-10-2010 09:44:02 6.1 C 6.87 g/m*3 6.1 C 0 km/h
2569 20-10-2010 09:56:02 6.4 C 7 g/m*3 6.4 C 0 km/h
2570 20-10-2010 10:08:01 6.8 C 7.11 g/m*3 6.8 C 0 km/h
2571 20-10-2010 10:20:02 6.8 C 7.04 g/m*3 6.8 C 0 km/h
2572 20-10-2010 10:32:02 7 C 6.97 g/m*3 7 C 0 km/h
2573 20-10-2010 10:44:02 7.1 C 6.94 g/m*3 7.1 C 0 km/h
2574 20-10-2010 10:56:01 6.9 C 6.7 g/m*3 6.9 C 0 km/h
2575 20-10-2010 11:08:02 6.9 C 6.54 g/m*3 6.9 C 0 km/h
Sensor: Nr:Datum:Temp:Abs-Feuchte:Windchill:Wind:
Aussen-T/F 2576 20-10-2010 11:20:01 6.9 C 6.54 g/m*3 6.9 C 0 km/h
2577 20-10-2010 11:32:02 6.9 C 6.54 g/m*3 6.9 C 0 km/h
2578 20-10-2010 11:44:02 6.8 C 6.35 g/m*3 6.8 C 0 km/h
2579 20-10-2010 11:56:02 6.7 C 6.23 g/m*3 6.7 C 0 km/h
2580 20-10-2010 12:08:02 6.7 C 6.23 g/m*3 6.7 C 0 km/h
2581 20-10-2010 12:20:01 7 C 6.43 g/m*3 7 C 0 km/h
2582 20-10-2010 12:32:02 6.9 C 6.47 g/m*3 6.9 C 0 km/h
2583 20-10-2010 12:44:02 6.9 C 6.39 g/m*3 6.9 C 0 km/h
2584 20-10-2010 12:56:02 7.1 C 6.4 g/m*3 7.1 C 0 km/h
2585 20-10-2010 13:08:02 7.4 C 6.44 g/m*3 7.4 C 0 km/h
2586 20-10-2010 13:20:01 7.6 C 6.36 g/m*3 7.6 C 0 km/h
2587 20-10-2010 13:32:02 7.9 C 6.32 g/m*3 7.9 C 0 km/h
2588 20-10-2010 13:44:02 8.4 C 6.02 g/m*3 8.4 C 0 km/h
2589 20-10-2010 13:56:02 8.3 C 5.82 g/m*3 8.3 C 0 km/h
2590 20-10-2010 14:08:02 8.4 C 5.77 g/m*3 8.4 C 0 km/h
2591 20-10-2010 14:20:02 9.2 C 5.98 g/m*3 9.2 C 0 km/h
2592 20-10-2010 14:32:02 9.5 C 5.73 g/m*3 9.5 C 0 km/h
2593 20-10-2010 14:44:02 10.2 C 5.71 g/m*3 10.2 C 0 km/h
2594 20-10-2010 14:56:02 10.1 C 5.11 g/m*3 10.1 C 0 km/h
2595 20-10-2010 15:08:02 7.8 C 5.22 g/m*3 7.8 C 0 km/h
2596 20-10-2010 15:20:02 7.2 C 5.65 g/m*3 7.2 C 0 km/h
2597 20-10-2010 15:32:02 7.6 C 5.72 g/m*3 7.6 C 0 km/h
2598 20-10-2010 15:44:02 7.8 C 5.63 g/m*3 7.8 C 0 km/h
2599 20-10-2010 15:56:02 8 C 5.54 g/m*3 8 C 0 km/h
2600 20-10-2010 16:08:01 8.2 C 5.28 g/m*3 8.2 C 0 km/h
Sensor: Nr:Datum:Temp:Abs-Feuchte:Windchill:Wind:
Aussen-T/F 2601 20-10-2010 16:20:02 7.6 C 5.16 g/m*3 7.6 C 0 km/h
2602 20-10-2010 16:32:02 7 C 4.88 g/m*3 7 C 0 km/h
2603 20-10-2010 16:44:02 6.9 C 4.93 g/m*3 6.9 C 0 km/h
2604 20-10-2010 16:56:02 7.1 C 5.07 g/m*3 7.1 C 0 km/h
2605 20-10-2010 17:08:01 7.3 C 4.9 g/m*3 7.3 C 0 km/h
2606 20-10-2010 17:20:01 7.3 C 4.66 g/m*3 7.3 C 0 km/h
2607 20-10-2010 17:32:02 6.9 C 4.93 g/m*3 6.9 C 0 km/h
2608 20-10-2010 17:44:02 6.9 C 5.08 g/m*3 6.9 C 0 km/h
2609 20-10-2010 17:56:02 6.7 C 5.01 g/m*3 6.7 C 0 km/h
2610 20-10-2010 18:08:02 6.4 C 4.99 g/m*3 6.4 C 0 km/h
2611 20-10-2010 18:20:02 6.2 C 5 g/m*3 6.2 C 0 km/h
2612 20-10-2010 18:32:02 6.3 C 5.11 g/m*3 6.3 C 0 km/h
2613 20-10-2010 18:44:02 6.3 C 5.03 g/m*3 6.3 C 0 km/h
2614 20-10-2010 18:56:02 6.4 C 5.07 g/m*3 6.4 C 0 km/h
2615 20-10-2010 19:08:02 5.5 C 4.99 g/m*3 5.5 C 0 km/h
2616 20-10-2010 19:20:02 4.7 C 5.13 g/m*3 4.7 C 0 km/h
2617 20-10-2010 19:32:02 4.5 C 5.32 g/m*3 4.5 C 0 km/h
2618 20-10-2010 19:44:02 4.2 C 5.35 g/m*3 4.2 C 0 km/h
2619 20-10-2010 19:56:01 4.3 C 5.38 g/m*3 4.3 C 0 km/h
2620 20-10-2010 20:08:01 4.5 C 5.39 g/m*3 4.5 C 0 km/h
2621 20-10-2010 20:20:02 4.5 C 5.32 g/m*3 4.5 C 0 km/h
2622 20-10-2010 20:32:01 4.5 C 5.26 g/m*3 4.5 C 0 km/h
2623 20-10-2010 20:44:01 4.7 C 5.2 g/m*3 4.7 C 0 km/h
2624 20-10-2010 20:56:01 4.5 C 5.06 g/m*3 4.5 C 0 km/h
2625 20-10-2010 21:08:01 4.5 C 5.13 g/m*3 4.5 C 0 km/h
Sensor: Nr:Datum:Temp:Abs-Feuchte:Windchill:Wind:
Aussen-T/F 2626 20-10-2010 21:20:02 4.5 C 5.13 g/m*3 4.5 C 0 km/h
2627 20-10-2010 21:32:01 4.5 C 5.13 g/m*3 4.5 C 0 km/h
2628 20-10-2010 21:44:01 4.5 C 5.13 g/m*3 4.5 C 0 km/h
2629 20-10-2010 21:56:03 4.3 C 5.06 g/m*3 4.3 C 0 km/h
2630 20-10-2010 22:08:02 4.2 C 5.09 g/m*3 4.2 C 0 km/h
2631 20-10-2010 22:20:02 4.4 C 5.09 g/m*3 4.4 C 0 km/h
2632 20-10-2010 22:32:02 4.6 C 5.16 g/m*3 4.6 C 0 km/h
2633 20-10-2010 22:44:02 4.6 C 5.03 g/m*3 4.6 C 0 km/h
2634 20-10-2010 22:57:04 4.6 C 4.96 g/m*3 4.6 C 0 km/h
2635 20-10-2010 23:09:04 4.5 C 5 g/m*3 4.5 C 0 km/h
2636 20-10-2010 23:21:04 4.2 C 5.03 g/m*3 4.2 C 0 km/h
2637 20-10-2010 23:33:04 4.3 C 5.06 g/m*3 4.3 C 0 km/h
2638 20-10-2010 23:45:04 4.2 C 5.03 g/m*3 4.2 C 0 km/h
2639 20-10-2010 23:57:04 4.4 C 5.16 g/m*3 4.4 C 0 km/h
2640 21-10-2010 00:09:04 4.5 C 5.13 g/m*3 4.5 C 0 km/h
2641 21-10-2010 00:21:04 4.5 C 5.06 g/m*3 4.5 C 0 km/h
2642 21-10-2010 00:33:04 4.6 C 5.1 g/m*3 4.6 C 0 km/h
2643 21-10-2010 00:45:04 4.7 C 5.13 g/m*3 4.7 C 0 km/h
2644 21-10-2010 00:57:04 4.7 C 5.13 g/m*3 4.7 C 0 km/h
2645 21-10-2010 01:09:04 4.6 C 5.1 g/m*3 4.6 C 0 km/h
2646 21-10-2010 01:21:04 4.5 C 5.06 g/m*3 4.5 C 0 km/h
2647 21-10-2010 01:33:04 4.3 C 4.99 g/m*3 4.3 C 0 km/h
2648 21-10-2010 01:45:04 4.5 C 5.06 g/m*3 4.5 C 0 km/h
2649 21-10-2010 01:57:04 4.3 C 4.99 g/m*3 4.3 C 0 km/h
2650 21-10-2010 02:09:04 4.1 C 4.93 g/m*3 4.1 C 0 km/h
Sensor: Nr:Datum:Temp:Abs-Feuchte:Windchill:Wind:
Aussen-T/F 2651 21-10-2010 02:21:04 3.8 C 4.96 g/m*3 3.8 C 0 km/h
2652 21-10-2010 02:33:05 3.7 C 4.99 g/m*3 3.7 C 0 km/h
2653 21-10-2010 02:45:05 3.6 C 5.01 g/m*3 3.6 C 0 km/h
2654 21-10-2010 02:57:05 3.5 C 4.98 g/m*3 3.5 C 0 km/h
2655 21-10-2010 03:09:05 3.5 C 4.98 g/m*3 3.5 C 0 km/h
2656 21-10-2010 03:21:05 3.4 C 5.01 g/m*3 3.4 C 0 km/h
2657 21-10-2010 03:33:05 3.4 C 5.01 g/m*3 3.4 C 0 km/h
2658 21-10-2010 03:45:05 3.3 C 4.97 g/m*3 3.3 C 0 km/h
2659 21-10-2010 03:57:05 3 C 4.93 g/m*3 3 C 0 km/h
2660 21-10-2010 04:09:05 3 C 4.93 g/m*3 3 C 0 km/h
2661 21-10-2010 04:21:05 3 C 4.99 g/m*3 3 C 0 km/h
2662 21-10-2010 04:33:05 2.5 C 4.83 g/m*3 2.5 C 0 km/h
2663 21-10-2010 04:45:05 2.3 C 4.82 g/m*3 2.3 C 0 km/h
2664 21-10-2010 04:57:05 2.4 C 4.91 g/m*3 2.4 C 0 km/h
2665 21-10-2010 05:09:05 2.4 C 4.97 g/m*3 2.4 C 0 km/h
2666 21-10-2010 05:21:05 2.1 C 4.87 g/m*3 2.1 C 0 km/h
2667 21-10-2010 05:33:05 1.8 C 4.77 g/m*3 1.8 C 0 km/h
2668 21-10-2010 05:45:05 1.6 C 4.7 g/m*3 1.6 C 0 km/h
2669 21-10-2010 05:57:05 1.7 C 4.79 g/m*3 1.7 C 0 km/h
2670 21-10-2010 06:09:05 1.5 C 4.73 g/m*3 1.5 C 0 km/h
2671 21-10-2010 06:21:05 1.6 C 4.81 g/m*3 1.6 C 0 km/h
2672 21-10-2010 06:33:06 1.8 C 4.93 g/m*3 1.8 C 0 km/h
2673 21-10-2010 06:45:06 1.8 C 4.99 g/m*3 1.8 C 0 km/h
2674 21-10-2010 06:57:06 1.8 C 5.04 g/m*3 1.8 C 0 km/h
2675 21-10-2010 07:09:06 1.7 C 5.01 g/m*3 1.7 C 0 km/h
Sensor: Nr:Datum:Temp:Abs-Feuchte:Windchill:Wind:
Aussen-T/F 2676 21-10-2010 07:21:06 1.8 C 5.04 g/m*3 1.8 C 0 km/h
2677 21-10-2010 07:33:06 1.6 C 4.97 g/m*3 1.6 C 0 km/h
2678 21-10-2010 07:45:06 1.6 C 4.97 g/m*3 1.6 C 0 km/h
2679 21-10-2010 07:57:06 1.6 C 4.97 g/m*3 1.6 C 0 km/h
2680 21-10-2010 08:09:06 1.7 C 5.01 g/m*3 1.7 C 0 km/h
2681 21-10-2010 08:21:03 1.8 C 5.04 g/m*3 1.8 C 0 km/h
2682 21-10-2010 08:33:04 1.9 C 5.08 g/m*3 1.9 C 0 km/h
2683 21-10-2010 08:45:02 2.5 C 5.29 g/m*3 2.5 C 0 km/h
2684 21-10-2010 08:57:03 2.6 C 5.27 g/m*3 2.6 C 0 km/h
2685 21-10-2010 09:09:02 2.6 C 5.27 g/m*3 2.6 C 0 km/h
2686 21-10-2010 09:21:02 2.8 C 5.28 g/m*3 2.8 C 0 km/h
2687 21-10-2010 09:33:02 3 C 5.23 g/m*3 3 C 0 km/h
2688 21-10-2010 09:45:01 3.2 C 5.24 g/m*3 3.2 C 0 km/h
2689 21-10-2010 09:57:01 3.4 C 5.19 g/m*3 3.4 C 0 km/h
2690 21-10-2010 10:09:02 3.7 C 5.17 g/m*3 3.7 C 0 km/h
2691 21-10-2010 10:21:01 3.9 C 5.05 g/m*3 3.9 C 0 km/h
2692 21-10-2010 10:33:02 4.1 C 4.99 g/m*3 4.1 C 0 km/h
2693 21-10-2010 10:45:02 4.3 C 4.99 g/m*3 4.3 C 0 km/h
2694 21-10-2010 10:57:02 4.8 C 5.1 g/m*3 4.8 C 0 km/h
2695 21-10-2010 11:09:02 5.1 C 4.99 g/m*3 5.1 C 0 km/h
2696 21-10-2010 11:21:01 5.4 C 5.09 g/m*3 5.4 C 0 km/h
2697 21-10-2010 11:33:02 5.7 C 4.98 g/m*3 5.7 C 0 km/h
2698 21-10-2010 11:45:02 5.9 C 4.98 g/m*3 5.9 C 0 km/h
2699 21-10-2010 11:57:02 6.1 C 4.89 g/m*3 6.1 C 0 km/h
2700 21-10-2010 12:09:02 6.4 C 4.84 g/m*3 6.4 C 0 km/h
Sensor: Nr:Datum:Temp:Abs-Feuchte:Windchill:Wind:
Aussen-T/F 2701 21-10-2010 12:21:01 6.7 C 4.71 g/m*3 6.7 C 0 km/h
2702 21-10-2010 12:33:02 7 C 4.57 g/m*3 7 C 0 km/h
2703 21-10-2010 12:45:02 7.2 C 4.47 g/m*3 7.2 C 0 km/h
2704 21-10-2010 12:57:02 7.6 C 4.51 g/m*3 7.6 C 0 km/h
2705 21-10-2010 13:09:02 7.9 C 4.44 g/m*3 7.9 C 0 km/h
2706 21-10-2010 13:21:02 8.3 C 4.3 g/m*3 8.3 C 0 km/h
2707 21-10-2010 13:33:02 8.7 C 4.06 g/m*3 8.7 C 0 km/h
2708 21-10-2010 13:45:02 9.1 C 3.99 g/m*3 9.1 C 0 km/h
2709 21-10-2010 13:57:02 9.5 C 3.82 g/m*3 9.5 C 0 km/h
2710 21-10-2010 14:09:02 9.9 C 3.92 g/m*3 9.9 C 0 km/h
2711 21-10-2010 14:21:02 10.1 C 3.78 g/m*3 10.1 C 0 km/h
2712 21-10-2010 14:33:01 10.5 C 3.88 g/m*3 10.5 C 0 km/h
2713 21-10-2010 14:45:02 10.6 C 3.9 g/m*3 10.6 C 0 km/h
2714 21-10-2010 14:57:02 10.8 C 3.85 g/m*3 10.8 C 0 km/h
2715 21-10-2010 15:09:01 10.7 C 3.63 g/m*3 10.7 C 0 km/h
2716 21-10-2010 15:21:02 10.6 C 3.61 g/m*3 10.6 C 0 km/h
2717 21-10-2010 15:33:01 10.6 C 3.51 g/m*3 10.6 C 0 km/h
2718 21-10-2010 15:45:02 10.7 C 3.73 g/m*3 10.7 C 0 km/h
2719 21-10-2010 15:57:03 10.7 C 3.63 g/m*3 10.7 C 0 km/h
2720 21-10-2010 16:09:02 10.9 C 3.78 g/m*3 10.9 C 0 km/h
2721 21-10-2010 16:21:02 10.6 C 3.61 g/m*3 10.6 C 0 km/h
2722 21-10-2010 16:33:02 10.2 C 3.52 g/m*3 10.2 C 0 km/h
2723 21-10-2010 16:45:02 9.9 C 3.64 g/m*3 9.9 C 0 km/h
2724 21-10-2010 16:57:02 10.4 C 3.66 g/m*3 10.4 C 0 km/h
2725 21-10-2010 17:09:02 11.2 C 3.65 g/m*3 11.2 C 0 km/h
Sensor: Nr:Datum:Temp:Abs-Feuchte:Windchill:Wind:
Aussen-T/F 2726 21-10-2010 17:21:01 11.4 C 3.59 g/m*3 11.4 C 0 km/h
2727 21-10-2010 17:33:02 11.3 C 3.47 g/m*3 11.3 C 0 km/h
2728 21-10-2010 17:45:02 10.9 C 3.58 g/m*3 10.9 C 0 km/h
2729 21-10-2010 17:57:02 10 C 3.48 g/m*3 10 C 0 km/h
2730 21-10-2010 18:09:02 8.9 C 3.94 g/m*3 8.9 C 0 km/h
2731 21-10-2010 18:21:01 7.8 C 3.92 g/m*3 7.8 C 0 km/h
2732 21-10-2010 18:33:02 7.2 C 3.92 g/m*3 7.2 C 0 km/h
2733 21-10-2010 18:45:02 6.7 C 4.03 g/m*3 6.7 C 0 km/h
2734 21-10-2010 18:57:02 6.3 C 4.07 g/m*3 6.3 C 0 km/h
2735 21-10-2010 19:09:02 6.1 C 4.02 g/m*3 6.1 C 0 km/h
2736 21-10-2010 19:21:01 5.8 C 4.01 g/m*3 5.8 C 0 km/h
2737 21-10-2010 19:33:02 5.6 C 4.03 g/m*3 5.6 C 0 km/h
2738 21-10-2010 19:45:02 5.5 C 4.07 g/m*3 5.5 C 0 km/h
2739 21-10-2010 19:57:02 5.2 C 4.13 g/m*3 5.2 C 0 km/h
2740 21-10-2010 20:09:02 5 C 4.08 g/m*3 5 C 0 km/h
2741 21-10-2010 20:21:02 4.8 C 4.09 g/m*3 4.8 C 0 km/h
2742 21-10-2010 20:33:02 4.7 C 4.06 g/m*3 4.7 C 0 km/h
2743 21-10-2010 20:45:02 4.7 C 3.86 g/m*3 4.7 C 0 km/h
2744 21-10-2010 20:57:02 5.1 C 3.69 g/m*3 5.1 C 0 km/h
2745 21-10-2010 21:09:02 5 C 3.6 g/m*3 5 C 0 km/h
2746 21-10-2010 21:21:02 4.9 C 3.71 g/m*3 4.9 C 0 km/h
2747 21-10-2010 21:33:02 4.6 C 3.77 g/m*3 4.6 C 0 km/h
2748 21-10-2010 21:45:02 4.5 C 3.75 g/m*3 4.5 C 0 km/h
2749 21-10-2010 21:57:02 4.1 C 3.84 g/m*3 4.1 C 0 km/h
2750 21-10-2010 22:09:02 4 C 3.81 g/m*3 4 C 0 km/h
Sensor: Nr:Datum:Temp:Abs-Feuchte:Windchill:Wind:
Aussen-T/F 2751 21-10-2010 22:22:04 4.1 C 3.78 g/m*3 4.1 C 0 km/h
2752 21-10-2010 22:34:04 3.8 C 3.83 g/m*3 3.8 C 0 km/h
2753 21-10-2010 22:46:04 3.7 C 3.86 g/m*3 3.7 C 0 km/h
2754 21-10-2010 22:58:04 3.6 C 3.9 g/m*3 3.6 C 0 km/h
2755 21-10-2010 23:10:04 3.5 C 3.87 g/m*3 3.5 C 0 km/h
2756 21-10-2010 23:22:04 3.5 C 3.87 g/m*3 3.5 C 0 km/h
2757 21-10-2010 23:34:04 3.3 C 3.88 g/m*3 3.3 C 0 km/h
2758 21-10-2010 23:46:04 2.9 C 3.9 g/m*3 2.9 C 0 km/h
2759 21-10-2010 23:58:04 2.5 C 3.91 g/m*3 2.5 C 0 km/h
2760 22-10-2010 00:10:04 2.2 C 4 g/m*3 2.2 C 0 km/h
2761 22-10-2010 00:22:04 2.2 C 4.06 g/m*3 2.2 C 0 km/h
2762 22-10-2010 00:34:05 2.8 C 4.11 g/m*3 2.8 C 0 km/h
2763 22-10-2010 00:46:05 2.5 C 4.08 g/m*3 2.5 C 0 km/h
2764 22-10-2010 00:58:05 2.2 C 4.06 g/m*3 2.2 C 0 km/h
2765 22-10-2010 01:10:05 1.6 C 4 g/m*3 1.6 C 0 km/h
2766 22-10-2010 01:22:05 1.3 C 4.03 g/m*3 1.3 C 0 km/h
2767 22-10-2010 01:34:05 1.8 C 4.22 g/m*3 1.8 C 0 km/h
2768 22-10-2010 01:46:05 2 C 4.17 g/m*3 2 C 0 km/h
2769 22-10-2010 01:58:05 2 C 4.11 g/m*3 2 C 0 km/h
2770 22-10-2010 02:10:05 2.1 C 4.08 g/m*3 2.1 C 0 km/h
2771 22-10-2010 02:22:05 2.1 C 4.08 g/m*3 2.1 C 0 km/h
2772 22-10-2010 02:34:05 2 C 4.06 g/m*3 2 C 0 km/h
2773 22-10-2010 02:46:05 2.2 C 4.11 g/m*3 2.2 C 0 km/h
2774 22-10-2010 02:58:05 2.2 C 4.11 g/m*3 2.2 C 0 km/h
2775 22-10-2010 03:10:05 2.1 C 4.08 g/m*3 2.1 C 0 km/h
Sensor: Nr:Datum:Temp:Abs-Feuchte:Windchill:Wind:
Aussen-T/F 2776 22-10-2010 03:22:05 2.3 C 4.08 g/m*3 2.3 C 0 km/h
2777 22-10-2010 03:34:05 2.1 C 4.03 g/m*3 2.1 C 0 km/h
2778 22-10-2010 03:46:05 2.3 C 4.14 g/m*3 2.3 C 0 km/h
2779 22-10-2010 03:58:05 2 C 4.06 g/m*3 2 C 0 km/h
2780 22-10-2010 04:10:05 1.7 C 4.03 g/m*3 1.7 C 0 km/h
2781 22-10-2010 04:22:05 1.4 C 4.05 g/m*3 1.4 C 0 km/h
2782 22-10-2010 04:34:06 1.4 C 4.11 g/m*3 1.4 C 0 km/h
2783 22-10-2010 04:46:06 1.5 C 4.14 g/m*3 1.5 C 0 km/h
2784 22-10-2010 04:58:06 1.4 C 4.11 g/m*3 1.4 C 0 km/h
2785 22-10-2010 05:10:06 1.2 C 4.1 g/m*3 1.2 C 0 km/h
2786 22-10-2010 05:22:06 1.3 C 4.13 g/m*3 1.3 C 0 km/h
2787 22-10-2010 05:34:06 1.6 C 4.16 g/m*3 1.6 C 0 km/h
2788 22-10-2010 05:46:06 1.4 C 4.05 g/m*3 1.4 C 0 km/h
2789 22-10-2010 05:58:06 1.4 C 4.11 g/m*3 1.4 C 0 km/h
2790 22-10-2010 06:10:06 1.5 C 4.08 g/m*3 1.5 C 0 km/h
2791 22-10-2010 06:22:06 1.6 C 4.11 g/m*3 1.6 C 0 km/h
2792 22-10-2010 06:34:06 1.8 C 4.06 g/m*3 1.8 C 0 km/h
2793 22-10-2010 06:46:06 1.7 C 4.03 g/m*3 1.7 C 0 km/h
2794 22-10-2010 06:58:06 1.7 C 4.03 g/m*3 1.7 C 0 km/h
2795 22-10-2010 07:10:02 1.4 C 4 g/m*3 1.4 C 0 km/h
2796 22-10-2010 07:22:03 1 C 3.89 g/m*3 1 C 0 km/h
2797 22-10-2010 07:34:03 0.7 C 3.92 g/m*3 0.7 C 0 km/h
2798 22-10-2010 07:46:02 0.6 C 3.99 g/m*3 0.6 C 0 km/h
2799 22-10-2010 07:58:02 1 C 4.1 g/m*3 1 C 0 km/h
2800 22-10-2010 08:10:01 1.5 C 4.14 g/m*3 1.5 C 0 km/h
Sensor: Nr:Datum:Temp:Abs-Feuchte:Windchill:Wind:
Aussen-T/F 2801 22-10-2010 08:22:02 1.3 C 4.03 g/m*3 1.3 C 0 km/h
2802 22-10-2010 08:34:02 1.1 C 3.97 g/m*3 1.1 C 0 km/h
2803 22-10-2010 08:46:02 1.1 C 3.97 g/m*3 1.1 C 0 km/h
2804 22-10-2010 08:58:02 1.4 C 4.11 g/m*3 1.4 C 0 km/h
2805 22-10-2010 09:10:03 1.3 C 4.13 g/m*3 1.3 C 0 km/h
2806 22-10-2010 09:22:02 1.4 C 4.16 g/m*3 1.4 C 0 km/h
2807 22-10-2010 09:34:02 1.9 C 4.3 g/m*3 1.9 C 0 km/h
2808 22-10-2010 09:46:01 2.5 C 4.43 g/m*3 2.5 C 0 km/h
2809 22-10-2010 09:58:01 3.2 C 4.46 g/m*3 3.2 C 0 km/h
2810 22-10-2010 10:10:02 3.8 C 4.58 g/m*3 3.8 C 0 km/h
2811 22-10-2010 10:22:01 4.1 C 4.29 g/m*3 4.1 C 0 km/h
2812 22-10-2010 10:34:01 4.3 C 4.15 g/m*3 4.3 C 0 km/h
2813 22-10-2010 10:46:01 4.6 C 4.1 g/m*3 4.6 C 0 km/h
2814 22-10-2010 10:58:01 4.7 C 4 g/m*3 4.7 C 0 km/h
2815 22-10-2010 11:10:02 4.8 C 4.02 g/m*3 4.8 C 0 km/h
2816 22-10-2010 11:22:01 5.1 C 3.9 g/m*3 5.1 C 0 km/h
2817 22-10-2010 11:34:01 5.4 C 3.91 g/m*3 5.4 C 0 km/h
2818 22-10-2010 11:46:01 5.7 C 3.91 g/m*3 5.7 C 0 km/h
2819 22-10-2010 11:58:01 5.8 C 3.94 g/m*3 5.8 C 0 km/h
2820 22-10-2010 12:10:02 6.1 C 3.87 g/m*3 6.1 C 0 km/h
2821 22-10-2010 12:22:02 6.5 C 3.9 g/m*3 6.5 C 0 km/h
2822 22-10-2010 12:34:01 6.5 C 3.82 g/m*3 6.5 C 0 km/h
2823 22-10-2010 12:46:02 6.8 C 3.98 g/m*3 6.8 C 0 km/h
2824 22-10-2010 12:58:02 6.9 C 3.93 g/m*3 6.9 C 0 km/h
2825 22-10-2010 13:10:01 7 C 3.87 g/m*3 7 C 0 km/h
Sensor: Nr:Datum:Temp:Abs-Feuchte:Windchill:Wind:
Aussen-T/F 2826 22-10-2010 13:22:02 7.1 C 3.82 g/m*3 7.1 C 0 km/h
2827 22-10-2010 13:34:01 7.2 C 3.92 g/m*3 7.2 C 0 km/h
2828 22-10-2010 13:46:02 7.3 C 3.87 g/m*3 7.3 C 0 km/h
2829 22-10-2010 13:58:02 7.3 C 3.95 g/m*3 7.3 C 0 km/h
2830 22-10-2010 14:10:02 7.3 C 3.87 g/m*3 7.3 C 0 km/h
2831 22-10-2010 14:22:02 7.5 C 3.92 g/m*3 7.5 C 0 km/h
2832 22-10-2010 14:34:03 7.5 C 3.84 g/m*3 7.5 C 0 km/h
2833 22-10-2010 14:46:02 7.3 C 3.87 g/m*3 7.3 C 0 km/h
2834 22-10-2010 14:58:03 7.2 C 3.85 g/m*3 7.2 C 0 km/h
2835 22-10-2010 15:10:01 7.2 C 3.69 g/m*3 7.2 C 0 km/h
2836 22-10-2010 15:22:02 7.3 C 3.79 g/m*3 7.3 C 0 km/h
2837 22-10-2010 15:34:02 7.2 C 3.77 g/m*3 7.2 C 0 km/h
2838 22-10-2010 15:46:02 7.1 C 3.82 g/m*3 7.1 C 0 km/h
2839 22-10-2010 15:58:02 7.3 C 4.03 g/m*3 7.3 C 0 km/h
2840 22-10-2010 16:10:03 7.4 C 4.06 g/m*3 7.4 C 0 km/h
2841 22-10-2010 16:22:02 7.5 C 4.08 g/m*3 7.5 C 0 km/h
2842 22-10-2010 16:34:02 7.4 C 4.29 g/m*3 7.4 C 0 km/h
2843 22-10-2010 16:46:01 7.4 C 4.53 g/m*3 7.4 C 0 km/h
2844 22-10-2010 16:58:01 7.4 C 4.69 g/m*3 7.4 C 0 km/h
2845 22-10-2010 17:10:02 7.5 C 4.4 g/m*3 7.5 C 0 km/h
2846 22-10-2010 17:22:01 7.7 C 4.14 g/m*3 7.7 C 0 km/h
2847 22-10-2010 17:34:01 7.6 C 4.19 g/m*3 7.6 C 0 km/h
2848 22-10-2010 17:46:01 6.9 C 4.31 g/m*3 6.9 C 0 km/h
2849 22-10-2010 17:58:01 6.4 C 4.32 g/m*3 6.4 C 0 km/h
2850 22-10-2010 18:10:02 6.4 C 4.17 g/m*3 6.4 C 0 km/h
Sensor: Nr:Datum:Temp:Abs-Feuchte:Windchill:Wind:
Aussen-T/F 2851 22-10-2010 18:22:01 6.2 C 4.19 g/m*3 6.2 C 0 km/h
2852 22-10-2010 18:34:01 6 C 4.21 g/m*3 6 C 0 km/h
2853 22-10-2010 18:46:01 6.1 C 4.09 g/m*3 6.1 C 0 km/h
2854 22-10-2010 18:58:01 6.2 C 3.82 g/m*3 6.2 C 0 km/h
2855 22-10-2010 19:10:01 6.2 C 3.68 g/m*3 6.2 C 0 km/h
2856 22-10-2010 19:22:02 6.2 C 3.68 g/m*3 6.2 C 0 km/h
2857 22-10-2010 19:34:01 6.2 C 3.68 g/m*3 6.2 C 0 km/h
2858 22-10-2010 19:46:03 6.2 C 3.68 g/m*3 6.2 C 0 km/h
2859 22-10-2010 19:58:03 6.2 C 3.75 g/m*3 6.2 C 0 km/h
2860 22-10-2010 20:10:02 6.2 C 3.75 g/m*3 6.2 C 0 km/h
2861 22-10-2010 20:22:02 6 C 3.77 g/m*3 6 C 0 km/h
2862 22-10-2010 20:34:02 6 C 3.77 g/m*3 6 C 0 km/h
2863 22-10-2010 20:46:02 6 C 3.85 g/m*3 6 C 0 km/h
2864 22-10-2010 20:58:02 5.9 C 3.97 g/m*3 5.9 C 0 km/h
2865 22-10-2010 21:10:02 6 C 3.85 g/m*3 6 C 0 km/h
2866 22-10-2010 21:22:02 5.9 C 3.97 g/m*3 5.9 C 0 km/h
2867 22-10-2010 21:34:02 5.7 C 3.91 g/m*3 5.7 C 0 km/h
2868 22-10-2010 21:46:01 5.7 C 3.91 g/m*3 5.7 C 0 km/h
2869 22-10-2010 21:58:01 5.3 C 3.88 g/m*3 5.3 C 0 km/h
2870 22-10-2010 22:10:02 4.9 C 3.92 g/m*3 4.9 C 0 km/h
2871 22-10-2010 22:22:01 4.3 C 3.96 g/m*3 4.3 C 0 km/h
2872 22-10-2010 22:35:03 4.1 C 4.1 g/m*3 4.1 C 0 km/h
2873 22-10-2010 22:47:03 3.8 C 4.2 g/m*3 3.8 C 0 km/h
2874 22-10-2010 22:59:03 3.6 C 4.27 g/m*3 3.6 C 0 km/h
2875 22-10-2010 23:11:03 3.4 C 4.28 g/m*3 3.4 C 0 km/h
Sensor: Nr:Datum:Temp:Abs-Feuchte:Windchill:Wind:
Aussen-T/F 2876 22-10-2010 23:23:03 3.1 C 4.31 g/m*3 3.1 C 0 km/h
2877 22-10-2010 23:35:03 2.7 C 4.31 g/m*3 2.7 C 0 km/h
2878 22-10-2010 23:47:03 2.4 C 4.28 g/m*3 2.4 C 0 km/h
2879 22-10-2010 23:59:03 2.2 C 4.34 g/m*3 2.2 C 0 km/h
2880 23-10-2010 00:11:03 2 C 4.28 g/m*3 2 C 0 km/h
2881 23-10-2010 00:23:03 1.8 C 4.28 g/m*3 1.8 C 0 km/h
2882 23-10-2010 00:35:03 1.7 C 4.3 g/m*3 1.7 C 0 km/h
2883 23-10-2010 00:47:03 1.6 C 4.33 g/m*3 1.6 C 0 km/h
2884 23-10-2010 00:59:03 1.4 C 4.32 g/m*3 1.4 C 0 km/h
2885 23-10-2010 01:11:04 1.3 C 4.29 g/m*3 1.3 C 0 km/h
2886 23-10-2010 01:23:04 1.2 C 4.31 g/m*3 1.2 C 0 km/h
2887 23-10-2010 01:35:04 1.1 C 4.29 g/m*3 1.1 C 0 km/h
2888 23-10-2010 01:47:04 1 C 4.26 g/m*3 1 C 0 km/h
2889 23-10-2010 01:59:04 0.8 C 4.3 g/m*3 0.8 C 0 km/h
2890 23-10-2010 02:11:04 0.7 C 4.27 g/m*3 0.7 C 0 km/h
2891 23-10-2010 02:23:04 0.6 C 4.24 g/m*3 0.6 C 0 km/h
2892 23-10-2010 02:35:04 0.5 C 4.21 g/m*3 0.5 C 0 km/h
2893 23-10-2010 02:47:04 0.5 C 4.26 g/m*3 0.5 C 0 km/h
2894 23-10-2010 02:59:04 0.4 C 4.23 g/m*3 0.4 C 0 km/h
2895 23-10-2010 03:11:04 0.3 C 4.2 g/m*3 0.3 C 0 km/h
2896 23-10-2010 03:23:04 0.2 C 4.22 g/m*3 0.2 C 0 km/h
2897 23-10-2010 03:35:04 0.1 C 4.2 g/m*3 0.1 C 0 km/h
2898 23-10-2010 03:47:04 0 C 4.17 g/m*3 0 C 0 km/h
2899 23-10-2010 03:59:04 -0.1 C 4.14 g/m*3 -0.1 C 0 km/h
2900 23-10-2010 04:11:04 -0.2 C 4.16 g/m*3 -0.2 C 0 km/h
Sensor: Nr:Datum:Temp:Abs-Feuchte:Windchill:Wind:
Aussen-T/F 2901 23-10-2010 04:23:04 -0.3 C 4.13 g/m*3 -0.3 C 0 km/h
2902 23-10-2010 04:35:04 -0.3 C 4.13 g/m*3 -0.3 C 0 km/h
2903 23-10-2010 04:47:04 -0.4 C 4.15 g/m*3 -0.4 C 0 km/h
2904 23-10-2010 04:59:04 -0.5 C 4.12 g/m*3 -0.5 C 0 km/h
2905 23-10-2010 05:11:05 -0.6 C 4.09 g/m*3 -0.6 C 0 km/h
2906 23-10-2010 05:23:05 -0.7 C 4.06 g/m*3 -0.7 C 0 km/h
2907 23-10-2010 05:35:05 -0.8 C 4.03 g/m*3 -0.8 C 0 km/h
2908 23-10-2010 05:47:05 -1 C 3.98 g/m*3 -1 C 0 km/h
2909 23-10-2010 05:59:05 -1 C 3.98 g/m*3 -1 C 0 km/h
2910 23-10-2010 06:11:05 -1 C 3.98 g/m*3 -1 C 0 km/h
2911 23-10-2010 06:23:05 -1 C 4.02 g/m*3 -1 C 0 km/h
2912 23-10-2010 06:35:05 -1 C 4.02 g/m*3 -1 C 0 km/h
2913 23-10-2010 06:47:05 -1.1 C 4 g/m*3 -1.1 C 0 km/h
2914 23-10-2010 06:59:05 -1.1 C 4 g/m*3 -1.1 C 0 km/h
2915 23-10-2010 07:11:05 -1.1 C 4 g/m*3 -1.1 C 0 km/h
2916 23-10-2010 07:23:05 -1 C 4.02 g/m*3 -1 C 0 km/h
2917 23-10-2010 07:35:05 -0.9 C 4.05 g/m*3 -0.9 C 0 km/h
2918 23-10-2010 07:47:05 -0.7 C 4.15 g/m*3 -0.7 C 0 km/h
2919 23-10-2010 07:59:05 -0.6 C 4.23 g/m*3 -0.6 C 0 km/h
2920 23-10-2010 08:11:02 -0.5 C 4.26 g/m*3 -0.5 C 0 km/h
2921 23-10-2010 08:23:03 -0.6 C 4.28 g/m*3 -0.6 C 0 km/h
2922 23-10-2010 08:35:02 -0.8 C 4.17 g/m*3 -0.8 C 0 km/h
2923 23-10-2010 08:47:03 -1 C 4.11 g/m*3 -1 C 0 km/h
2924 23-10-2010 08:59:03 -1 C 4.07 g/m*3 -1 C 0 km/h
2925 23-10-2010 09:11:02 -1 C 4.07 g/m*3 -1 C 0 km/h
Sensor: Nr:Datum:Temp:Abs-Feuchte:Windchill:Wind:
Aussen-T/F 2926 23-10-2010 09:23:02 -0.9 C 4.1 g/m*3 -0.9 C 0 km/h
2927 23-10-2010 09:35:02 -0.9 C 4.1 g/m*3 -0.9 C 0 km/h
2928 23-10-2010 09:47:02 -0.7 C 4.2 g/m*3 -0.7 C 0 km/h
2929 23-10-2010 09:59:02 -0.6 C 4.23 g/m*3 -0.6 C 0 km/h
2930 23-10-2010 10:11:01 -0.1 C 4.38 g/m*3 -0.1 C 0 km/h
2931 23-10-2010 10:23:02 0.4 C 4.58 g/m*3 0.4 C 0 km/h
2932 23-10-2010 10:35:02 0.9 C 4.74 g/m*3 0.9 C 0 km/h
2933 23-10-2010 10:47:01 1.5 C 4.94 g/m*3 1.5 C 0 km/h
2934 23-10-2010 10:59:01 2.6 C 5.32 g/m*3 2.6 C 0 km/h
2935 23-10-2010 11:11:02 3.3 C 5.46 g/m*3 3.3 C 0 km/h
2936 23-10-2010 11:23:01 3.7 C 5.55 g/m*3 3.7 C 0 km/h
2937 23-10-2010 11:35:02 4.1 C 5.38 g/m*3 4.1 C 0 km/h
2938 23-10-2010 11:47:02 4.4 C 5.09 g/m*3 4.4 C 0 km/h
2939 23-10-2010 11:59:02 4.9 C 5.13 g/m*3 4.9 C 0 km/h
2940 23-10-2010 12:11:02 5.5 C 5.06 g/m*3 5.5 C 0 km/h
2941 23-10-2010 12:23:01 6.2 C 5.15 g/m*3 6.2 C 0 km/h
2942 23-10-2010 12:35:02 6.7 C 5.17 g/m*3 6.7 C 0 km/h
2943 23-10-2010 12:47:01 7.2 C 5.18 g/m*3 7.2 C 0 km/h
2944 23-10-2010 12:59:01 7.6 C 5.24 g/m*3 7.6 C 0 km/h
2945 23-10-2010 13:11:02 7.8 C 5.22 g/m*3 7.8 C 0 km/h
2946 23-10-2010 13:23:01 8.3 C 5.23 g/m*3 8.3 C 0 km/h
2947 23-10-2010 13:35:02 8.5 C 4.95 g/m*3 8.5 C 0 km/h
2948 23-10-2010 13:47:01 8.8 C 4.79 g/m*3 8.8 C 0 km/h
2949 23-10-2010 13:59:01 9.4 C 4.61 g/m*3 9.4 C 0 km/h
2950 23-10-2010 14:11:02 9.6 C 4.21 g/m*3 9.6 C 0 km/h
Sensor: Nr:Datum:Temp:Abs-Feuchte:Windchill:Wind:
Aussen-T/F 2951 23-10-2010 14:23:02 9.5 C 4.19 g/m*3 9.5 C 0 km/h
2952 23-10-2010 14:35:01 9.1 C 4.17 g/m*3 9.1 C 0 km/h
2953 23-10-2010 14:47:02 8.8 C 4.26 g/m*3 8.8 C 0 km/h
2954 23-10-2010 14:59:02 8.4 C 4.41 g/m*3 8.4 C 0 km/h
2955 23-10-2010 15:11:01 8.3 C 4.47 g/m*3 8.3 C 0 km/h
2956 23-10-2010 15:23:02 8.3 C 4.64 g/m*3 8.3 C 0 km/h
2957 23-10-2010 15:35:01 8.4 C 4.75 g/m*3 8.4 C 0 km/h
2958 23-10-2010 15:47:02 8.5 C 4.7 g/m*3 8.5 C 0 km/h
2959 23-10-2010 15:59:02 8.6 C 4.64 g/m*3 8.6 C 0 km/h
2960 23-10-2010 16:11:02 8.5 C 4.61 g/m*3 8.5 C 0 km/h
2961 23-10-2010 16:23:02 8.4 C 4.67 g/m*3 8.4 C 0 km/h
2962 23-10-2010 16:35:03 7.6 C 4.99 g/m*3 7.6 C 0 km/h
2963 23-10-2010 16:47:02 7.4 C 5.17 g/m*3 7.4 C 0 km/h
2964 23-10-2010 16:59:02 7.7 C 5.19 g/m*3 7.7 C 0 km/h
2965 23-10-2010 17:11:01 7.8 C 5.3 g/m*3 7.8 C 0 km/h
2966 23-10-2010 17:23:02 7.9 C 5.34 g/m*3 7.9 C 0 km/h
2967 23-10-2010 17:35:02 7.9 C 5.34 g/m*3 7.9 C 0 km/h
2968 23-10-2010 17:47:02 7.8 C 5.39 g/m*3 7.8 C 0 km/h
2969 23-10-2010 17:59:02 8 C 5.37 g/m*3 8 C 0 km/h
2970 23-10-2010 18:11:02 8.1 C 5.41 g/m*3 8.1 C 0 km/h
2971 23-10-2010 18:23:02 8.1 C 5.49 g/m*3 8.1 C 0 km/h
2972 23-10-2010 18:35:02 8 C 5.54 g/m*3 8 C 0 km/h
2973 23-10-2010 18:47:02 8 C 5.54 g/m*3 8 C 0 km/h
2974 23-10-2010 18:59:02 8 C 5.46 g/m*3 8 C 0 km/h
2975 23-10-2010 19:11:02 8.1 C 5.33 g/m*3 8.1 C 0 km/h
Sensor: Nr:Datum:Temp:Abs-Feuchte:Windchill:Wind:
Aussen-T/F 2976 23-10-2010 19:23:02 8.4 C 5.26 g/m*3 8.4 C 0 km/h
2977 23-10-2010 19:35:02 8.6 C 5.07 g/m*3 8.6 C 0 km/h
2978 23-10-2010 19:47:01 8.8 C 5.05 g/m*3 8.8 C 0 km/h
2979 23-10-2010 19:59:01 8.9 C 5.08 g/m*3 8.9 C 0 km/h
2980 23-10-2010 20:11:01 9.1 C 5.06 g/m*3 9.1 C 0 km/h
2981 23-10-2010 20:23:02 9.1 C 5.15 g/m*3 9.1 C 0 km/h
2982 23-10-2010 20:35:01 9.2 C 5.27 g/m*3 9.2 C 0 km/h
2983 23-10-2010 20:47:03 9.2 C 5.36 g/m*3 9.2 C 0 km/h
2984 23-10-2010 20:59:03 9.1 C 5.5 g/m*3 9.1 C 0 km/h
2985 23-10-2010 21:11:02 9.1 C 5.68 g/m*3 9.1 C 0 km/h
2986 23-10-2010 21:23:02 9.2 C 5.71 g/m*3 9.2 C 0 km/h
2987 23-10-2010 21:35:02 9.3 C 5.84 g/m*3 9.3 C 0 km/h
2988 23-10-2010 21:47:02 9.4 C 5.79 g/m*3 9.4 C 0 km/h
2989 23-10-2010 21:59:02 9.3 C 5.84 g/m*3 9.3 C 0 km/h
2990 23-10-2010 22:11:01 9.3 C 5.84 g/m*3 9.3 C 0 km/h
2991 23-10-2010 22:24:04 9.4 C 5.88 g/m*3 9.4 C 0 km/h
2992 23-10-2010 22:36:04 9.4 C 5.88 g/m*3 9.4 C 0 km/h
2993 23-10-2010 22:48:04 9.4 C 5.79 g/m*3 9.4 C 0 km/h
2994 23-10-2010 23:00:04 9.5 C 5.73 g/m*3 9.5 C 0 km/h
2995 23-10-2010 23:12:04 9.4 C 5.7 g/m*3 9.4 C 0 km/h
2996 23-10-2010 23:24:04 9.3 C 5.66 g/m*3 9.3 C 0 km/h
2997 23-10-2010 23:36:04 9.2 C 5.63 g/m*3 9.2 C 0 km/h
2998 23-10-2010 23:48:04 9.2 C 5.63 g/m*3 9.2 C 0 km/h
2999 24-10-2010 00:00:04 9.1 C 5.68 g/m*3 9.1 C 0 km/h
3000 24-10-2010 00:12:04 9 C 5.73 g/m*3 9 C 0 km/h
Sensor: Nr:Datum:Temp:Abs-Feuchte:Windchill:Wind:
Aussen-T/F 3001 24-10-2010 00:24:04 8.9 C 5.78 g/m*3 8.9 C 0 km/h
3002 24-10-2010 00:36:04 9.1 C 5.77 g/m*3 9.1 C 0 km/h
3003 24-10-2010 00:48:05 9 C 5.73 g/m*3 9 C 0 km/h
3004 24-10-2010 01:00:05 8.8 C 5.83 g/m*3 8.8 C 0 km/h
3005 24-10-2010 01:12:05 8.9 C 5.87 g/m*3 8.9 C 0 km/h
3006 24-10-2010 01:24:05 9.1 C 5.86 g/m*3 9.1 C 0 km/h
3007 24-10-2010 01:36:05 9 C 5.82 g/m*3 9 C 0 km/h
3008 24-10-2010 01:48:05 9.1 C 5.86 g/m*3 9.1 C 0 km/h
3009 24-10-2010 02:00:05 9 C 5.99 g/m*3 9 C 0 km/h
3010 24-10-2010 02:12:05 8.8 C 6.09 g/m*3 8.8 C 0 km/h
3011 24-10-2010 02:24:05 8.2 C 6.28 g/m*3 8.2 C 0 km/h
3012 24-10-2010 02:36:05 8.1 C 6.49 g/m*3 8.1 C 0 km/h
3013 24-10-2010 02:48:05 8.2 C 6.53 g/m*3 8.2 C 0 km/h
3014 24-10-2010 03:00:05 8.3 C 6.49 g/m*3 8.3 C 0 km/h
3015 24-10-2010 03:12:05 8.4 C 6.45 g/m*3 8.4 C 0 km/h
3016 24-10-2010 03:24:05 8.5 C 6.32 g/m*3 8.5 C 0 km/h
3017 24-10-2010 03:36:05 8.6 C 6.19 g/m*3 8.6 C 0 km/h
3018 24-10-2010 03:48:05 8.5 C 6.06 g/m*3 8.5 C 0 km/h
3019 24-10-2010 04:00:05 8.7 C 6.05 g/m*3 8.7 C 0 km/h
3020 24-10-2010 04:12:05 8.7 C 6.05 g/m*3 8.7 C 0 km/h
3021 24-10-2010 04:24:05 8.6 C 6.02 g/m*3 8.6 C 0 km/h
3022 24-10-2010 04:36:05 8.6 C 6.02 g/m*3 8.6 C 0 km/h
3023 24-10-2010 04:48:05 8.7 C 5.97 g/m*3 8.7 C 0 km/h
3024 24-10-2010 05:00:05 8.8 C 5.83 g/m*3 8.8 C 0 km/h
3025 24-10-2010 05:12:06 8.8 C 5.92 g/m*3 8.8 C 0 km/h
Sensor: Nr:Datum:Temp:Abs-Feuchte:Windchill:Wind:
Aussen-T/F 3026 24-10-2010 05:24:06 8.7 C 5.97 g/m*3 8.7 C 0 km/h
3027 24-10-2010 05:36:06 8.1 C 5.99 g/m*3 8.1 C 0 km/h
3028 24-10-2010 05:48:06 8.1 C 6.16 g/m*3 8.1 C 0 km/h
3029 24-10-2010 06:00:06 8 C 6.12 g/m*3 8 C 0 km/h
3030 24-10-2010 06:12:06 8.2 C 6.2 g/m*3 8.2 C 0 km/h
3031 24-10-2010 06:24:06 8.3 C 6.15 g/m*3 8.3 C 0 km/h
3032 24-10-2010 06:36:06 7.9 C 6.32 g/m*3 7.9 C 0 km/h
3033 24-10-2010 06:48:06 7.5 C 6.4 g/m*3 7.5 C 0 km/h
3034 24-10-2010 07:00:06 7.3 C 6.64 g/m*3 7.3 C 0 km/h
3035 24-10-2010 07:12:06 7.1 C 6.71 g/m*3 7.1 C 0 km/h
3036 24-10-2010 07:24:02 7 C 6.66 g/m*3 7 C 0 km/h
3037 24-10-2010 07:36:03 6.9 C 6.77 g/m*3 6.9 C 0 km/h
3038 24-10-2010 07:48:02 7 C 6.82 g/m*3 7 C 0 km/h
3039 24-10-2010 08:00:02 7 C 6.82 g/m*3 7 C 0 km/h
3040 24-10-2010 08:12:02 7 C 6.9 g/m*3 7 C 0 km/h
3041 24-10-2010 08:24:02 7 C 6.9 g/m*3 7 C 0 km/h
3042 24-10-2010 08:36:02 6.9 C 6.93 g/m*3 6.9 C 0 km/h
3043 24-10-2010 08:48:02 6.9 C 7.01 g/m*3 6.9 C 0 km/h
3044 24-10-2010 09:00:02 7 C 6.97 g/m*3 7 C 0 km/h
3045 24-10-2010 09:12:02 6.9 C 7.01 g/m*3 6.9 C 0 km/h
3046 24-10-2010 09:24:02 7 C 6.97 g/m*3 7 C 0 km/h
3047 24-10-2010 09:36:02 7.3 C 7.11 g/m*3 7.3 C 0 km/h
3048 24-10-2010 09:48:01 7.5 C 7.04 g/m*3 7.5 C 0 km/h
3049 24-10-2010 10:00:01 7.1 C 6.79 g/m*3 7.1 C 0 km/h
3050 24-10-2010 10:12:01 7 C 6.74 g/m*3 7 C 0 km/h
Sensor: Nr:Datum:Temp:Abs-Feuchte:Windchill:Wind:
Aussen-T/F 3051 24-10-2010 10:24:02 7 C 6.66 g/m*3 7 C 0 km/h
3052 24-10-2010 10:36:01 6.9 C 6.54 g/m*3 6.9 C 0 km/h
3053 24-10-2010 10:48:03 7 C 6.51 g/m*3 7 C 0 km/h
3054 24-10-2010 11:00:03 7.3 C 6.48 g/m*3 7.3 C 0 km/h
3055 24-10-2010 11:12:02 7.9 C 6.49 g/m*3 7.9 C 0 km/h
3056 24-10-2010 11:24:02 8.8 C 5.74 g/m*3 8.8 C 0 km/h
3057 24-10-2010 11:36:02 8.6 C 5.16 g/m*3 8.6 C 0 km/h
3058 24-10-2010 11:48:02 8.9 C 5.26 g/m*3 8.9 C 0 km/h
3059 24-10-2010 12:00:02 9 C 5.03 g/m*3 9 C 0 km/h
3060 24-10-2010 12:12:02 9.2 C 4.91 g/m*3 9.2 C 0 km/h
3061 24-10-2010 12:24:02 9.4 C 4.61 g/m*3 9.4 C 0 km/h
3062 24-10-2010 12:36:02 9.5 C 4.64 g/m*3 9.5 C 0 km/h
3063 24-10-2010 12:48:02 9.7 C 4.52 g/m*3 9.7 C 0 km/h
3064 24-10-2010 13:00:02 9.7 C 4.61 g/m*3 9.7 C 0 km/h
3065 24-10-2010 13:12:01 10.2 C 4.57 g/m*3 10.2 C 0 km/h
3066 24-10-2010 13:24:01 10.6 C 4.68 g/m*3 10.6 C 0 km/h
3067 24-10-2010 13:36:02 10.6 C 4.68 g/m*3 10.6 C 0 km/h
3068 24-10-2010 13:48:02 11.2 C 4.46 g/m*3 11.2 C 0 km/h
3069 24-10-2010 14:00:02 10.9 C 4.58 g/m*3 10.9 C 0 km/h
3070 24-10-2010 14:12:02 10.9 C 4.48 g/m*3 10.9 C 0 km/h
3071 24-10-2010 14:24:01 11.9 C 4.45 g/m*3 11.9 C 0 km/h
3072 24-10-2010 14:36:02 12.2 C 3.99 g/m*3 12.2 C 0 km/h
3073 24-10-2010 14:48:02 12.2 C 3.88 g/m*3 12.2 C 0 km/h
3074 24-10-2010 15:00:02 12.9 C 4.28 g/m*3 12.9 C 0 km/h
3075 24-10-2010 15:12:02 12.7 C 4.45 g/m*3 12.7 C 0 km/h
Sensor: Nr:Datum:Temp:Abs-Feuchte:Windchill:Wind:
Aussen-T/F 3076 24-10-2010 15:24:01 11.7 C 4.39 g/m*3 11.7 C 0 km/h
3077 24-10-2010 15:36:02 11.8 C 4.1 g/m*3 11.8 C 0 km/h
3078 24-10-2010 15:48:02 12.4 C 3.93 g/m*3 12.4 C 0 km/h
3079 24-10-2010 16:00:02 12.1 C 3.65 g/m*3 12.1 C 0 km/h
3080 24-10-2010 16:12:02 12.8 C 3.92 g/m*3 12.8 C 0 km/h
3081 24-10-2010 16:24:02 13.4 C 3.72 g/m*3 13.4 C 0 km/h
3082 24-10-2010 16:36:02 13.4 C 3.6 g/m*3 13.4 C 0 km/h
3083 24-10-2010 16:48:02 13.5 C 3.86 g/m*3 13.5 C 0 km/h
3084 24-10-2010 17:00:02 13 C 3.52 g/m*3 13 C 0 km/h
3085 24-10-2010 17:12:02 12.2 C 3.88 g/m*3 12.2 C 0 km/h
3086 24-10-2010 17:24:02 12.2 C 4.21 g/m*3 12.2 C 0 km/h
3087 24-10-2010 17:36:01 11.4 C 4.11 g/m*3 11.4 C 0 km/h
3088 24-10-2010 17:48:02 11.3 C 4.28 g/m*3 11.3 C 0 km/h
3089 24-10-2010 18:00:02 10.6 C 4.29 g/m*3 10.6 C 0 km/h
3090 24-10-2010 18:12:01 10 C 4.51 g/m*3 10 C 0 km/h
3091 24-10-2010 18:24:02 9.6 C 4.86 g/m*3 9.6 C 0 km/h
3092 24-10-2010 18:36:01 9 C 4.94 g/m*3 9 C 0 km/h
3093 24-10-2010 18:48:02 8.6 C 5.07 g/m*3 8.6 C 0 km/h
3094 24-10-2010 19:00:03 8.2 C 5.19 g/m*3 8.2 C 0 km/h
3095 24-10-2010 19:12:02 7.8 C 5.22 g/m*3 7.8 C 0 km/h
3096 24-10-2010 19:24:02 7.3 C 5.14 g/m*3 7.3 C 0 km/h
3097 24-10-2010 19:36:02 7 C 5.04 g/m*3 7 C 0 km/h
3098 24-10-2010 19:48:01 6.8 C 5.12 g/m*3 6.8 C 0 km/h
3099 24-10-2010 20:00:01 6.6 C 5.06 g/m*3 6.6 C 0 km/h
3100 24-10-2010 20:12:02 6.5 C 5.17 g/m*3 6.5 C 0 km/h
Sensor: Nr:Datum:Temp:Abs-Feuchte:Windchill:Wind:
Aussen-T/F 3101 24-10-2010 20:24:01 6.4 C 5.14 g/m*3 6.4 C 0 km/h
3102 24-10-2010 20:36:01 6.4 C 5.22 g/m*3 6.4 C 0 km/h
3103 24-10-2010 20:48:01 6.5 C 5.32 g/m*3 6.5 C 0 km/h
3104 24-10-2010 21:00:01 6.7 C 5.39 g/m*3 6.7 C 0 km/h
3105 24-10-2010 21:12:02 6.4 C 5.36 g/m*3 6.4 C 0 km/h
3106 24-10-2010 21:24:01 6 C 5.3 g/m*3 6 C 0 km/h
3107 24-10-2010 21:36:02 5.8 C 5.37 g/m*3 5.8 C 0 km/h
3108 24-10-2010 21:48:01 5.7 C 5.48 g/m*3 5.7 C 0 km/h
3109 24-10-2010 22:00:01 5.5 C 5.48 g/m*3 5.5 C 0 km/h
3110 24-10-2010 22:12:02 5.7 C 5.62 g/m*3 5.7 C 0 km/h
3111 24-10-2010 22:24:02 5.9 C 5.7 g/m*3 5.9 C 0 km/h
3112 24-10-2010 22:36:01 5.6 C 5.51 g/m*3 5.6 C 0 km/h
3113 24-10-2010 22:48:02 5.4 C 5.51 g/m*3 5.4 C 0 km/h
3114 24-10-2010 23:00:02 5.1 C 5.4 g/m*3 5.1 C 0 km/h
3115 24-10-2010 23:13:04 5 C 5.5 g/m*3 5 C 0 km/h
3116 24-10-2010 23:25:04 4.7 C 5.46 g/m*3 4.7 C 0 km/h
3117 24-10-2010 23:37:04 4.7 C 5.53 g/m*3 4.7 C 0 km/h
3118 24-10-2010 23:49:04 4.7 C 5.53 g/m*3 4.7 C 0 km/h
3119 25-10-2010 00:01:04 4.7 C 5.6 g/m*3 4.7 C 0 km/h
3120 25-10-2010 00:13:04 4.8 C 5.7 g/m*3 4.8 C 0 km/h
3121 25-10-2010 00:25:04 5 C 5.78 g/m*3 5 C 0 km/h
3122 25-10-2010 00:37:04 4.8 C 5.7 g/m*3 4.8 C 0 km/h
3123 25-10-2010 00:49:04 4.7 C 5.73 g/m*3 4.7 C 0 km/h
3124 25-10-2010 01:01:05 4.6 C 5.62 g/m*3 4.6 C 0 km/h
3125 25-10-2010 01:13:05 4.6 C 5.69 g/m*3 4.6 C 0 km/h
Sensor: Nr:Datum:Temp:Abs-Feuchte:Windchill:Wind:
Aussen-T/F 3126 25-10-2010 01:25:05 4.4 C 5.62 g/m*3 4.4 C 0 km/h
3127 25-10-2010 01:37:05 4.4 C 5.62 g/m*3 4.4 C 0 km/h
3128 25-10-2010 01:49:05 4.5 C 5.72 g/m*3 4.5 C 0 km/h
3129 25-10-2010 02:01:05 4.6 C 5.76 g/m*3 4.6 C 0 km/h
3130 25-10-2010 02:13:05 4.4 C 5.68 g/m*3 4.4 C 0 km/h
3131 25-10-2010 02:25:05 4.4 C 5.68 g/m*3 4.4 C 0 km/h
3132 25-10-2010 02:37:05 4.2 C 5.61 g/m*3 4.2 C 0 km/h
3133 25-10-2010 02:49:05 4.5 C 5.72 g/m*3 4.5 C 0 km/h
3134 25-10-2010 03:01:05 4.5 C 5.78 g/m*3 4.5 C 0 km/h
3135 25-10-2010 03:13:05 4.5 C 5.72 g/m*3 4.5 C 0 km/h
3136 25-10-2010 03:25:05 4.5 C 5.72 g/m*3 4.5 C 0 km/h
3137 25-10-2010 03:37:05 4.7 C 5.8 g/m*3 4.7 C 0 km/h
3138 25-10-2010 03:49:05 4.9 C 5.81 g/m*3 4.9 C 0 km/h
3139 25-10-2010 04:01:05 5 C 5.78 g/m*3 5 C 0 km/h
3140 25-10-2010 04:13:05 5.1 C 5.75 g/m*3 5.1 C 0 km/h
3141 25-10-2010 04:25:05 5.1 C 5.75 g/m*3 5.1 C 0 km/h
3142 25-10-2010 04:37:05 5.1 C 5.68 g/m*3 5.1 C 0 km/h
3143 25-10-2010 04:49:05 5.2 C 5.71 g/m*3 5.2 C 0 km/h
3144 25-10-2010 05:01:05 5.2 C 5.71 g/m*3 5.2 C 0 km/h
3145 25-10-2010 05:13:06 5.2 C 5.65 g/m*3 5.2 C 0 km/h
3146 25-10-2010 05:25:06 5.1 C 5.61 g/m*3 5.1 C 0 km/h
3147 25-10-2010 05:37:06 5 C 5.57 g/m*3 5 C 0 km/h
3148 25-10-2010 05:49:06 5 C 5.57 g/m*3 5 C 0 km/h
3149 25-10-2010 06:01:06 5 C 5.57 g/m*3 5 C 0 km/h
3150 25-10-2010 06:13:06 5.1 C 5.61 g/m*3 5.1 C 0 km/h
Sensor: Nr:Datum:Temp:Abs-Feuchte:Windchill:Wind:
Aussen-T/F 3151 25-10-2010 06:25:06 5.1 C 5.54 g/m*3 5.1 C 0 km/h
3152 25-10-2010 06:37:06 5 C 5.5 g/m*3 5 C 0 km/h
3153 25-10-2010 06:49:02 5 C 5.5 g/m*3 5 C 0 km/h
3154 25-10-2010 07:01:02 5 C 5.5 g/m*3 5 C 0 km/h
3155 25-10-2010 07:13:02 4.9 C 5.54 g/m*3 4.9 C 0 km/h
3156 25-10-2010 07:25:02 4.8 C 5.5 g/m*3 4.8 C 0 km/h
3157 25-10-2010 07:37:02 4.8 C 5.5 g/m*3 4.8 C 0 km/h
3158 25-10-2010 07:49:02 4.8 C 5.5 g/m*3 4.8 C 0 km/h
3159 25-10-2010 08:01:02 4.9 C 5.54 g/m*3 4.9 C 0 km/h
3160 25-10-2010 08:13:02 4.9 C 5.54 g/m*3 4.9 C 0 km/h
3161 25-10-2010 08:25:02 4.8 C 5.5 g/m*3 4.8 C 0 km/h
3162 25-10-2010 08:37:02 4.9 C 5.54 g/m*3 4.9 C 0 km/h
3163 25-10-2010 08:49:01 5 C 5.5 g/m*3 5 C 0 km/h
3164 25-10-2010 09:01:01 5 C 5.5 g/m*3 5 C 0 km/h
3165 25-10-2010 09:13:02 5 C 5.44 g/m*3 5 C 0 km/h
3166 25-10-2010 09:25:01 5 C 5.44 g/m*3 5 C 0 km/h
3167 25-10-2010 09:37:01 5 C 5.44 g/m*3 5 C 0 km/h
3168 25-10-2010 09:49:02 5.3 C 5.54 g/m*3 5.3 C 0 km/h
3169 25-10-2010 10:01:02 5.5 C 5.55 g/m*3 5.5 C 0 km/h
3170 25-10-2010 10:13:02 5.9 C 5.62 g/m*3 5.9 C 0 km/h
3171 25-10-2010 10:25:03 5.8 C 5.44 g/m*3 5.8 C 0 km/h
3172 25-10-2010 10:37:02 5.8 C 5.44 g/m*3 5.8 C 0 km/h
3173 25-10-2010 10:49:03 6 C 5.44 g/m*3 6 C 0 km/h
3174 25-10-2010 11:01:02 6.2 C 5.44 g/m*3 6.2 C 0 km/h
3175 25-10-2010 11:13:02 6.4 C 5.44 g/m*3 6.4 C 0 km/h
Sensor: Nr:Datum:Temp:Abs-Feuchte:Windchill:Wind:
Aussen-T/F 3176 25-10-2010 11:25:02 6.5 C 5.4 g/m*3 6.5 C 0 km/h
3177 25-10-2010 11:37:02 6.6 C 5.44 g/m*3 6.6 C 0 km/h
3178 25-10-2010 11:49:02 7 C 5.5 g/m*3 7 C 0 km/h
3179 25-10-2010 12:01:01 7.3 C 5.37 g/m*3 7.3 C 0 km/h
3180 25-10-2010 12:13:01 8 C 5.54 g/m*3 8 C 0 km/h
3181 25-10-2010 12:25:02 8.2 C 5.28 g/m*3 8.2 C 0 km/h
3182 25-10-2010 12:37:01 7.6 C 5.16 g/m*3 7.6 C 0 km/h
3183 25-10-2010 12:49:02 8.1 C 5.16 g/m*3 8.1 C 0 km/h
3184 25-10-2010 13:01:02 8.2 C 5.02 g/m*3 8.2 C 0 km/h
3185 25-10-2010 13:13:02 8.4 C 5.01 g/m*3 8.4 C 0 km/h
3186 25-10-2010 13:25:02 8.7 C 5.36 g/m*3 8.7 C 0 km/h
3187 25-10-2010 13:37:03 8.9 C 5.08 g/m*3 8.9 C 0 km/h
3188 25-10-2010 13:49:02 9.5 C 5.1 g/m*3 9.5 C 0 km/h
3189 25-10-2010 14:01:02 9.7 C 4.79 g/m*3 9.7 C 0 km/h
3190 25-10-2010 14:13:02 9.6 C 4.86 g/m*3 9.6 C 0 km/h
3191 25-10-2010 14:25:01 10.1 C 4.73 g/m*3 10.1 C 0 km/h
3192 25-10-2010 14:37:02 10.4 C 4.63 g/m*3 10.4 C 0 km/h
3193 25-10-2010 14:49:02 10.7 C 4.13 g/m*3 10.7 C 0 km/h
3194 25-10-2010 15:01:02 10.4 C 4.05 g/m*3 10.4 C 0 km/h
3195 25-10-2010 15:13:02 10.4 C 3.95 g/m*3 10.4 C 0 km/h
3196 25-10-2010 15:25:01 10.2 C 3.81 g/m*3 10.2 C 0 km/h
3197 25-10-2010 15:37:02 10.4 C 3.76 g/m*3 10.4 C 0 km/h
3198 25-10-2010 15:49:02 10.6 C 4 g/m*3 10.6 C 0 km/h
3199 25-10-2010 16:01:02 11.7 C 4.08 g/m*3 11.7 C 0 km/h
3200 25-10-2010 16:13:02 10.4 C 3.66 g/m*3 10.4 C 0 km/h
Sensor: Nr:Datum:Temp:Abs-Feuchte:Windchill:Wind:
Aussen-T/F 3201 25-10-2010 16:25:01 10.5 C 3.98 g/m*3 10.5 C 0 km/h
3202 25-10-2010 16:37:02 10.5 C 3.88 g/m*3 10.5 C 0 km/h
3203 25-10-2010 16:49:01 10.5 C 3.98 g/m*3 10.5 C 0 km/h
3204 25-10-2010 17:01:02 10.9 C 4.18 g/m*3 10.9 C 0 km/h
3205 25-10-2010 17:13:02 11.1 C 4.03 g/m*3 11.1 C 0 km/h
3206 25-10-2010 17:25:02 11.2 C 4.05 g/m*3 11.2 C 0 km/h
3207 25-10-2010 17:37:02 10.4 C 3.95 g/m*3 10.4 C 0 km/h
3208 25-10-2010 17:49:02 9.8 C 4.08 g/m*3 9.8 C 0 km/h
3209 25-10-2010 18:01:01 9.2 C 4.11 g/m*3 9.2 C 0 km/h
3210 25-10-2010 18:13:01 8.9 C 4.2 g/m*3 8.9 C 0 km/h
3211 25-10-2010 18:25:02 8.3 C 4.21 g/m*3 8.3 C 0 km/h
3212 25-10-2010 18:37:01 8 C 4.22 g/m*3 8 C 0 km/h
3213 25-10-2010 18:49:02 7.4 C 4.45 g/m*3 7.4 C 0 km/h
3214 25-10-2010 19:01:01 7 C 4.49 g/m*3 7 C 0 km/h
3215 25-10-2010 19:13:01 6.7 C 4.71 g/m*3 6.7 C 0 km/h
3216 25-10-2010 19:25:01 6.2 C 4.71 g/m*3 6.2 C 0 km/h
3217 25-10-2010 19:37:02 5.8 C 4.73 g/m*3 5.8 C 0 km/h
3218 25-10-2010 19:49:02 5.4 C 4.74 g/m*3 5.4 C 0 km/h
3219 25-10-2010 20:01:01 5 C 4.69 g/m*3 5 C 0 km/h
3220 25-10-2010 20:13:01 4.7 C 4.73 g/m*3 4.7 C 0 km/h
3221 25-10-2010 20:25:02 4.7 C 4.86 g/m*3 4.7 C 0 km/h
3222 25-10-2010 20:37:02 4.5 C 4.8 g/m*3 4.5 C 0 km/h
3223 25-10-2010 20:49:02 4.4 C 4.77 g/m*3 4.4 C 0 km/h
3224 25-10-2010 21:01:03 4.3 C 4.86 g/m*3 4.3 C 0 km/h
3225 25-10-2010 21:13:03 4.1 C 4.93 g/m*3 4.1 C 0 km/h
Sensor: Nr:Datum:Temp:Abs-Feuchte:Windchill:Wind:
Aussen-T/F 3226 25-10-2010 21:25:02 3.9 C 4.93 g/m*3 3.9 C 0 km/h
3227 25-10-2010 21:37:02 3.7 C 4.92 g/m*3 3.7 C 0 km/h
3228 25-10-2010 21:49:01 3.6 C 4.95 g/m*3 3.6 C 0 km/h
3229 25-10-2010 22:01:01 3.4 C 4.95 g/m*3 3.4 C 0 km/h
3230 25-10-2010 22:13:01 3.1 C 4.79 g/m*3 3.1 C 0 km/h
3231 25-10-2010 22:25:01 3 C 4.76 g/m*3 3 C 0 km/h
3232 25-10-2010 22:37:02 2.9 C 4.84 g/m*3 2.9 C 0 km/h
3233 25-10-2010 22:49:02 2.6 C 4.8 g/m*3 2.6 C 0 km/h
3234 25-10-2010 23:01:02 2.4 C 4.8 g/m*3 2.4 C 0 km/h
3235 25-10-2010 23:13:02 2.4 C 4.8 g/m*3